<?xml version="1.0" encoding="UTF-8" standalone="no" ?>
<gpx xmlns="http://www.topografix.com/GPX/1/1" xmlns:xsi="http://www.w3.org/2001/XMLSchema-instance" xsi:schemaLocation="http://www.topografix.com/GPX/1/1 http://www.topografix.com/GPX/1/1/gpx.xsd" version="1.1" creator="VisuGPX - https://www.visugpx.com">
  <metadata>
    <name>Cyclo Tour de la montagne saint genis </name>
    <desc><![CDATA[A partir de valenty: Col de Faye, Savournon, Laragne dans le paysage provençal du Buech]]></desc>
  </metadata>
  <trk>
    <name><![CDATA[ACTIVE LOG 003]]></name>
    <trkseg>
      <trkpt lat="44.36721" lon="5.92401">
        <ele>463.012085</ele>
        <time>2014-11-20T09:41:04Z</time>
      </trkpt>
      <trkpt lat="44.36727" lon="5.92403">
        <ele>466.8574219</ele>
        <time>2014-11-20T09:41:25Z</time>
      </trkpt>
      <trkpt lat="44.36727" lon="5.92403">
        <ele>470.2219238</ele>
        <time>2014-11-20T09:41:26Z</time>
      </trkpt>
      <trkpt lat="44.36728" lon="5.92402">
        <ele>473.5866699</ele>
        <time>2014-11-20T09:41:27Z</time>
      </trkpt>
      <trkpt lat="44.36729" lon="5.92402">
        <ele>477.4318848</ele>
        <time>2014-11-20T09:41:28Z</time>
      </trkpt>
      <trkpt lat="44.36729" lon="5.92401">
        <ele>483.1998291</ele>
        <time>2014-11-20T09:41:30Z</time>
      </trkpt>
      <trkpt lat="44.3673" lon="5.924">
        <ele>488.9677734</ele>
        <time>2014-11-20T09:41:32Z</time>
      </trkpt>
      <trkpt lat="44.3673" lon="5.924">
        <ele>492.3323975</ele>
        <time>2014-11-20T09:41:33Z</time>
      </trkpt>
      <trkpt lat="44.3673" lon="5.924">
        <ele>497.6196289</ele>
        <time>2014-11-20T09:41:35Z</time>
      </trkpt>
      <trkpt lat="44.36731" lon="5.924">
        <ele>502.4261475</ele>
        <time>2014-11-20T09:41:37Z</time>
      </trkpt>
      <trkpt lat="44.36731" lon="5.924">
        <ele>507.713501</ele>
        <time>2014-11-20T09:41:39Z</time>
      </trkpt>
      <trkpt lat="44.36731" lon="5.92399">
        <ele>511.5587158</ele>
        <time>2014-11-20T09:41:41Z</time>
      </trkpt>
      <trkpt lat="44.36731" lon="5.92399">
        <ele>515.8846436</ele>
        <time>2014-11-20T09:41:43Z</time>
      </trkpt>
      <trkpt lat="44.36731" lon="5.92399">
        <ele>519.7298584</ele>
        <time>2014-11-20T09:41:45Z</time>
      </trkpt>
      <trkpt lat="44.36731" lon="5.92399">
        <ele>523.0946045</ele>
        <time>2014-11-20T09:41:47Z</time>
      </trkpt>
      <trkpt lat="44.36731" lon="5.92399">
        <ele>527.4204102</ele>
        <time>2014-11-20T09:41:50Z</time>
      </trkpt>
      <trkpt lat="44.36731" lon="5.92399">
        <ele>532.7077637</ele>
        <time>2014-11-20T09:41:52Z</time>
      </trkpt>
      <trkpt lat="44.36731" lon="5.92399">
        <ele>536.0723877</ele>
        <time>2014-11-20T09:41:55Z</time>
      </trkpt>
      <trkpt lat="44.36731" lon="5.92399">
        <ele>538.9562988</ele>
        <time>2014-11-20T09:41:57Z</time>
      </trkpt>
      <trkpt lat="44.36731" lon="5.92399">
        <ele>540.8789063</ele>
        <time>2014-11-20T09:41:59Z</time>
      </trkpt>
      <trkpt lat="44.36731" lon="5.92399">
        <ele>544.7242432</ele>
        <time>2014-11-20T09:42:03Z</time>
      </trkpt>
      <trkpt lat="44.36731" lon="5.92399">
        <ele>548.0888672</ele>
        <time>2014-11-20T09:42:06Z</time>
      </trkpt>
      <trkpt lat="44.36731" lon="5.92399">
        <ele>550.9726563</ele>
        <time>2014-11-20T09:42:09Z</time>
      </trkpt>
      <trkpt lat="44.36731" lon="5.92399">
        <ele>550.9726563</ele>
        <time>2014-11-20T09:42:10Z</time>
      </trkpt>
      <trkpt lat="44.36731" lon="5.92399">
        <ele>554.8178711</ele>
        <time>2014-11-20T09:42:14Z</time>
      </trkpt>
      <trkpt lat="44.36731" lon="5.92399">
        <ele>558.6633301</ele>
        <time>2014-11-20T09:42:20Z</time>
      </trkpt>
      <trkpt lat="44.36731" lon="5.92399">
        <ele>562.0280762</ele>
        <time>2014-11-20T09:42:28Z</time>
      </trkpt>
      <trkpt lat="44.36731" lon="5.92399">
        <ele>562.5085449</ele>
        <time>2014-11-20T09:42:29Z</time>
      </trkpt>
      <trkpt lat="44.36733" lon="5.92398">
        <ele>564.9118652</ele>
        <time>2014-11-20T09:42:39Z</time>
      </trkpt>
      <trkpt lat="44.36733" lon="5.92399">
        <ele>566.8344727</ele>
        <time>2014-11-20T09:42:54Z</time>
      </trkpt>
      <trkpt lat="44.36732" lon="5.92392">
        <ele>567.7956543</ele>
        <time>2014-11-20T09:42:58Z</time>
      </trkpt>
      <trkpt lat="44.36693" lon="5.92402">
        <ele>569.7185059</ele>
        <time>2014-11-20T09:43:12Z</time>
      </trkpt>
      <trkpt lat="44.36652" lon="5.9243">
        <ele>569.7185059</ele>
        <time>2014-11-20T09:43:26Z</time>
      </trkpt>
      <trkpt lat="44.36606" lon="5.92422">
        <ele>569.7185059</ele>
        <time>2014-11-20T09:43:40Z</time>
      </trkpt>
      <trkpt lat="44.36594" lon="5.92413">
        <ele>570.6796875</ele>
        <time>2014-11-20T09:43:44Z</time>
      </trkpt>
      <trkpt lat="44.36547" lon="5.92357">
        <ele>570.1989746</ele>
        <time>2014-11-20T09:44:03Z</time>
      </trkpt>
      <trkpt lat="44.36547" lon="5.9235">
        <ele>572.1218262</ele>
        <time>2014-11-20T09:44:05Z</time>
      </trkpt>
      <trkpt lat="44.36556" lon="5.92354">
        <ele>571.1604004</ele>
        <time>2014-11-20T09:44:10Z</time>
      </trkpt>
      <trkpt lat="44.36559" lon="5.9236">
        <ele>570.1989746</ele>
        <time>2014-11-20T09:44:12Z</time>
      </trkpt>
      <trkpt lat="44.36575" lon="5.92378">
        <ele>572.6025391</ele>
        <time>2014-11-20T09:44:19Z</time>
      </trkpt>
      <trkpt lat="44.36592" lon="5.9239">
        <ele>574.5251465</ele>
        <time>2014-11-20T09:44:26Z</time>
      </trkpt>
      <trkpt lat="44.36627" lon="5.92413">
        <ele>574.0444336</ele>
        <time>2014-11-20T09:44:40Z</time>
      </trkpt>
      <trkpt lat="44.36665" lon="5.92405">
        <ele>575.4863281</ele>
        <time>2014-11-20T09:44:54Z</time>
      </trkpt>
      <trkpt lat="44.36688" lon="5.92366">
        <ele>576.4477539</ele>
        <time>2014-11-20T09:45:07Z</time>
      </trkpt>
      <trkpt lat="44.36708" lon="5.9232">
        <ele>576.9284668</ele>
        <time>2014-11-20T09:45:21Z</time>
      </trkpt>
      <trkpt lat="44.36732" lon="5.92282">
        <ele>577.4091797</ele>
        <time>2014-11-20T09:45:33Z</time>
      </trkpt>
      <trkpt lat="44.36766" lon="5.9229">
        <ele>577.8896484</ele>
        <time>2014-11-20T09:45:43Z</time>
      </trkpt>
      <trkpt lat="44.36798" lon="5.92273">
        <ele>578.3703613</ele>
        <time>2014-11-20T09:45:55Z</time>
      </trkpt>
      <trkpt lat="44.36832" lon="5.92214">
        <ele>577.4091797</ele>
        <time>2014-11-20T09:46:10Z</time>
      </trkpt>
      <trkpt lat="44.36872" lon="5.92137">
        <ele>576.4477539</ele>
        <time>2014-11-20T09:46:25Z</time>
      </trkpt>
      <trkpt lat="44.36922" lon="5.9203">
        <ele>575.0058594</ele>
        <time>2014-11-20T09:46:44Z</time>
      </trkpt>
      <trkpt lat="44.36926" lon="5.92005">
        <ele>575.4863281</ele>
        <time>2014-11-20T09:46:48Z</time>
      </trkpt>
      <trkpt lat="44.36925" lon="5.91968">
        <ele>576.4477539</ele>
        <time>2014-11-20T09:46:54Z</time>
      </trkpt>
      <trkpt lat="44.36928" lon="5.91878">
        <ele>577.8896484</ele>
        <time>2014-11-20T09:47:11Z</time>
      </trkpt>
      <trkpt lat="44.36934" lon="5.91821">
        <ele>579.331543</ele>
        <time>2014-11-20T09:47:24Z</time>
      </trkpt>
      <trkpt lat="44.36938" lon="5.91799">
        <ele>581.2543945</ele>
        <time>2014-11-20T09:47:29Z</time>
      </trkpt>
      <trkpt lat="44.3694" lon="5.91791">
        <ele>580.2929688</ele>
        <time>2014-11-20T09:47:31Z</time>
      </trkpt>
      <trkpt lat="44.36953" lon="5.91724">
        <ele>583.6574707</ele>
        <time>2014-11-20T09:47:48Z</time>
      </trkpt>
      <trkpt lat="44.36954" lon="5.91721">
        <ele>583.6574707</ele>
        <time>2014-11-20T09:47:49Z</time>
      </trkpt>
      <trkpt lat="44.36979" lon="5.91657">
        <ele>585.5800781</ele>
        <time>2014-11-20T09:48:08Z</time>
      </trkpt>
      <trkpt lat="44.36987" lon="5.91654">
        <ele>586.060791</ele>
        <time>2014-11-20T09:48:12Z</time>
      </trkpt>
      <trkpt lat="44.37014" lon="5.91641">
        <ele>587.9833984</ele>
        <time>2014-11-20T09:48:24Z</time>
      </trkpt>
      <trkpt lat="44.37025" lon="5.91636">
        <ele>590.3869629</ele>
        <time>2014-11-20T09:48:29Z</time>
      </trkpt>
      <trkpt lat="44.37068" lon="5.91615">
        <ele>590.3869629</ele>
        <time>2014-11-20T09:48:46Z</time>
      </trkpt>
      <trkpt lat="44.37103" lon="5.91586">
        <ele>592.3095703</ele>
        <time>2014-11-20T09:49:02Z</time>
      </trkpt>
      <trkpt lat="44.37126" lon="5.91536">
        <ele>593.7514648</ele>
        <time>2014-11-20T09:49:17Z</time>
      </trkpt>
      <trkpt lat="44.37142" lon="5.915">
        <ele>596.1547852</ele>
        <time>2014-11-20T09:49:29Z</time>
      </trkpt>
      <trkpt lat="44.37164" lon="5.91456">
        <ele>598.0773926</ele>
        <time>2014-11-20T09:49:44Z</time>
      </trkpt>
      <trkpt lat="44.37163" lon="5.91423">
        <ele>599.0385742</ele>
        <time>2014-11-20T09:49:54Z</time>
      </trkpt>
      <trkpt lat="44.37165" lon="5.91418">
        <ele>600</ele>
        <time>2014-11-20T09:49:56Z</time>
      </trkpt>
      <trkpt lat="44.37161" lon="5.91407">
        <ele>600.9611816</ele>
        <time>2014-11-20T09:49:59Z</time>
      </trkpt>
      <trkpt lat="44.37167" lon="5.91389">
        <ele>600.9611816</ele>
        <time>2014-11-20T09:50:04Z</time>
      </trkpt>
      <trkpt lat="44.37177" lon="5.91353">
        <ele>603.364502</ele>
        <time>2014-11-20T09:50:17Z</time>
      </trkpt>
      <trkpt lat="44.37191" lon="5.9133">
        <ele>604.3261719</ele>
        <time>2014-11-20T09:50:26Z</time>
      </trkpt>
      <trkpt lat="44.3722" lon="5.91298">
        <ele>605.2873535</ele>
        <time>2014-11-20T09:50:39Z</time>
      </trkpt>
      <trkpt lat="44.37252" lon="5.9127">
        <ele>607.2099609</ele>
        <time>2014-11-20T09:50:54Z</time>
      </trkpt>
      <trkpt lat="44.37272" lon="5.91239">
        <ele>609.6132813</ele>
        <time>2014-11-20T09:51:07Z</time>
      </trkpt>
      <trkpt lat="44.37286" lon="5.91192">
        <ele>611.0551758</ele>
        <time>2014-11-20T09:51:23Z</time>
      </trkpt>
      <trkpt lat="44.37302" lon="5.91144">
        <ele>612.4970703</ele>
        <time>2014-11-20T09:51:38Z</time>
      </trkpt>
      <trkpt lat="44.37304" lon="5.9112">
        <ele>614.4196777</ele>
        <time>2014-11-20T09:51:46Z</time>
      </trkpt>
      <trkpt lat="44.37291" lon="5.91057">
        <ele>617.3037109</ele>
        <time>2014-11-20T09:52:06Z</time>
      </trkpt>
      <trkpt lat="44.37273" lon="5.90998">
        <ele>618.2648926</ele>
        <time>2014-11-20T09:52:24Z</time>
      </trkpt>
      <trkpt lat="44.37271" lon="5.90949">
        <ele>620.1877441</ele>
        <time>2014-11-20T09:52:39Z</time>
      </trkpt>
      <trkpt lat="44.37274" lon="5.90908">
        <ele>623.0717773</ele>
        <time>2014-11-20T09:52:52Z</time>
      </trkpt>
      <trkpt lat="44.37275" lon="5.90901">
        <ele>623.0717773</ele>
        <time>2014-11-20T09:52:54Z</time>
      </trkpt>
      <trkpt lat="44.37272" lon="5.90857">
        <ele>625.4748535</ele>
        <time>2014-11-20T09:53:10Z</time>
      </trkpt>
      <trkpt lat="44.3725" lon="5.90794">
        <ele>628.8395996</ele>
        <time>2014-11-20T09:53:31Z</time>
      </trkpt>
      <trkpt lat="44.37224" lon="5.90773">
        <ele>630.762207</ele>
        <time>2014-11-20T09:53:45Z</time>
      </trkpt>
      <trkpt lat="44.37186" lon="5.90759">
        <ele>631.2429199</ele>
        <time>2014-11-20T09:54:02Z</time>
      </trkpt>
      <trkpt lat="44.3718" lon="5.90727">
        <ele>632.2041016</ele>
        <time>2014-11-20T09:54:12Z</time>
      </trkpt>
      <trkpt lat="44.37196" lon="5.90696">
        <ele>633.1652832</ele>
        <time>2014-11-20T09:54:22Z</time>
      </trkpt>
      <trkpt lat="44.37221" lon="5.90655">
        <ele>633.6459961</ele>
        <time>2014-11-20T09:54:37Z</time>
      </trkpt>
      <trkpt lat="44.37247" lon="5.90619">
        <ele>634.126709</ele>
        <time>2014-11-20T09:54:52Z</time>
      </trkpt>
      <trkpt lat="44.37257" lon="5.90574">
        <ele>632.6848145</ele>
        <time>2014-11-20T09:55:01Z</time>
      </trkpt>
      <trkpt lat="44.37256" lon="5.90554">
        <ele>631.7233887</ele>
        <time>2014-11-20T09:55:04Z</time>
      </trkpt>
      <trkpt lat="44.37265" lon="5.90514">
        <ele>630.2814941</ele>
        <time>2014-11-20T09:55:09Z</time>
      </trkpt>
      <trkpt lat="44.37271" lon="5.9049">
        <ele>628.8395996</ele>
        <time>2014-11-20T09:55:12Z</time>
      </trkpt>
      <trkpt lat="44.37269" lon="5.90431">
        <ele>625.4748535</ele>
        <time>2014-11-20T09:55:18Z</time>
      </trkpt>
      <trkpt lat="44.37277" lon="5.90389">
        <ele>623.5524902</ele>
        <time>2014-11-20T09:55:22Z</time>
      </trkpt>
      <trkpt lat="44.3729" lon="5.90359">
        <ele>622.1103516</ele>
        <time>2014-11-20T09:55:25Z</time>
      </trkpt>
      <trkpt lat="44.37297" lon="5.90342">
        <ele>620.668457</ele>
        <time>2014-11-20T09:55:27Z</time>
      </trkpt>
      <trkpt lat="44.37307" lon="5.90317">
        <ele>619.7070313</ele>
        <time>2014-11-20T09:55:30Z</time>
      </trkpt>
      <trkpt lat="44.37336" lon="5.90247">
        <ele>616.3422852</ele>
        <time>2014-11-20T09:55:39Z</time>
      </trkpt>
      <trkpt lat="44.37347" lon="5.90238">
        <ele>614.9003906</ele>
        <time>2014-11-20T09:55:42Z</time>
      </trkpt>
      <trkpt lat="44.37366" lon="5.90251">
        <ele>614.4196777</ele>
        <time>2014-11-20T09:55:46Z</time>
      </trkpt>
      <trkpt lat="44.37378" lon="5.90269">
        <ele>613.4584961</ele>
        <time>2014-11-20T09:55:49Z</time>
      </trkpt>
      <trkpt lat="44.37402" lon="5.90299">
        <ele>612.4970703</ele>
        <time>2014-11-20T09:55:54Z</time>
      </trkpt>
      <trkpt lat="44.37422" lon="5.90302">
        <ele>612.0166016</ele>
        <time>2014-11-20T09:56:00Z</time>
      </trkpt>
      <trkpt lat="44.37418" lon="5.9027">
        <ele>611.0551758</ele>
        <time>2014-11-20T09:56:11Z</time>
      </trkpt>
      <trkpt lat="44.37416" lon="5.9027">
        <ele>611.5358887</ele>
        <time>2014-11-20T09:56:32Z</time>
      </trkpt>
      <trkpt lat="44.37391" lon="5.90238">
        <ele>610.09375</ele>
        <time>2014-11-20T09:56:44Z</time>
      </trkpt>
      <trkpt lat="44.37381" lon="5.90225">
        <ele>608.6518555</ele>
        <time>2014-11-20T09:56:47Z</time>
      </trkpt>
      <trkpt lat="44.37331" lon="5.90162">
        <ele>606.729248</ele>
        <time>2014-11-20T09:56:59Z</time>
      </trkpt>
      <trkpt lat="44.37261" lon="5.90071">
        <ele>603.364502</ele>
        <time>2014-11-20T09:57:13Z</time>
      </trkpt>
      <trkpt lat="44.37209" lon="5.89999">
        <ele>600.9611816</ele>
        <time>2014-11-20T09:57:23Z</time>
      </trkpt>
      <trkpt lat="44.37196" lon="5.89981">
        <ele>600.4807129</ele>
        <time>2014-11-20T09:57:26Z</time>
      </trkpt>
      <trkpt lat="44.37198" lon="5.89942">
        <ele>599.5192871</ele>
        <time>2014-11-20T09:57:32Z</time>
      </trkpt>
      <trkpt lat="44.37232" lon="5.89843">
        <ele>600.9611816</ele>
        <time>2014-11-20T09:57:50Z</time>
      </trkpt>
      <trkpt lat="44.37245" lon="5.89807">
        <ele>603.364502</ele>
        <time>2014-11-20T09:58:03Z</time>
      </trkpt>
      <trkpt lat="44.37265" lon="5.89786">
        <ele>605.7680664</ele>
        <time>2014-11-20T09:58:15Z</time>
      </trkpt>
      <trkpt lat="44.37277" lon="5.89782">
        <ele>605.7680664</ele>
        <time>2014-11-20T09:58:21Z</time>
      </trkpt>
      <trkpt lat="44.37285" lon="5.8978">
        <ele>607.2099609</ele>
        <time>2014-11-20T09:58:25Z</time>
      </trkpt>
      <trkpt lat="44.37309" lon="5.89747">
        <ele>608.1713867</ele>
        <time>2014-11-20T09:58:36Z</time>
      </trkpt>
      <trkpt lat="44.37318" lon="5.89727">
        <ele>608.6518555</ele>
        <time>2014-11-20T09:58:42Z</time>
      </trkpt>
      <trkpt lat="44.37322" lon="5.89714">
        <ele>608.6518555</ele>
        <time>2014-11-20T09:58:46Z</time>
      </trkpt>
      <trkpt lat="44.37346" lon="5.89667">
        <ele>609.6132813</ele>
        <time>2014-11-20T09:59:01Z</time>
      </trkpt>
      <trkpt lat="44.37357" lon="5.89638">
        <ele>611.0551758</ele>
        <time>2014-11-20T09:59:12Z</time>
      </trkpt>
      <trkpt lat="44.37368" lon="5.89611">
        <ele>612.9777832</ele>
        <time>2014-11-20T09:59:24Z</time>
      </trkpt>
      <trkpt lat="44.37391" lon="5.89578">
        <ele>615.3811035</ele>
        <time>2014-11-20T09:59:40Z</time>
      </trkpt>
      <trkpt lat="44.37395" lon="5.89567">
        <ele>616.3422852</ele>
        <time>2014-11-20T09:59:45Z</time>
      </trkpt>
      <trkpt lat="44.37398" lon="5.89557">
        <ele>617.3037109</ele>
        <time>2014-11-20T09:59:49Z</time>
      </trkpt>
      <trkpt lat="44.37437" lon="5.89462">
        <ele>618.2648926</ele>
        <time>2014-11-20T10:00:35Z</time>
      </trkpt>
      <trkpt lat="44.37439" lon="5.89457">
        <ele>625.4748535</ele>
        <time>2014-11-20T10:00:38Z</time>
      </trkpt>
      <trkpt lat="44.37439" lon="5.89455">
        <ele>625.4748535</ele>
        <time>2014-11-20T10:00:39Z</time>
      </trkpt>
      <trkpt lat="44.37445" lon="5.89432">
        <ele>627.8781738</ele>
        <time>2014-11-20T10:00:50Z</time>
      </trkpt>
      <trkpt lat="44.37444" lon="5.89426">
        <ele>627.8781738</ele>
        <time>2014-11-20T10:00:52Z</time>
      </trkpt>
      <trkpt lat="44.37446" lon="5.89417">
        <ele>628.3588867</ele>
        <time>2014-11-20T10:00:56Z</time>
      </trkpt>
      <trkpt lat="44.3745" lon="5.89375">
        <ele>631.2429199</ele>
        <time>2014-11-20T10:01:13Z</time>
      </trkpt>
      <trkpt lat="44.37451" lon="5.89365">
        <ele>632.2041016</ele>
        <time>2014-11-20T10:01:18Z</time>
      </trkpt>
      <trkpt lat="44.37453" lon="5.8934">
        <ele>633.6459961</ele>
        <time>2014-11-20T10:01:29Z</time>
      </trkpt>
      <trkpt lat="44.37455" lon="5.89329">
        <ele>634.126709</ele>
        <time>2014-11-20T10:01:34Z</time>
      </trkpt>
      <trkpt lat="44.37456" lon="5.8932">
        <ele>635.5686035</ele>
        <time>2014-11-20T10:01:38Z</time>
      </trkpt>
      <trkpt lat="44.37455" lon="5.89314">
        <ele>635.0881348</ele>
        <time>2014-11-20T10:01:40Z</time>
      </trkpt>
      <trkpt lat="44.37457" lon="5.893">
        <ele>636.5302734</ele>
        <time>2014-11-20T10:01:46Z</time>
      </trkpt>
      <trkpt lat="44.3746" lon="5.89291">
        <ele>637.0107422</ele>
        <time>2014-11-20T10:01:50Z</time>
      </trkpt>
      <trkpt lat="44.3746" lon="5.89287">
        <ele>637.4914551</ele>
        <time>2014-11-20T10:01:52Z</time>
      </trkpt>
      <trkpt lat="44.3746" lon="5.89283">
        <ele>637.972168</ele>
        <time>2014-11-20T10:01:54Z</time>
      </trkpt>
      <trkpt lat="44.37465" lon="5.89271">
        <ele>638.9335938</ele>
        <time>2014-11-20T10:02:00Z</time>
      </trkpt>
      <trkpt lat="44.37464" lon="5.89264">
        <ele>639.4140625</ele>
        <time>2014-11-20T10:02:03Z</time>
      </trkpt>
      <trkpt lat="44.37465" lon="5.89256">
        <ele>640.3754883</ele>
        <time>2014-11-20T10:02:06Z</time>
      </trkpt>
      <trkpt lat="44.3747" lon="5.89243">
        <ele>640.855957</ele>
        <time>2014-11-20T10:02:12Z</time>
      </trkpt>
      <trkpt lat="44.37472" lon="5.89238">
        <ele>641.3366699</ele>
        <time>2014-11-20T10:02:15Z</time>
      </trkpt>
      <trkpt lat="44.37471" lon="5.89232">
        <ele>641.8173828</ele>
        <time>2014-11-20T10:02:18Z</time>
      </trkpt>
      <trkpt lat="44.3747" lon="5.89217">
        <ele>642.7788086</ele>
        <time>2014-11-20T10:02:25Z</time>
      </trkpt>
      <trkpt lat="44.37467" lon="5.89209">
        <ele>643.7399902</ele>
        <time>2014-11-20T10:02:30Z</time>
      </trkpt>
      <trkpt lat="44.37467" lon="5.892">
        <ele>644.2207031</ele>
        <time>2014-11-20T10:02:34Z</time>
      </trkpt>
      <trkpt lat="44.37463" lon="5.8918">
        <ele>644.7011719</ele>
        <time>2014-11-20T10:02:41Z</time>
      </trkpt>
      <trkpt lat="44.37447" lon="5.89133">
        <ele>647.5852051</ele>
        <time>2014-11-20T10:03:01Z</time>
      </trkpt>
      <trkpt lat="44.37426" lon="5.89091">
        <ele>649.9885254</ele>
        <time>2014-11-20T10:03:21Z</time>
      </trkpt>
      <trkpt lat="44.37419" lon="5.89034">
        <ele>652.8725586</ele>
        <time>2014-11-20T10:03:44Z</time>
      </trkpt>
      <trkpt lat="44.37419" lon="5.89026">
        <ele>652.8725586</ele>
        <time>2014-11-20T10:03:48Z</time>
      </trkpt>
      <trkpt lat="44.37424" lon="5.89005">
        <ele>654.795166</ele>
        <time>2014-11-20T10:03:58Z</time>
      </trkpt>
      <trkpt lat="44.37425" lon="5.88998">
        <ele>655.2758789</ele>
        <time>2014-11-20T10:04:02Z</time>
      </trkpt>
      <trkpt lat="44.37433" lon="5.88966">
        <ele>657.1984863</ele>
        <time>2014-11-20T10:04:15Z</time>
      </trkpt>
      <trkpt lat="44.37441" lon="5.88949">
        <ele>658.1599121</ele>
        <time>2014-11-20T10:04:23Z</time>
      </trkpt>
      <trkpt lat="44.37452" lon="5.88929">
        <ele>659.6018066</ele>
        <time>2014-11-20T10:04:34Z</time>
      </trkpt>
      <trkpt lat="44.37472" lon="5.88906">
        <ele>661.5244141</ele>
        <time>2014-11-20T10:04:49Z</time>
      </trkpt>
      <trkpt lat="44.37498" lon="5.88881">
        <ele>662.4855957</ele>
        <time>2014-11-20T10:05:06Z</time>
      </trkpt>
      <trkpt lat="44.37533" lon="5.88849">
        <ele>663.4470215</ele>
        <time>2014-11-20T10:05:26Z</time>
      </trkpt>
      <trkpt lat="44.37562" lon="5.88819">
        <ele>664.4082031</ele>
        <time>2014-11-20T10:05:42Z</time>
      </trkpt>
      <trkpt lat="44.37594" lon="5.88767">
        <ele>665.3696289</ele>
        <time>2014-11-20T10:06:05Z</time>
      </trkpt>
      <trkpt lat="44.37613" lon="5.88721">
        <ele>666.3308105</ele>
        <time>2014-11-20T10:06:22Z</time>
      </trkpt>
      <trkpt lat="44.37639" lon="5.88666">
        <ele>668.734375</ele>
        <time>2014-11-20T10:06:45Z</time>
      </trkpt>
      <trkpt lat="44.37655" lon="5.88627">
        <ele>670.1762695</ele>
        <time>2014-11-20T10:07:01Z</time>
      </trkpt>
      <trkpt lat="44.37674" lon="5.88585">
        <ele>672.5795898</ele>
        <time>2014-11-20T10:07:19Z</time>
      </trkpt>
      <trkpt lat="44.37694" lon="5.88541">
        <ele>674.5021973</ele>
        <time>2014-11-20T10:07:38Z</time>
      </trkpt>
      <trkpt lat="44.37708" lon="5.88492">
        <ele>675.9440918</ele>
        <time>2014-11-20T10:07:57Z</time>
      </trkpt>
      <trkpt lat="44.37698" lon="5.88448">
        <ele>677.3862305</ele>
        <time>2014-11-20T10:08:13Z</time>
      </trkpt>
      <trkpt lat="44.37681" lon="5.88409">
        <ele>679.7893066</ele>
        <time>2014-11-20T10:08:30Z</time>
      </trkpt>
      <trkpt lat="44.37668" lon="5.88368">
        <ele>682.192627</ele>
        <time>2014-11-20T10:08:47Z</time>
      </trkpt>
      <trkpt lat="44.3766" lon="5.8833">
        <ele>685.0769043</ele>
        <time>2014-11-20T10:09:03Z</time>
      </trkpt>
      <trkpt lat="44.37653" lon="5.88292">
        <ele>686.5187988</ele>
        <time>2014-11-20T10:09:20Z</time>
      </trkpt>
      <trkpt lat="44.37645" lon="5.88245">
        <ele>689.4025879</ele>
        <time>2014-11-20T10:09:39Z</time>
      </trkpt>
      <trkpt lat="44.37645" lon="5.88208">
        <ele>691.8059082</ele>
        <time>2014-11-20T10:09:55Z</time>
      </trkpt>
      <trkpt lat="44.37647" lon="5.88171">
        <ele>693.7285156</ele>
        <time>2014-11-20T10:10:10Z</time>
      </trkpt>
      <trkpt lat="44.37649" lon="5.88142">
        <ele>695.1704102</ele>
        <time>2014-11-20T10:10:23Z</time>
      </trkpt>
      <trkpt lat="44.37652" lon="5.88097">
        <ele>698.0544434</ele>
        <time>2014-11-20T10:10:42Z</time>
      </trkpt>
      <trkpt lat="44.37655" lon="5.88067">
        <ele>699.9770508</ele>
        <time>2014-11-20T10:10:56Z</time>
      </trkpt>
      <trkpt lat="44.37656" lon="5.88042">
        <ele>701.4191895</ele>
        <time>2014-11-20T10:11:07Z</time>
      </trkpt>
      <trkpt lat="44.37656" lon="5.88039">
        <ele>701.4191895</ele>
        <time>2014-11-20T10:11:08Z</time>
      </trkpt>
      <trkpt lat="44.37656" lon="5.88023">
        <ele>702.861084</ele>
        <time>2014-11-20T10:11:15Z</time>
      </trkpt>
      <trkpt lat="44.37656" lon="5.88018">
        <ele>702.861084</ele>
        <time>2014-11-20T10:11:17Z</time>
      </trkpt>
      <trkpt lat="44.37656" lon="5.88012">
        <ele>703.3417969</ele>
        <time>2014-11-20T10:11:19Z</time>
      </trkpt>
      <trkpt lat="44.37659" lon="5.87997">
        <ele>704.3032227</ele>
        <time>2014-11-20T10:11:27Z</time>
      </trkpt>
      <trkpt lat="44.37661" lon="5.87984">
        <ele>705.7451172</ele>
        <time>2014-11-20T10:11:33Z</time>
      </trkpt>
      <trkpt lat="44.37662" lon="5.87952">
        <ele>707.6677246</ele>
        <time>2014-11-20T10:11:48Z</time>
      </trkpt>
      <trkpt lat="44.37662" lon="5.87945">
        <ele>708.1484375</ele>
        <time>2014-11-20T10:11:51Z</time>
      </trkpt>
      <trkpt lat="44.37662" lon="5.87941">
        <ele>708.6289063</ele>
        <time>2014-11-20T10:11:53Z</time>
      </trkpt>
      <trkpt lat="44.37661" lon="5.87932">
        <ele>709.1096191</ele>
        <time>2014-11-20T10:11:58Z</time>
      </trkpt>
      <trkpt lat="44.37659" lon="5.87907">
        <ele>711.0322266</ele>
        <time>2014-11-20T10:12:10Z</time>
      </trkpt>
      <trkpt lat="44.37658" lon="5.87901">
        <ele>711.5129395</ele>
        <time>2014-11-20T10:12:13Z</time>
      </trkpt>
      <trkpt lat="44.37653" lon="5.87883">
        <ele>712.954834</ele>
        <time>2014-11-20T10:12:22Z</time>
      </trkpt>
      <trkpt lat="44.37652" lon="5.87878">
        <ele>713.4355469</ele>
        <time>2014-11-20T10:12:25Z</time>
      </trkpt>
      <trkpt lat="44.37651" lon="5.87875">
        <ele>713.9160156</ele>
        <time>2014-11-20T10:12:27Z</time>
      </trkpt>
      <trkpt lat="44.37644" lon="5.87839">
        <ele>716.3195801</ele>
        <time>2014-11-20T10:12:46Z</time>
      </trkpt>
      <trkpt lat="44.37633" lon="5.87802">
        <ele>719.6843262</ele>
        <time>2014-11-20T10:13:05Z</time>
      </trkpt>
      <trkpt lat="44.37629" lon="5.8777">
        <ele>721.6066895</ele>
        <time>2014-11-20T10:13:21Z</time>
      </trkpt>
      <trkpt lat="44.37628" lon="5.87763">
        <ele>722.0874023</ele>
        <time>2014-11-20T10:13:24Z</time>
      </trkpt>
      <trkpt lat="44.37628" lon="5.87732">
        <ele>724.4907227</ele>
        <time>2014-11-20T10:13:39Z</time>
      </trkpt>
      <trkpt lat="44.37628" lon="5.87702">
        <ele>726.4133301</ele>
        <time>2014-11-20T10:13:53Z</time>
      </trkpt>
      <trkpt lat="44.37628" lon="5.87699">
        <ele>726.4133301</ele>
        <time>2014-11-20T10:13:54Z</time>
      </trkpt>
      <trkpt lat="44.37629" lon="5.87695">
        <ele>726.4133301</ele>
        <time>2014-11-20T10:13:56Z</time>
      </trkpt>
      <trkpt lat="44.37628" lon="5.87664">
        <ele>728.3359375</ele>
        <time>2014-11-20T10:14:10Z</time>
      </trkpt>
      <trkpt lat="44.37619" lon="5.8763">
        <ele>730.7392578</ele>
        <time>2014-11-20T10:14:28Z</time>
      </trkpt>
      <trkpt lat="44.37611" lon="5.87602">
        <ele>732.6621094</ele>
        <time>2014-11-20T10:14:42Z</time>
      </trkpt>
      <trkpt lat="44.37603" lon="5.8757">
        <ele>735.0654297</ele>
        <time>2014-11-20T10:14:57Z</time>
      </trkpt>
      <trkpt lat="44.37604" lon="5.87537">
        <ele>736.987793</ele>
        <time>2014-11-20T10:15:12Z</time>
      </trkpt>
      <trkpt lat="44.37609" lon="5.87505">
        <ele>737.9492188</ele>
        <time>2014-11-20T10:15:26Z</time>
      </trkpt>
      <trkpt lat="44.37605" lon="5.87483">
        <ele>739.8718262</ele>
        <time>2014-11-20T10:15:37Z</time>
      </trkpt>
      <trkpt lat="44.37604" lon="5.87468">
        <ele>740.8330078</ele>
        <time>2014-11-20T10:15:43Z</time>
      </trkpt>
      <trkpt lat="44.37606" lon="5.87455">
        <ele>741.3137207</ele>
        <time>2014-11-20T10:15:49Z</time>
      </trkpt>
      <trkpt lat="44.37623" lon="5.87429">
        <ele>743.717041</ele>
        <time>2014-11-20T10:16:05Z</time>
      </trkpt>
      <trkpt lat="44.37643" lon="5.8741">
        <ele>745.1589355</ele>
        <time>2014-11-20T10:16:18Z</time>
      </trkpt>
      <trkpt lat="44.37664" lon="5.87391">
        <ele>747.081543</ele>
        <time>2014-11-20T10:16:34Z</time>
      </trkpt>
      <trkpt lat="44.37668" lon="5.87386">
        <ele>747.081543</ele>
        <time>2014-11-20T10:16:38Z</time>
      </trkpt>
      <trkpt lat="44.37686" lon="5.87366">
        <ele>749.0043945</ele>
        <time>2014-11-20T10:16:52Z</time>
      </trkpt>
      <trkpt lat="44.377" lon="5.87349">
        <ele>750.927002</ele>
        <time>2014-11-20T10:17:05Z</time>
      </trkpt>
      <trkpt lat="44.37714" lon="5.87333">
        <ele>752.3688965</ele>
        <time>2014-11-20T10:17:17Z</time>
      </trkpt>
      <trkpt lat="44.3773" lon="5.87323">
        <ele>754.291748</ele>
        <time>2014-11-20T10:17:30Z</time>
      </trkpt>
      <trkpt lat="44.37748" lon="5.87315">
        <ele>756.2141113</ele>
        <time>2014-11-20T10:17:43Z</time>
      </trkpt>
      <trkpt lat="44.37752" lon="5.87313">
        <ele>757.1755371</ele>
        <time>2014-11-20T10:17:46Z</time>
      </trkpt>
      <trkpt lat="44.37771" lon="5.87298">
        <ele>759.0981445</ele>
        <time>2014-11-20T10:18:03Z</time>
      </trkpt>
      <trkpt lat="44.37776" lon="5.87294">
        <ele>760.0593262</ele>
        <time>2014-11-20T10:18:07Z</time>
      </trkpt>
      <trkpt lat="44.37784" lon="5.87273">
        <ele>761.5014648</ele>
        <time>2014-11-20T10:18:20Z</time>
      </trkpt>
      <trkpt lat="44.37772" lon="5.87265">
        <ele>763.4240723</ele>
        <time>2014-11-20T10:18:29Z</time>
      </trkpt>
      <trkpt lat="44.37767" lon="5.87264">
        <ele>763.904541</ele>
        <time>2014-11-20T10:18:32Z</time>
      </trkpt>
      <trkpt lat="44.37743" lon="5.8725">
        <ele>766.3081055</ele>
        <time>2014-11-20T10:18:50Z</time>
      </trkpt>
      <trkpt lat="44.37742" lon="5.87247">
        <ele>767.2695313</ele>
        <time>2014-11-20T10:18:52Z</time>
      </trkpt>
      <trkpt lat="44.37739" lon="5.87239">
        <ele>768.2307129</ele>
        <time>2014-11-20T10:18:58Z</time>
      </trkpt>
      <trkpt lat="44.37732" lon="5.8723">
        <ele>769.1921387</ele>
        <time>2014-11-20T10:19:12Z</time>
      </trkpt>
      <trkpt lat="44.37733" lon="5.87232">
        <ele>768.7114258</ele>
        <time>2014-11-20T10:20:29Z</time>
      </trkpt>
      <trkpt lat="44.37733" lon="5.87232">
        <ele>769.6728516</ele>
        <time>2014-11-20T10:21:50Z</time>
      </trkpt>
      <trkpt lat="44.3773" lon="5.87232">
        <ele>769.6728516</ele>
        <time>2014-11-20T10:22:07Z</time>
      </trkpt>
      <trkpt lat="44.37721" lon="5.87213">
        <ele>771.1147461</ele>
        <time>2014-11-20T10:22:18Z</time>
      </trkpt>
      <trkpt lat="44.3772" lon="5.87209">
        <ele>771.5952148</ele>
        <time>2014-11-20T10:22:20Z</time>
      </trkpt>
      <trkpt lat="44.37716" lon="5.87202">
        <ele>772.0759277</ele>
        <time>2014-11-20T10:22:24Z</time>
      </trkpt>
      <trkpt lat="44.37713" lon="5.87192">
        <ele>772.5566406</ele>
        <time>2014-11-20T10:22:29Z</time>
      </trkpt>
      <trkpt lat="44.37712" lon="5.87187">
        <ele>773.0373535</ele>
        <time>2014-11-20T10:22:32Z</time>
      </trkpt>
      <trkpt lat="44.37708" lon="5.87164">
        <ele>776.4018555</ele>
        <time>2014-11-20T10:22:44Z</time>
      </trkpt>
      <trkpt lat="44.37709" lon="5.8716">
        <ele>776.4018555</ele>
        <time>2014-11-20T10:22:46Z</time>
      </trkpt>
      <trkpt lat="44.37708" lon="5.87149">
        <ele>776.8825684</ele>
        <time>2014-11-20T10:22:51Z</time>
      </trkpt>
      <trkpt lat="44.37708" lon="5.8714">
        <ele>777.84375</ele>
        <time>2014-11-20T10:22:56Z</time>
      </trkpt>
      <trkpt lat="44.37704" lon="5.8713">
        <ele>779.7663574</ele>
        <time>2014-11-20T10:23:03Z</time>
      </trkpt>
      <trkpt lat="44.37697" lon="5.87114">
        <ele>781.689209</ele>
        <time>2014-11-20T10:23:12Z</time>
      </trkpt>
      <trkpt lat="44.3769" lon="5.87099">
        <ele>781.2087402</ele>
        <time>2014-11-20T10:23:21Z</time>
      </trkpt>
      <trkpt lat="44.37685" lon="5.87091">
        <ele>782.1699219</ele>
        <time>2014-11-20T10:23:26Z</time>
      </trkpt>
      <trkpt lat="44.37679" lon="5.87077">
        <ele>783.1311035</ele>
        <time>2014-11-20T10:23:33Z</time>
      </trkpt>
      <trkpt lat="44.3767" lon="5.87039">
        <ele>784.5732422</ele>
        <time>2014-11-20T10:23:49Z</time>
      </trkpt>
      <trkpt lat="44.37662" lon="5.87003">
        <ele>787.4570313</ele>
        <time>2014-11-20T10:24:05Z</time>
      </trkpt>
      <trkpt lat="44.37651" lon="5.86985">
        <ele>789.3796387</ele>
        <time>2014-11-20T10:24:17Z</time>
      </trkpt>
      <trkpt lat="44.37632" lon="5.86972">
        <ele>790.3410645</ele>
        <time>2014-11-20T10:24:30Z</time>
      </trkpt>
      <trkpt lat="44.37607" lon="5.86967">
        <ele>791.782959</ele>
        <time>2014-11-20T10:24:44Z</time>
      </trkpt>
      <trkpt lat="44.37604" lon="5.86962">
        <ele>792.2636719</ele>
        <time>2014-11-20T10:24:47Z</time>
      </trkpt>
      <trkpt lat="44.37603" lon="5.86958">
        <ele>792.2636719</ele>
        <time>2014-11-20T10:24:49Z</time>
      </trkpt>
      <trkpt lat="44.37604" lon="5.8695">
        <ele>792.7443848</ele>
        <time>2014-11-20T10:24:53Z</time>
      </trkpt>
      <trkpt lat="44.37614" lon="5.86948">
        <ele>793.7055664</ele>
        <time>2014-11-20T10:24:59Z</time>
      </trkpt>
      <trkpt lat="44.37629" lon="5.86947">
        <ele>795.6281738</ele>
        <time>2014-11-20T10:25:09Z</time>
      </trkpt>
      <trkpt lat="44.37647" lon="5.86943">
        <ele>797.5510254</ele>
        <time>2014-11-20T10:25:22Z</time>
      </trkpt>
      <trkpt lat="44.37662" lon="5.86941">
        <ele>799.4736328</ele>
        <time>2014-11-20T10:25:33Z</time>
      </trkpt>
      <trkpt lat="44.3768" lon="5.86934">
        <ele>800.9155273</ele>
        <time>2014-11-20T10:25:44Z</time>
      </trkpt>
      <trkpt lat="44.37682" lon="5.86932">
        <ele>800.9155273</ele>
        <time>2014-11-20T10:25:45Z</time>
      </trkpt>
      <trkpt lat="44.37684" lon="5.86929">
        <ele>801.3962402</ele>
        <time>2014-11-20T10:25:47Z</time>
      </trkpt>
      <trkpt lat="44.37697" lon="5.86919">
        <ele>802.8381348</ele>
        <time>2014-11-20T10:25:58Z</time>
      </trkpt>
      <trkpt lat="44.37716" lon="5.86897">
        <ele>804.2802734</ele>
        <time>2014-11-20T10:26:13Z</time>
      </trkpt>
      <trkpt lat="44.37719" lon="5.86892">
        <ele>804.7607422</ele>
        <time>2014-11-20T10:26:17Z</time>
      </trkpt>
      <trkpt lat="44.37743" lon="5.86879">
        <ele>807.1640625</ele>
        <time>2014-11-20T10:26:32Z</time>
      </trkpt>
      <trkpt lat="44.37763" lon="5.86878">
        <ele>809.0866699</ele>
        <time>2014-11-20T10:26:45Z</time>
      </trkpt>
      <trkpt lat="44.37785" lon="5.86887">
        <ele>811.4899902</ele>
        <time>2014-11-20T10:27:00Z</time>
      </trkpt>
      <trkpt lat="44.37805" lon="5.86894">
        <ele>812.9321289</ele>
        <time>2014-11-20T10:27:14Z</time>
      </trkpt>
      <trkpt lat="44.37809" lon="5.86894">
        <ele>813.4128418</ele>
        <time>2014-11-20T10:27:17Z</time>
      </trkpt>
      <trkpt lat="44.3781" lon="5.86895">
        <ele>813.4128418</ele>
        <time>2014-11-20T10:27:19Z</time>
      </trkpt>
      <trkpt lat="44.37834" lon="5.86902">
        <ele>814.8547363</ele>
        <time>2014-11-20T10:27:34Z</time>
      </trkpt>
      <trkpt lat="44.37861" lon="5.86923">
        <ele>816.7773438</ele>
        <time>2014-11-20T10:27:52Z</time>
      </trkpt>
      <trkpt lat="44.37884" lon="5.86933">
        <ele>818.6999512</ele>
        <time>2014-11-20T10:28:07Z</time>
      </trkpt>
      <trkpt lat="44.37892" lon="5.86934">
        <ele>819.661377</ele>
        <time>2014-11-20T10:28:12Z</time>
      </trkpt>
      <trkpt lat="44.37919" lon="5.86941">
        <ele>821.5837402</ele>
        <time>2014-11-20T10:28:29Z</time>
      </trkpt>
      <trkpt lat="44.37928" lon="5.86942">
        <ele>822.545166</ele>
        <time>2014-11-20T10:28:36Z</time>
      </trkpt>
      <trkpt lat="44.37933" lon="5.86945">
        <ele>823.0258789</ele>
        <time>2014-11-20T10:28:39Z</time>
      </trkpt>
      <trkpt lat="44.37939" lon="5.86949">
        <ele>823.9870605</ele>
        <time>2014-11-20T10:28:44Z</time>
      </trkpt>
      <trkpt lat="44.37954" lon="5.86957">
        <ele>825.4289551</ele>
        <time>2014-11-20T10:28:56Z</time>
      </trkpt>
      <trkpt lat="44.37955" lon="5.86959">
        <ele>825.4289551</ele>
        <time>2014-11-20T10:28:58Z</time>
      </trkpt>
      <trkpt lat="44.3796" lon="5.8696">
        <ele>825.909668</ele>
        <time>2014-11-20T10:29:01Z</time>
      </trkpt>
      <trkpt lat="44.37979" lon="5.86959">
        <ele>827.8322754</ele>
        <time>2014-11-20T10:29:12Z</time>
      </trkpt>
      <trkpt lat="44.37982" lon="5.86957">
        <ele>827.3518066</ele>
        <time>2014-11-20T10:29:14Z</time>
      </trkpt>
      <trkpt lat="44.37985" lon="5.86958">
        <ele>828.3132324</ele>
        <time>2014-11-20T10:29:17Z</time>
      </trkpt>
      <trkpt lat="44.37996" lon="5.86962">
        <ele>829.2744141</ele>
        <time>2014-11-20T10:29:26Z</time>
      </trkpt>
      <trkpt lat="44.38023" lon="5.86951">
        <ele>831.6777344</ele>
        <time>2014-11-20T10:29:44Z</time>
      </trkpt>
      <trkpt lat="44.38028" lon="5.86947">
        <ele>831.6777344</ele>
        <time>2014-11-20T10:29:48Z</time>
      </trkpt>
      <trkpt lat="44.3804" lon="5.86935">
        <ele>833.1196289</ele>
        <time>2014-11-20T10:29:58Z</time>
      </trkpt>
      <trkpt lat="44.38047" lon="5.8693">
        <ele>833.6003418</ele>
        <time>2014-11-20T10:30:03Z</time>
      </trkpt>
      <trkpt lat="44.38062" lon="5.86914">
        <ele>835.5229492</ele>
        <time>2014-11-20T10:30:16Z</time>
      </trkpt>
      <trkpt lat="44.38074" lon="5.86905">
        <ele>837.4455566</ele>
        <time>2014-11-20T10:30:26Z</time>
      </trkpt>
      <trkpt lat="44.38078" lon="5.86901">
        <ele>837.9262695</ele>
        <time>2014-11-20T10:30:30Z</time>
      </trkpt>
      <trkpt lat="44.38093" lon="5.86896">
        <ele>839.3681641</ele>
        <time>2014-11-20T10:30:41Z</time>
      </trkpt>
      <trkpt lat="44.381" lon="5.86895">
        <ele>840.3295898</ele>
        <time>2014-11-20T10:30:48Z</time>
      </trkpt>
      <trkpt lat="44.38119" lon="5.86892">
        <ele>841.7714844</ele>
        <time>2014-11-20T10:30:59Z</time>
      </trkpt>
      <trkpt lat="44.38141" lon="5.86892">
        <ele>844.1750488</ele>
        <time>2014-11-20T10:31:12Z</time>
      </trkpt>
      <trkpt lat="44.38163" lon="5.86894">
        <ele>845.6169434</ele>
        <time>2014-11-20T10:31:26Z</time>
      </trkpt>
      <trkpt lat="44.38185" lon="5.86892">
        <ele>847.0588379</ele>
        <time>2014-11-20T10:31:39Z</time>
      </trkpt>
      <trkpt lat="44.38186" lon="5.86892">
        <ele>847.5395508</ele>
        <time>2014-11-20T10:31:40Z</time>
      </trkpt>
      <trkpt lat="44.38204" lon="5.86887">
        <ele>848.9814453</ele>
        <time>2014-11-20T10:31:54Z</time>
      </trkpt>
      <trkpt lat="44.3822" lon="5.86882">
        <ele>850.9040527</ele>
        <time>2014-11-20T10:32:05Z</time>
      </trkpt>
      <trkpt lat="44.3823" lon="5.86882">
        <ele>851.3847656</ele>
        <time>2014-11-20T10:32:11Z</time>
      </trkpt>
      <trkpt lat="44.38232" lon="5.8688">
        <ele>851.3847656</ele>
        <time>2014-11-20T10:32:13Z</time>
      </trkpt>
      <trkpt lat="44.38252" lon="5.86876">
        <ele>853.307373</ele>
        <time>2014-11-20T10:32:24Z</time>
      </trkpt>
      <trkpt lat="44.38264" lon="5.8687">
        <ele>853.7880859</ele>
        <time>2014-11-20T10:32:32Z</time>
      </trkpt>
      <trkpt lat="44.38271" lon="5.86867">
        <ele>854.7492676</ele>
        <time>2014-11-20T10:32:38Z</time>
      </trkpt>
      <trkpt lat="44.3828" lon="5.86865">
        <ele>856.1911621</ele>
        <time>2014-11-20T10:32:47Z</time>
      </trkpt>
      <trkpt lat="44.383" lon="5.86855">
        <ele>858.1140137</ele>
        <time>2014-11-20T10:33:01Z</time>
      </trkpt>
      <trkpt lat="44.3832" lon="5.86845">
        <ele>860.0366211</ele>
        <time>2014-11-20T10:33:13Z</time>
      </trkpt>
      <trkpt lat="44.38341" lon="5.86834">
        <ele>861.9594727</ele>
        <time>2014-11-20T10:33:28Z</time>
      </trkpt>
      <trkpt lat="44.38359" lon="5.86823">
        <ele>863.4013672</ele>
        <time>2014-11-20T10:33:39Z</time>
      </trkpt>
      <trkpt lat="44.38387" lon="5.86804">
        <ele>863.8818359</ele>
        <time>2014-11-20T10:33:57Z</time>
      </trkpt>
      <trkpt lat="44.38411" lon="5.86784">
        <ele>863.4013672</ele>
        <time>2014-11-20T10:34:07Z</time>
      </trkpt>
      <trkpt lat="44.38443" lon="5.86754">
        <ele>863.8818359</ele>
        <time>2014-11-20T10:34:21Z</time>
      </trkpt>
      <trkpt lat="44.38459" lon="5.86738">
        <ele>862.9206543</ele>
        <time>2014-11-20T10:34:28Z</time>
      </trkpt>
      <trkpt lat="44.38491" lon="5.86714">
        <ele>864.8432617</ele>
        <time>2014-11-20T10:34:43Z</time>
      </trkpt>
      <trkpt lat="44.38498" lon="5.86708">
        <ele>866.2851563</ele>
        <time>2014-11-20T10:34:46Z</time>
      </trkpt>
      <trkpt lat="44.38525" lon="5.86695">
        <ele>865.8046875</ele>
        <time>2014-11-20T10:34:59Z</time>
      </trkpt>
      <trkpt lat="44.3855" lon="5.86684">
        <ele>866.7658691</ele>
        <time>2014-11-20T10:35:10Z</time>
      </trkpt>
      <trkpt lat="44.38554" lon="5.86681">
        <ele>867.7270508</ele>
        <time>2014-11-20T10:35:12Z</time>
      </trkpt>
      <trkpt lat="44.38582" lon="5.86666">
        <ele>867.7270508</ele>
        <time>2014-11-20T10:35:26Z</time>
      </trkpt>
      <trkpt lat="44.38611" lon="5.86654">
        <ele>869.1691895</ele>
        <time>2014-11-20T10:35:40Z</time>
      </trkpt>
      <trkpt lat="44.38626" lon="5.86648">
        <ele>870.611084</ele>
        <time>2014-11-20T10:35:49Z</time>
      </trkpt>
      <trkpt lat="44.38653" lon="5.86634">
        <ele>872.5336914</ele>
        <time>2014-11-20T10:36:03Z</time>
      </trkpt>
      <trkpt lat="44.38677" lon="5.86628">
        <ele>873.9755859</ele>
        <time>2014-11-20T10:36:17Z</time>
      </trkpt>
      <trkpt lat="44.38693" lon="5.86624">
        <ele>875.4174805</ele>
        <time>2014-11-20T10:36:26Z</time>
      </trkpt>
      <trkpt lat="44.38703" lon="5.86615">
        <ele>875.8981934</ele>
        <time>2014-11-20T10:36:32Z</time>
      </trkpt>
      <trkpt lat="44.38709" lon="5.8661">
        <ele>876.3791504</ele>
        <time>2014-11-20T10:36:37Z</time>
      </trkpt>
      <trkpt lat="44.38718" lon="5.86603">
        <ele>877.8210449</ele>
        <time>2014-11-20T10:36:44Z</time>
      </trkpt>
      <trkpt lat="44.38739" lon="5.86592">
        <ele>879.7436523</ele>
        <time>2014-11-20T10:36:58Z</time>
      </trkpt>
      <trkpt lat="44.38748" lon="5.86584">
        <ele>881.185791</ele>
        <time>2014-11-20T10:37:06Z</time>
      </trkpt>
      <trkpt lat="44.38762" lon="5.86575">
        <ele>883.1081543</ele>
        <time>2014-11-20T10:37:16Z</time>
      </trkpt>
      <trkpt lat="44.38777" lon="5.86566">
        <ele>885.5114746</ele>
        <time>2014-11-20T10:37:28Z</time>
      </trkpt>
      <trkpt lat="44.38782" lon="5.86562">
        <ele>885.9921875</ele>
        <time>2014-11-20T10:37:32Z</time>
      </trkpt>
      <trkpt lat="44.38801" lon="5.86551">
        <ele>887.9147949</ele>
        <time>2014-11-20T10:37:44Z</time>
      </trkpt>
      <trkpt lat="44.38809" lon="5.86546">
        <ele>889.3566895</ele>
        <time>2014-11-20T10:37:50Z</time>
      </trkpt>
      <trkpt lat="44.38819" lon="5.86535">
        <ele>890.3181152</ele>
        <time>2014-11-20T10:37:59Z</time>
      </trkpt>
      <trkpt lat="44.38824" lon="5.86532">
        <ele>891.2792969</ele>
        <time>2014-11-20T10:38:02Z</time>
      </trkpt>
      <trkpt lat="44.38832" lon="5.86524">
        <ele>892.2409668</ele>
        <time>2014-11-20T10:38:08Z</time>
      </trkpt>
      <trkpt lat="44.38849" lon="5.86509">
        <ele>893.6828613</ele>
        <time>2014-11-20T10:38:20Z</time>
      </trkpt>
      <trkpt lat="44.38883" lon="5.86465">
        <ele>894.1635742</ele>
        <time>2014-11-20T10:38:38Z</time>
      </trkpt>
      <trkpt lat="44.38918" lon="5.86429">
        <ele>893.6828613</ele>
        <time>2014-11-20T10:38:54Z</time>
      </trkpt>
      <trkpt lat="44.38949" lon="5.86412">
        <ele>895.6054688</ele>
        <time>2014-11-20T10:39:08Z</time>
      </trkpt>
      <trkpt lat="44.38983" lon="5.864">
        <ele>898.0087891</ele>
        <time>2014-11-20T10:39:21Z</time>
      </trkpt>
      <trkpt lat="44.39005" lon="5.86384">
        <ele>899.9313965</ele>
        <time>2014-11-20T10:39:32Z</time>
      </trkpt>
      <trkpt lat="44.39019" lon="5.86365">
        <ele>900.4121094</ele>
        <time>2014-11-20T10:39:41Z</time>
      </trkpt>
      <trkpt lat="44.39024" lon="5.86359">
        <ele>900.8925781</ele>
        <time>2014-11-20T10:39:44Z</time>
      </trkpt>
      <trkpt lat="44.39048" lon="5.86319">
        <ele>902.3344727</ele>
        <time>2014-11-20T10:40:01Z</time>
      </trkpt>
      <trkpt lat="44.39079" lon="5.86288">
        <ele>903.7766113</ele>
        <time>2014-11-20T10:40:15Z</time>
      </trkpt>
      <trkpt lat="44.39107" lon="5.86262">
        <ele>906.1796875</ele>
        <time>2014-11-20T10:40:30Z</time>
      </trkpt>
      <trkpt lat="44.39139" lon="5.86224">
        <ele>909.0639648</ele>
        <time>2014-11-20T10:40:48Z</time>
      </trkpt>
      <trkpt lat="44.39154" lon="5.8621">
        <ele>910.5058594</ele>
        <time>2014-11-20T10:40:56Z</time>
      </trkpt>
      <trkpt lat="44.39183" lon="5.86177">
        <ele>912.9091797</ele>
        <time>2014-11-20T10:41:13Z</time>
      </trkpt>
      <trkpt lat="44.39192" lon="5.86167">
        <ele>914.8317871</ele>
        <time>2014-11-20T10:41:19Z</time>
      </trkpt>
      <trkpt lat="44.39197" lon="5.86161">
        <ele>914.8317871</ele>
        <time>2014-11-20T10:41:22Z</time>
      </trkpt>
      <trkpt lat="44.39203" lon="5.86154">
        <ele>915.7932129</ele>
        <time>2014-11-20T10:41:26Z</time>
      </trkpt>
      <trkpt lat="44.39205" lon="5.8615">
        <ele>916.2736816</ele>
        <time>2014-11-20T10:41:28Z</time>
      </trkpt>
      <trkpt lat="44.39219" lon="5.86131">
        <ele>916.7543945</ele>
        <time>2014-11-20T10:41:36Z</time>
      </trkpt>
      <trkpt lat="44.3923" lon="5.86078">
        <ele>918.1962891</ele>
        <time>2014-11-20T10:41:54Z</time>
      </trkpt>
      <trkpt lat="44.39233" lon="5.86066">
        <ele>918.1962891</ele>
        <time>2014-11-20T10:41:58Z</time>
      </trkpt>
      <trkpt lat="44.39245" lon="5.86027">
        <ele>919.6384277</ele>
        <time>2014-11-20T10:42:10Z</time>
      </trkpt>
      <trkpt lat="44.39264" lon="5.85984">
        <ele>920.5996094</ele>
        <time>2014-11-20T10:42:24Z</time>
      </trkpt>
      <trkpt lat="44.39281" lon="5.85936">
        <ele>923.0029297</ele>
        <time>2014-11-20T10:42:40Z</time>
      </trkpt>
      <trkpt lat="44.3929" lon="5.85899">
        <ele>922.0415039</ele>
        <time>2014-11-20T10:42:49Z</time>
      </trkpt>
      <trkpt lat="44.39296" lon="5.85876">
        <ele>921.0803223</ele>
        <time>2014-11-20T10:42:53Z</time>
      </trkpt>
      <trkpt lat="44.39305" lon="5.8585">
        <ele>920.1188965</ele>
        <time>2014-11-20T10:42:57Z</time>
      </trkpt>
      <trkpt lat="44.3931" lon="5.85836">
        <ele>920.1188965</ele>
        <time>2014-11-20T10:42:59Z</time>
      </trkpt>
      <trkpt lat="44.3934" lon="5.8578">
        <ele>920.1188965</ele>
        <time>2014-11-20T10:43:11Z</time>
      </trkpt>
      <trkpt lat="44.39346" lon="5.85766">
        <ele>919.6384277</ele>
        <time>2014-11-20T10:43:14Z</time>
      </trkpt>
      <trkpt lat="44.39362" lon="5.85711">
        <ele>919.1577148</ele>
        <time>2014-11-20T10:43:24Z</time>
      </trkpt>
      <trkpt lat="44.39367" lon="5.85692">
        <ele>919.1577148</ele>
        <time>2014-11-20T10:43:27Z</time>
      </trkpt>
      <trkpt lat="44.39398" lon="5.85617">
        <ele>920.5996094</ele>
        <time>2014-11-20T10:43:45Z</time>
      </trkpt>
      <trkpt lat="44.39407" lon="5.85601">
        <ele>920.5996094</ele>
        <time>2014-11-20T10:43:49Z</time>
      </trkpt>
      <trkpt lat="44.39417" lon="5.85589">
        <ele>919.6384277</ele>
        <time>2014-11-20T10:43:52Z</time>
      </trkpt>
      <trkpt lat="44.3947" lon="5.85541">
        <ele>920.1188965</ele>
        <time>2014-11-20T10:44:07Z</time>
      </trkpt>
      <trkpt lat="44.3949" lon="5.85512">
        <ele>920.5996094</ele>
        <time>2014-11-20T10:44:16Z</time>
      </trkpt>
      <trkpt lat="44.39502" lon="5.855">
        <ele>919.1577148</ele>
        <time>2014-11-20T10:44:19Z</time>
      </trkpt>
      <trkpt lat="44.39522" lon="5.85474">
        <ele>918.677002</ele>
        <time>2014-11-20T10:44:24Z</time>
      </trkpt>
      <trkpt lat="44.39544" lon="5.85449">
        <ele>918.677002</ele>
        <time>2014-11-20T10:44:30Z</time>
      </trkpt>
      <trkpt lat="44.39576" lon="5.85444">
        <ele>919.6384277</ele>
        <time>2014-11-20T10:44:41Z</time>
      </trkpt>
      <trkpt lat="44.39603" lon="5.85453">
        <ele>919.6384277</ele>
        <time>2014-11-20T10:44:52Z</time>
      </trkpt>
      <trkpt lat="44.39615" lon="5.85458">
        <ele>920.5996094</ele>
        <time>2014-11-20T10:44:57Z</time>
      </trkpt>
      <trkpt lat="44.39625" lon="5.85462">
        <ele>920.5996094</ele>
        <time>2014-11-20T10:45:01Z</time>
      </trkpt>
      <trkpt lat="44.39639" lon="5.85467">
        <ele>922.0415039</ele>
        <time>2014-11-20T10:45:06Z</time>
      </trkpt>
      <trkpt lat="44.39649" lon="5.85471">
        <ele>922.5222168</ele>
        <time>2014-11-20T10:45:11Z</time>
      </trkpt>
      <trkpt lat="44.39679" lon="5.85477">
        <ele>924.9257813</ele>
        <time>2014-11-20T10:45:25Z</time>
      </trkpt>
      <trkpt lat="44.39689" lon="5.85481">
        <ele>926.8483887</ele>
        <time>2014-11-20T10:45:32Z</time>
      </trkpt>
      <trkpt lat="44.39694" lon="5.85483">
        <ele>927.8095703</ele>
        <time>2014-11-20T10:45:36Z</time>
      </trkpt>
      <trkpt lat="44.3971" lon="5.85483">
        <ele>930.2128906</ele>
        <time>2014-11-20T10:45:45Z</time>
      </trkpt>
      <trkpt lat="44.39714" lon="5.85483">
        <ele>930.6936035</ele>
        <time>2014-11-20T10:45:47Z</time>
      </trkpt>
      <trkpt lat="44.39733" lon="5.85486">
        <ele>932.6162109</ele>
        <time>2014-11-20T10:45:58Z</time>
      </trkpt>
      <trkpt lat="44.39746" lon="5.85491">
        <ele>934.5388184</ele>
        <time>2014-11-20T10:46:07Z</time>
      </trkpt>
      <trkpt lat="44.39763" lon="5.85497">
        <ele>936.9418945</ele>
        <time>2014-11-20T10:46:20Z</time>
      </trkpt>
      <trkpt lat="44.39776" lon="5.85496">
        <ele>939.3452148</ele>
        <time>2014-11-20T10:46:31Z</time>
      </trkpt>
      <trkpt lat="44.39797" lon="5.85488">
        <ele>940.7873535</ele>
        <time>2014-11-20T10:46:42Z</time>
      </trkpt>
      <trkpt lat="44.39833" lon="5.85456">
        <ele>940.7873535</ele>
        <time>2014-11-20T10:46:54Z</time>
      </trkpt>
      <trkpt lat="44.39837" lon="5.85445">
        <ele>940.3068848</ele>
        <time>2014-11-20T10:46:56Z</time>
      </trkpt>
      <trkpt lat="44.39841" lon="5.85427">
        <ele>939.8259277</ele>
        <time>2014-11-20T10:46:59Z</time>
      </trkpt>
      <trkpt lat="44.3984" lon="5.85399">
        <ele>938.3840332</ele>
        <time>2014-11-20T10:47:04Z</time>
      </trkpt>
      <trkpt lat="44.39841" lon="5.85369">
        <ele>937.4226074</ele>
        <time>2014-11-20T10:47:09Z</time>
      </trkpt>
      <trkpt lat="44.3984" lon="5.85341">
        <ele>936.4614258</ele>
        <time>2014-11-20T10:47:13Z</time>
      </trkpt>
      <trkpt lat="44.39833" lon="5.85307">
        <ele>935.0195313</ele>
        <time>2014-11-20T10:47:17Z</time>
      </trkpt>
      <trkpt lat="44.39831" lon="5.85287">
        <ele>934.0581055</ele>
        <time>2014-11-20T10:47:19Z</time>
      </trkpt>
      <trkpt lat="44.39824" lon="5.85231">
        <ele>931.1743164</ele>
        <time>2014-11-20T10:47:26Z</time>
      </trkpt>
      <trkpt lat="44.39811" lon="5.85188">
        <ele>929.2514648</ele>
        <time>2014-11-20T10:47:32Z</time>
      </trkpt>
      <trkpt lat="44.39803" lon="5.8515">
        <ele>928.7709961</ele>
        <time>2014-11-20T10:47:37Z</time>
      </trkpt>
      <trkpt lat="44.39804" lon="5.85107">
        <ele>926.3676758</ele>
        <time>2014-11-20T10:47:45Z</time>
      </trkpt>
      <trkpt lat="44.39812" lon="5.85101">
        <ele>926.8483887</ele>
        <time>2014-11-20T10:47:50Z</time>
      </trkpt>
      <trkpt lat="44.39817" lon="5.85098">
        <ele>927.3291016</ele>
        <time>2014-11-20T10:47:53Z</time>
      </trkpt>
      <trkpt lat="44.39838" lon="5.85078">
        <ele>927.3291016</ele>
        <time>2014-11-20T10:48:04Z</time>
      </trkpt>
      <trkpt lat="44.39865" lon="5.85079">
        <ele>927.3291016</ele>
        <time>2014-11-20T10:48:15Z</time>
      </trkpt>
      <trkpt lat="44.39902" lon="5.85077">
        <ele>928.2902832</ele>
        <time>2014-11-20T10:48:25Z</time>
      </trkpt>
      <trkpt lat="44.39951" lon="5.85057">
        <ele>928.7709961</ele>
        <time>2014-11-20T10:48:39Z</time>
      </trkpt>
      <trkpt lat="44.39973" lon="5.85041">
        <ele>928.7709961</ele>
        <time>2014-11-20T10:48:45Z</time>
      </trkpt>
      <trkpt lat="44.4" lon="5.85026">
        <ele>928.7709961</ele>
        <time>2014-11-20T10:48:52Z</time>
      </trkpt>
      <trkpt lat="44.40011" lon="5.85006">
        <ele>928.7709961</ele>
        <time>2014-11-20T10:48:56Z</time>
      </trkpt>
      <trkpt lat="44.40019" lon="5.84995">
        <ele>929.2514648</ele>
        <time>2014-11-20T10:48:59Z</time>
      </trkpt>
      <trkpt lat="44.40025" lon="5.84964">
        <ele>930.2128906</ele>
        <time>2014-11-20T10:49:02Z</time>
      </trkpt>
      <trkpt lat="44.40077" lon="5.84887">
        <ele>929.2514648</ele>
        <time>2014-11-20T10:49:16Z</time>
      </trkpt>
      <trkpt lat="44.40082" lon="5.84865">
        <ele>929.2514648</ele>
        <time>2014-11-20T10:49:19Z</time>
      </trkpt>
      <trkpt lat="44.40075" lon="5.84835">
        <ele>928.2902832</ele>
        <time>2014-11-20T10:49:23Z</time>
      </trkpt>
      <trkpt lat="44.40063" lon="5.84797">
        <ele>927.3291016</ele>
        <time>2014-11-20T10:49:28Z</time>
      </trkpt>
      <trkpt lat="44.40058" lon="5.8476">
        <ele>926.3676758</ele>
        <time>2014-11-20T10:49:33Z</time>
      </trkpt>
      <trkpt lat="44.4006" lon="5.84744">
        <ele>926.3676758</ele>
        <time>2014-11-20T10:49:35Z</time>
      </trkpt>
      <trkpt lat="44.40072" lon="5.84724">
        <ele>925.8869629</ele>
        <time>2014-11-20T10:49:38Z</time>
      </trkpt>
      <trkpt lat="44.40098" lon="5.84693">
        <ele>925.8869629</ele>
        <time>2014-11-20T10:49:45Z</time>
      </trkpt>
      <trkpt lat="44.40108" lon="5.84682">
        <ele>925.8869629</ele>
        <time>2014-11-20T10:49:48Z</time>
      </trkpt>
      <trkpt lat="44.40131" lon="5.84661">
        <ele>926.3676758</ele>
        <time>2014-11-20T10:49:58Z</time>
      </trkpt>
      <trkpt lat="44.40149" lon="5.84655">
        <ele>927.8095703</ele>
        <time>2014-11-20T10:50:07Z</time>
      </trkpt>
      <trkpt lat="44.40176" lon="5.84629">
        <ele>928.7709961</ele>
        <time>2014-11-20T10:50:16Z</time>
      </trkpt>
      <trkpt lat="44.40191" lon="5.84619">
        <ele>930.2128906</ele>
        <time>2014-11-20T10:50:22Z</time>
      </trkpt>
      <trkpt lat="44.40193" lon="5.84613">
        <ele>930.2128906</ele>
        <time>2014-11-20T10:50:24Z</time>
      </trkpt>
      <trkpt lat="44.40199" lon="5.84587">
        <ele>931.1743164</ele>
        <time>2014-11-20T10:50:31Z</time>
      </trkpt>
      <trkpt lat="44.40209" lon="5.84539">
        <ele>932.135498</ele>
        <time>2014-11-20T10:50:44Z</time>
      </trkpt>
      <trkpt lat="44.40224" lon="5.84487">
        <ele>933.5773926</ele>
        <time>2014-11-20T10:50:59Z</time>
      </trkpt>
      <trkpt lat="44.40227" lon="5.84479">
        <ele>933.5773926</ele>
        <time>2014-11-20T10:51:01Z</time>
      </trkpt>
      <trkpt lat="44.40243" lon="5.84431">
        <ele>934.5388184</ele>
        <time>2014-11-20T10:51:14Z</time>
      </trkpt>
      <trkpt lat="44.40244" lon="5.84427">
        <ele>934.5388184</ele>
        <time>2014-11-20T10:51:15Z</time>
      </trkpt>
      <trkpt lat="44.40252" lon="5.8441">
        <ele>935.0195313</ele>
        <time>2014-11-20T10:51:20Z</time>
      </trkpt>
      <trkpt lat="44.40256" lon="5.844">
        <ele>935.5</ele>
        <time>2014-11-20T10:51:23Z</time>
      </trkpt>
      <trkpt lat="44.40278" lon="5.84358">
        <ele>937.4226074</ele>
        <time>2014-11-20T10:51:36Z</time>
      </trkpt>
      <trkpt lat="44.40288" lon="5.84313">
        <ele>938.3840332</ele>
        <time>2014-11-20T10:51:48Z</time>
      </trkpt>
      <trkpt lat="44.40292" lon="5.84263">
        <ele>939.8259277</ele>
        <time>2014-11-20T10:52:02Z</time>
      </trkpt>
      <trkpt lat="44.40291" lon="5.8423">
        <ele>940.7873535</ele>
        <time>2014-11-20T10:52:11Z</time>
      </trkpt>
      <trkpt lat="44.40294" lon="5.84168">
        <ele>941.7487793</ele>
        <time>2014-11-20T10:52:28Z</time>
      </trkpt>
      <trkpt lat="44.40315" lon="5.84132">
        <ele>942.7102051</ele>
        <time>2014-11-20T10:52:40Z</time>
      </trkpt>
      <trkpt lat="44.40342" lon="5.8412">
        <ele>943.1906738</ele>
        <time>2014-11-20T10:52:50Z</time>
      </trkpt>
      <trkpt lat="44.40372" lon="5.84112">
        <ele>944.1520996</ele>
        <time>2014-11-20T10:53:02Z</time>
      </trkpt>
      <trkpt lat="44.40411" lon="5.84125">
        <ele>946.074707</ele>
        <time>2014-11-20T10:53:16Z</time>
      </trkpt>
      <trkpt lat="44.40422" lon="5.84129">
        <ele>946.074707</ele>
        <time>2014-11-20T10:53:20Z</time>
      </trkpt>
      <trkpt lat="44.40455" lon="5.84146">
        <ele>947.5166016</ele>
        <time>2014-11-20T10:53:35Z</time>
      </trkpt>
      <trkpt lat="44.40492" lon="5.84172">
        <ele>948.9584961</ele>
        <time>2014-11-20T10:53:50Z</time>
      </trkpt>
      <trkpt lat="44.40496" lon="5.8418">
        <ele>949.439209</ele>
        <time>2014-11-20T10:53:53Z</time>
      </trkpt>
      <trkpt lat="44.40504" lon="5.84187">
        <ele>949.9199219</ele>
        <time>2014-11-20T10:53:57Z</time>
      </trkpt>
      <trkpt lat="44.40508" lon="5.84191">
        <ele>949.9199219</ele>
        <time>2014-11-20T10:53:59Z</time>
      </trkpt>
      <trkpt lat="44.40512" lon="5.84194">
        <ele>950.8811035</ele>
        <time>2014-11-20T10:54:01Z</time>
      </trkpt>
      <trkpt lat="44.40556" lon="5.84224">
        <ele>951.8425293</ele>
        <time>2014-11-20T10:54:19Z</time>
      </trkpt>
      <trkpt lat="44.40573" lon="5.84233">
        <ele>951.8425293</ele>
        <time>2014-11-20T10:54:26Z</time>
      </trkpt>
      <trkpt lat="44.40601" lon="5.84231">
        <ele>951.3618164</ele>
        <time>2014-11-20T10:54:37Z</time>
      </trkpt>
      <trkpt lat="44.40601" lon="5.84227">
        <ele>950.8811035</ele>
        <time>2014-11-20T10:54:55Z</time>
      </trkpt>
      <trkpt lat="44.40602" lon="5.84226">
        <ele>950.8811035</ele>
        <time>2014-11-20T10:55:20Z</time>
      </trkpt>
      <trkpt lat="44.40627" lon="5.84206">
        <ele>949.9199219</ele>
        <time>2014-11-20T10:55:31Z</time>
      </trkpt>
      <trkpt lat="44.40643" lon="5.84188">
        <ele>948.9584961</ele>
        <time>2014-11-20T10:55:35Z</time>
      </trkpt>
      <trkpt lat="44.4066" lon="5.84161">
        <ele>947.9973145</ele>
        <time>2014-11-20T10:55:39Z</time>
      </trkpt>
      <trkpt lat="44.40704" lon="5.84095">
        <ele>946.074707</ele>
        <time>2014-11-20T10:55:52Z</time>
      </trkpt>
      <trkpt lat="44.40719" lon="5.84085">
        <ele>945.5939941</ele>
        <time>2014-11-20T10:55:58Z</time>
      </trkpt>
      <trkpt lat="44.40726" lon="5.84081">
        <ele>944.6325684</ele>
        <time>2014-11-20T10:56:09Z</time>
      </trkpt>
      <trkpt lat="44.40747" lon="5.84075">
        <ele>943.6713867</ele>
        <time>2014-11-20T10:56:16Z</time>
      </trkpt>
      <trkpt lat="44.40788" lon="5.84066">
        <ele>942.2294922</ele>
        <time>2014-11-20T10:56:28Z</time>
      </trkpt>
      <trkpt lat="44.40799" lon="5.84065">
        <ele>942.2294922</ele>
        <time>2014-11-20T10:56:41Z</time>
      </trkpt>
      <trkpt lat="44.40799" lon="5.84068">
        <ele>940.7873535</ele>
        <time>2014-11-20T10:57:06Z</time>
      </trkpt>
      <trkpt lat="44.40799" lon="5.84068">
        <ele>940.3068848</ele>
        <time>2014-11-20T10:57:35Z</time>
      </trkpt>
      <trkpt lat="44.408" lon="5.84066">
        <ele>939.3452148</ele>
        <time>2014-11-20T11:04:22Z</time>
      </trkpt>
      <trkpt lat="44.40799" lon="5.84065">
        <ele>936.4614258</ele>
        <time>2014-11-20T11:04:30Z</time>
      </trkpt>
      <trkpt lat="44.40799" lon="5.84065">
        <ele>936.4614258</ele>
        <time>2014-11-20T11:04:31Z</time>
      </trkpt>
      <trkpt lat="44.40799" lon="5.84063">
        <ele>938.8647461</ele>
        <time>2014-11-20T11:04:41Z</time>
      </trkpt>
      <trkpt lat="44.40801" lon="5.84058">
        <ele>938.8647461</ele>
        <time>2014-11-20T11:05:15Z</time>
      </trkpt>
      <trkpt lat="44.40811" lon="5.84057">
        <ele>939.8259277</ele>
        <time>2014-11-20T11:05:22Z</time>
      </trkpt>
      <trkpt lat="44.40841" lon="5.8405">
        <ele>940.7873535</ele>
        <time>2014-11-20T11:05:35Z</time>
      </trkpt>
      <trkpt lat="44.40884" lon="5.84041">
        <ele>941.7487793</ele>
        <time>2014-11-20T11:05:49Z</time>
      </trkpt>
      <trkpt lat="44.40897" lon="5.84041">
        <ele>940.3068848</ele>
        <time>2014-11-20T11:05:53Z</time>
      </trkpt>
      <trkpt lat="44.40931" lon="5.84033">
        <ele>941.7487793</ele>
        <time>2014-11-20T11:06:05Z</time>
      </trkpt>
      <trkpt lat="44.40961" lon="5.84013">
        <ele>939.3452148</ele>
        <time>2014-11-20T11:06:13Z</time>
      </trkpt>
      <trkpt lat="44.40985" lon="5.84001">
        <ele>936.9418945</ele>
        <time>2014-11-20T11:06:17Z</time>
      </trkpt>
      <trkpt lat="44.41004" lon="5.83996">
        <ele>934.5388184</ele>
        <time>2014-11-20T11:06:20Z</time>
      </trkpt>
      <trkpt lat="44.41018" lon="5.83991">
        <ele>932.135498</ele>
        <time>2014-11-20T11:06:22Z</time>
      </trkpt>
      <trkpt lat="44.41054" lon="5.83963">
        <ele>928.7709961</ele>
        <time>2014-11-20T11:06:28Z</time>
      </trkpt>
      <trkpt lat="44.41059" lon="5.8396">
        <ele>926.8483887</ele>
        <time>2014-11-20T11:06:29Z</time>
      </trkpt>
      <trkpt lat="44.41074" lon="5.83955">
        <ele>924.9257813</ele>
        <time>2014-11-20T11:06:33Z</time>
      </trkpt>
      <trkpt lat="44.41093" lon="5.83948">
        <ele>923.4836426</ele>
        <time>2014-11-20T11:06:37Z</time>
      </trkpt>
      <trkpt lat="44.41102" lon="5.83939">
        <ele>923.4836426</ele>
        <time>2014-11-20T11:06:39Z</time>
      </trkpt>
      <trkpt lat="44.41112" lon="5.83928">
        <ele>921.560791</ele>
        <time>2014-11-20T11:06:41Z</time>
      </trkpt>
      <trkpt lat="44.41123" lon="5.8392">
        <ele>920.1188965</ele>
        <time>2014-11-20T11:06:43Z</time>
      </trkpt>
      <trkpt lat="44.41162" lon="5.83925">
        <ele>917.7155762</ele>
        <time>2014-11-20T11:06:49Z</time>
      </trkpt>
      <trkpt lat="44.41183" lon="5.8393">
        <ele>915.3125</ele>
        <time>2014-11-20T11:06:52Z</time>
      </trkpt>
      <trkpt lat="44.41202" lon="5.83925">
        <ele>913.8703613</ele>
        <time>2014-11-20T11:06:55Z</time>
      </trkpt>
      <trkpt lat="44.41215" lon="5.8392">
        <ele>912.4284668</ele>
        <time>2014-11-20T11:06:57Z</time>
      </trkpt>
      <trkpt lat="44.41229" lon="5.8392">
        <ele>910.0251465</ele>
        <time>2014-11-20T11:06:59Z</time>
      </trkpt>
      <trkpt lat="44.41251" lon="5.83916">
        <ele>908.583252</ele>
        <time>2014-11-20T11:07:02Z</time>
      </trkpt>
      <trkpt lat="44.41257" lon="5.83912">
        <ele>907.6218262</ele>
        <time>2014-11-20T11:07:03Z</time>
      </trkpt>
      <trkpt lat="44.41275" lon="5.8388">
        <ele>905.2185059</ele>
        <time>2014-11-20T11:07:07Z</time>
      </trkpt>
      <trkpt lat="44.41282" lon="5.8386">
        <ele>903.2958984</ele>
        <time>2014-11-20T11:07:09Z</time>
      </trkpt>
      <trkpt lat="44.41297" lon="5.83832">
        <ele>900.8925781</ele>
        <time>2014-11-20T11:07:12Z</time>
      </trkpt>
      <trkpt lat="44.41305" lon="5.83812">
        <ele>899.9313965</ele>
        <time>2014-11-20T11:07:14Z</time>
      </trkpt>
      <trkpt lat="44.41314" lon="5.83792">
        <ele>898.4892578</ele>
        <time>2014-11-20T11:07:16Z</time>
      </trkpt>
      <trkpt lat="44.41324" lon="5.83777">
        <ele>897.0473633</ele>
        <time>2014-11-20T11:07:18Z</time>
      </trkpt>
      <trkpt lat="44.41333" lon="5.8376">
        <ele>894.644043</ele>
        <time>2014-11-20T11:07:20Z</time>
      </trkpt>
      <trkpt lat="44.41335" lon="5.83717">
        <ele>892.2409668</ele>
        <time>2014-11-20T11:07:25Z</time>
      </trkpt>
      <trkpt lat="44.4133" lon="5.83698">
        <ele>891.7600098</ele>
        <time>2014-11-20T11:07:27Z</time>
      </trkpt>
      <trkpt lat="44.4133" lon="5.83673">
        <ele>888.8762207</ele>
        <time>2014-11-20T11:07:30Z</time>
      </trkpt>
      <trkpt lat="44.41344" lon="5.83654">
        <ele>886.9533691</ele>
        <time>2014-11-20T11:07:33Z</time>
      </trkpt>
      <trkpt lat="44.41361" lon="5.83622">
        <ele>883.5888672</ele>
        <time>2014-11-20T11:07:37Z</time>
      </trkpt>
      <trkpt lat="44.41366" lon="5.836">
        <ele>882.1469727</ele>
        <time>2014-11-20T11:07:39Z</time>
      </trkpt>
      <trkpt lat="44.4137" lon="5.83577">
        <ele>880.7050781</ele>
        <time>2014-11-20T11:07:41Z</time>
      </trkpt>
      <trkpt lat="44.41375" lon="5.83556">
        <ele>877.3405762</ele>
        <time>2014-11-20T11:07:43Z</time>
      </trkpt>
      <trkpt lat="44.41376" lon="5.83546">
        <ele>877.3405762</ele>
        <time>2014-11-20T11:07:44Z</time>
      </trkpt>
      <trkpt lat="44.41379" lon="5.8353">
        <ele>876.8598633</ele>
        <time>2014-11-20T11:07:46Z</time>
      </trkpt>
      <trkpt lat="44.41399" lon="5.83513">
        <ele>873.4951172</ele>
        <time>2014-11-20T11:07:51Z</time>
      </trkpt>
      <trkpt lat="44.41426" lon="5.8352">
        <ele>871.0917969</ele>
        <time>2014-11-20T11:07:55Z</time>
      </trkpt>
      <trkpt lat="44.41433" lon="5.83522">
        <ele>870.611084</ele>
        <time>2014-11-20T11:07:56Z</time>
      </trkpt>
      <trkpt lat="44.41447" lon="5.83521">
        <ele>869.6499023</ele>
        <time>2014-11-20T11:07:58Z</time>
      </trkpt>
      <trkpt lat="44.41482" lon="5.83511">
        <ele>865.8046875</ele>
        <time>2014-11-20T11:08:03Z</time>
      </trkpt>
      <trkpt lat="44.41494" lon="5.83511">
        <ele>864.3625488</ele>
        <time>2014-11-20T11:08:05Z</time>
      </trkpt>
      <trkpt lat="44.41508" lon="5.83516">
        <ele>862.4399414</ele>
        <time>2014-11-20T11:08:07Z</time>
      </trkpt>
      <trkpt lat="44.4152" lon="5.83525">
        <ele>860.9980469</ele>
        <time>2014-11-20T11:08:09Z</time>
      </trkpt>
      <trkpt lat="44.4154" lon="5.83534">
        <ele>859.5559082</ele>
        <time>2014-11-20T11:08:13Z</time>
      </trkpt>
      <trkpt lat="44.41547" lon="5.8352">
        <ele>859.0751953</ele>
        <time>2014-11-20T11:08:16Z</time>
      </trkpt>
      <trkpt lat="44.41539" lon="5.83478">
        <ele>859.0751953</ele>
        <time>2014-11-20T11:08:22Z</time>
      </trkpt>
      <trkpt lat="44.4153" lon="5.83451">
        <ele>858.1140137</ele>
        <time>2014-11-20T11:08:26Z</time>
      </trkpt>
      <trkpt lat="44.41526" lon="5.83416">
        <ele>857.1525879</ele>
        <time>2014-11-20T11:08:30Z</time>
      </trkpt>
      <trkpt lat="44.41492" lon="5.83339">
        <ele>854.2687988</ele>
        <time>2014-11-20T11:08:40Z</time>
      </trkpt>
      <trkpt lat="44.41485" lon="5.83326">
        <ele>852.8266602</ele>
        <time>2014-11-20T11:08:42Z</time>
      </trkpt>
      <trkpt lat="44.41482" lon="5.83319">
        <ele>851.8654785</ele>
        <time>2014-11-20T11:08:43Z</time>
      </trkpt>
      <trkpt lat="44.4148" lon="5.83262">
        <ele>849.9428711</ele>
        <time>2014-11-20T11:08:49Z</time>
      </trkpt>
      <trkpt lat="44.41481" lon="5.83242">
        <ele>848.5007324</ele>
        <time>2014-11-20T11:08:51Z</time>
      </trkpt>
      <trkpt lat="44.41482" lon="5.83233">
        <ele>847.5395508</ele>
        <time>2014-11-20T11:08:52Z</time>
      </trkpt>
      <trkpt lat="44.41495" lon="5.83186">
        <ele>843.6940918</ele>
        <time>2014-11-20T11:08:57Z</time>
      </trkpt>
      <trkpt lat="44.415" lon="5.83176">
        <ele>843.6940918</ele>
        <time>2014-11-20T11:08:58Z</time>
      </trkpt>
      <trkpt lat="44.4151" lon="5.83158">
        <ele>842.7329102</ele>
        <time>2014-11-20T11:09:00Z</time>
      </trkpt>
      <trkpt lat="44.4152" lon="5.83142">
        <ele>840.8100586</ele>
        <time>2014-11-20T11:09:02Z</time>
      </trkpt>
      <trkpt lat="44.4155" lon="5.83111">
        <ele>837.4455566</ele>
        <time>2014-11-20T11:09:07Z</time>
      </trkpt>
      <trkpt lat="44.41556" lon="5.83105">
        <ele>836.9648438</ele>
        <time>2014-11-20T11:09:08Z</time>
      </trkpt>
      <trkpt lat="44.41571" lon="5.83075">
        <ele>835.5229492</ele>
        <time>2014-11-20T11:09:12Z</time>
      </trkpt>
      <trkpt lat="44.41572" lon="5.83045">
        <ele>834.0810547</ele>
        <time>2014-11-20T11:09:15Z</time>
      </trkpt>
      <trkpt lat="44.41562" lon="5.82987">
        <ele>831.6777344</ele>
        <time>2014-11-20T11:09:21Z</time>
      </trkpt>
      <trkpt lat="44.41536" lon="5.82853">
        <ele>829.755127</ele>
        <time>2014-11-20T11:09:35Z</time>
      </trkpt>
      <trkpt lat="44.41517" lon="5.8275">
        <ele>826.3903809</ele>
        <time>2014-11-20T11:09:45Z</time>
      </trkpt>
      <trkpt lat="44.41509" lon="5.82704">
        <ele>824.4677734</ele>
        <time>2014-11-20T11:09:49Z</time>
      </trkpt>
      <trkpt lat="44.41492" lon="5.82609">
        <ele>821.5837402</ele>
        <time>2014-11-20T11:09:57Z</time>
      </trkpt>
      <trkpt lat="44.4148" lon="5.82545">
        <ele>817.2580566</ele>
        <time>2014-11-20T11:10:02Z</time>
      </trkpt>
      <trkpt lat="44.41478" lon="5.82531">
        <ele>817.2580566</ele>
        <time>2014-11-20T11:10:03Z</time>
      </trkpt>
      <trkpt lat="44.41473" lon="5.82502">
        <ele>815.8161621</ele>
        <time>2014-11-20T11:10:05Z</time>
      </trkpt>
      <trkpt lat="44.41468" lon="5.82472">
        <ele>814.3740234</ele>
        <time>2014-11-20T11:10:07Z</time>
      </trkpt>
      <trkpt lat="44.41461" lon="5.82432">
        <ele>811.9707031</ele>
        <time>2014-11-20T11:10:10Z</time>
      </trkpt>
      <trkpt lat="44.41447" lon="5.82358">
        <ele>810.0478516</ele>
        <time>2014-11-20T11:10:16Z</time>
      </trkpt>
      <trkpt lat="44.41423" lon="5.82276">
        <ele>810.5285645</ele>
        <time>2014-11-20T11:10:25Z</time>
      </trkpt>
      <trkpt lat="44.41374" lon="5.8218">
        <ele>807.1640625</ele>
        <time>2014-11-20T11:10:38Z</time>
      </trkpt>
      <trkpt lat="44.41364" lon="5.82162">
        <ele>806.2026367</ele>
        <time>2014-11-20T11:10:40Z</time>
      </trkpt>
      <trkpt lat="44.41354" lon="5.82143">
        <ele>804.7607422</ele>
        <time>2014-11-20T11:10:42Z</time>
      </trkpt>
      <trkpt lat="44.41313" lon="5.82063">
        <ele>799.9543457</ele>
        <time>2014-11-20T11:10:50Z</time>
      </trkpt>
      <trkpt lat="44.41308" lon="5.82053">
        <ele>799.9543457</ele>
        <time>2014-11-20T11:10:51Z</time>
      </trkpt>
      <trkpt lat="44.41281" lon="5.82005">
        <ele>797.0703125</ele>
        <time>2014-11-20T11:10:56Z</time>
      </trkpt>
      <trkpt lat="44.41277" lon="5.81995">
        <ele>796.5898438</ele>
        <time>2014-11-20T11:10:57Z</time>
      </trkpt>
      <trkpt lat="44.4127" lon="5.81929">
        <ele>794.666748</ele>
        <time>2014-11-20T11:11:03Z</time>
      </trkpt>
      <trkpt lat="44.41283" lon="5.81845">
        <ele>790.8215332</ele>
        <time>2014-11-20T11:11:10Z</time>
      </trkpt>
      <trkpt lat="44.41298" lon="5.81761">
        <ele>787.9377441</ele>
        <time>2014-11-20T11:11:17Z</time>
      </trkpt>
      <trkpt lat="44.41313" lon="5.81712">
        <ele>786.0151367</ele>
        <time>2014-11-20T11:11:21Z</time>
      </trkpt>
      <trkpt lat="44.4132" lon="5.81685">
        <ele>783.6118164</ele>
        <time>2014-11-20T11:11:23Z</time>
      </trkpt>
      <trkpt lat="44.41333" lon="5.81645">
        <ele>782.1699219</ele>
        <time>2014-11-20T11:11:26Z</time>
      </trkpt>
      <trkpt lat="44.41349" lon="5.81592">
        <ele>778.8051758</ele>
        <time>2014-11-20T11:11:30Z</time>
      </trkpt>
      <trkpt lat="44.41353" lon="5.81579">
        <ele>778.8051758</ele>
        <time>2014-11-20T11:11:31Z</time>
      </trkpt>
      <trkpt lat="44.41386" lon="5.81483">
        <ele>774.9599609</ele>
        <time>2014-11-20T11:11:39Z</time>
      </trkpt>
      <trkpt lat="44.41415" lon="5.81406">
        <ele>772.5566406</ele>
        <time>2014-11-20T11:11:46Z</time>
      </trkpt>
      <trkpt lat="44.41436" lon="5.81349">
        <ele>770.6340332</ele>
        <time>2014-11-20T11:11:51Z</time>
      </trkpt>
      <trkpt lat="44.41459" lon="5.81282">
        <ele>766.7888184</ele>
        <time>2014-11-20T11:11:57Z</time>
      </trkpt>
      <trkpt lat="44.41461" lon="5.81271">
        <ele>766.7888184</ele>
        <time>2014-11-20T11:11:58Z</time>
      </trkpt>
      <trkpt lat="44.41476" lon="5.81207">
        <ele>765.8276367</ele>
        <time>2014-11-20T11:12:04Z</time>
      </trkpt>
      <trkpt lat="44.41488" lon="5.81068">
        <ele>763.904541</ele>
        <time>2014-11-20T11:12:19Z</time>
      </trkpt>
      <trkpt lat="44.41492" lon="5.8104">
        <ele>762.4626465</ele>
        <time>2014-11-20T11:12:22Z</time>
      </trkpt>
      <trkpt lat="44.41502" lon="5.80887">
        <ele>759.5788574</ele>
        <time>2014-11-20T11:12:38Z</time>
      </trkpt>
      <trkpt lat="44.41503" lon="5.8077">
        <ele>756.2141113</ele>
        <time>2014-11-20T11:12:50Z</time>
      </trkpt>
      <trkpt lat="44.41505" lon="5.80739">
        <ele>754.7722168</ele>
        <time>2014-11-20T11:12:53Z</time>
      </trkpt>
      <trkpt lat="44.41499" lon="5.80697">
        <ele>753.8110352</ele>
        <time>2014-11-20T11:12:57Z</time>
      </trkpt>
      <trkpt lat="44.41479" lon="5.80627">
        <ele>751.8884277</ele>
        <time>2014-11-20T11:13:04Z</time>
      </trkpt>
      <trkpt lat="44.41475" lon="5.80608">
        <ele>750.927002</ele>
        <time>2014-11-20T11:13:06Z</time>
      </trkpt>
      <trkpt lat="44.4149" lon="5.80534">
        <ele>748.0432129</ele>
        <time>2014-11-20T11:13:13Z</time>
      </trkpt>
      <trkpt lat="44.41495" lon="5.80525">
        <ele>747.5622559</ele>
        <time>2014-11-20T11:13:14Z</time>
      </trkpt>
      <trkpt lat="44.41564" lon="5.80434">
        <ele>747.5622559</ele>
        <time>2014-11-20T11:13:28Z</time>
      </trkpt>
      <trkpt lat="44.41631" lon="5.80341">
        <ele>748.5236816</ele>
        <time>2014-11-20T11:13:47Z</time>
      </trkpt>
      <trkpt lat="44.41693" lon="5.80271">
        <ele>747.5622559</ele>
        <time>2014-11-20T11:14:04Z</time>
      </trkpt>
      <trkpt lat="44.41704" lon="5.80246">
        <ele>747.081543</ele>
        <time>2014-11-20T11:14:08Z</time>
      </trkpt>
      <trkpt lat="44.41711" lon="5.80196">
        <ele>747.081543</ele>
        <time>2014-11-20T11:14:15Z</time>
      </trkpt>
      <trkpt lat="44.41726" lon="5.80167">
        <ele>746.1203613</ele>
        <time>2014-11-20T11:14:20Z</time>
      </trkpt>
      <trkpt lat="44.418" lon="5.80098">
        <ele>747.5622559</ele>
        <time>2014-11-20T11:14:39Z</time>
      </trkpt>
      <trkpt lat="44.41803" lon="5.80093">
        <ele>747.5622559</ele>
        <time>2014-11-20T11:14:40Z</time>
      </trkpt>
      <trkpt lat="44.41823" lon="5.80064">
        <ele>747.081543</ele>
        <time>2014-11-20T11:14:46Z</time>
      </trkpt>
      <trkpt lat="44.41877" lon="5.7997">
        <ele>746.1203613</ele>
        <time>2014-11-20T11:15:03Z</time>
      </trkpt>
      <trkpt lat="44.41883" lon="5.7996">
        <ele>745.6396484</ele>
        <time>2014-11-20T11:15:05Z</time>
      </trkpt>
      <trkpt lat="44.41925" lon="5.79914">
        <ele>746.1203613</ele>
        <time>2014-11-20T11:15:16Z</time>
      </trkpt>
      <trkpt lat="44.41946" lon="5.79888">
        <ele>746.1203613</ele>
        <time>2014-11-20T11:15:22Z</time>
      </trkpt>
      <trkpt lat="44.41969" lon="5.79873">
        <ele>746.6010742</ele>
        <time>2014-11-20T11:15:28Z</time>
      </trkpt>
      <trkpt lat="44.42017" lon="5.79867">
        <ele>747.5622559</ele>
        <time>2014-11-20T11:15:40Z</time>
      </trkpt>
      <trkpt lat="44.4203" lon="5.79839">
        <ele>747.081543</ele>
        <time>2014-11-20T11:15:46Z</time>
      </trkpt>
      <trkpt lat="44.42039" lon="5.79786">
        <ele>747.5622559</ele>
        <time>2014-11-20T11:15:55Z</time>
      </trkpt>
      <trkpt lat="44.42048" lon="5.79759">
        <ele>747.081543</ele>
        <time>2014-11-20T11:16:00Z</time>
      </trkpt>
      <trkpt lat="44.4209" lon="5.79685">
        <ele>747.081543</ele>
        <time>2014-11-20T11:16:16Z</time>
      </trkpt>
      <trkpt lat="44.42094" lon="5.79675">
        <ele>747.5622559</ele>
        <time>2014-11-20T11:16:18Z</time>
      </trkpt>
      <trkpt lat="44.42106" lon="5.79649">
        <ele>746.6010742</ele>
        <time>2014-11-20T11:16:23Z</time>
      </trkpt>
      <trkpt lat="44.4213" lon="5.79595">
        <ele>743.2363281</ele>
        <time>2014-11-20T11:16:31Z</time>
      </trkpt>
      <trkpt lat="44.42179" lon="5.79501">
        <ele>740.3525391</ele>
        <time>2014-11-20T11:16:45Z</time>
      </trkpt>
      <trkpt lat="44.42183" lon="5.79495">
        <ele>740.3525391</ele>
        <time>2014-11-20T11:16:46Z</time>
      </trkpt>
      <trkpt lat="44.42194" lon="5.79469">
        <ele>741.3137207</ele>
        <time>2014-11-20T11:16:56Z</time>
      </trkpt>
      <trkpt lat="44.42189" lon="5.79459">
        <ele>740.8330078</ele>
        <time>2014-11-20T11:17:21Z</time>
      </trkpt>
      <trkpt lat="44.42149" lon="5.79425">
        <ele>739.8718262</ele>
        <time>2014-11-20T11:17:34Z</time>
      </trkpt>
      <trkpt lat="44.42109" lon="5.79382">
        <ele>740.3525391</ele>
        <time>2014-11-20T11:17:47Z</time>
      </trkpt>
      <trkpt lat="44.42093" lon="5.79354">
        <ele>740.3525391</ele>
        <time>2014-11-20T11:17:52Z</time>
      </trkpt>
      <trkpt lat="44.42085" lon="5.79335">
        <ele>739.8718262</ele>
        <time>2014-11-20T11:17:55Z</time>
      </trkpt>
      <trkpt lat="44.42068" lon="5.7925">
        <ele>738.4299316</ele>
        <time>2014-11-20T11:18:06Z</time>
      </trkpt>
      <trkpt lat="44.42033" lon="5.7914">
        <ele>738.4299316</ele>
        <time>2014-11-20T11:18:21Z</time>
      </trkpt>
      <trkpt lat="44.4202" lon="5.79059">
        <ele>738.9106445</ele>
        <time>2014-11-20T11:18:32Z</time>
      </trkpt>
      <trkpt lat="44.42012" lon="5.78966">
        <ele>740.3525391</ele>
        <time>2014-11-20T11:18:47Z</time>
      </trkpt>
      <trkpt lat="44.42014" lon="5.78934">
        <ele>742.2751465</ele>
        <time>2014-11-20T11:18:53Z</time>
      </trkpt>
      <trkpt lat="44.42015" lon="5.78924">
        <ele>740.8330078</ele>
        <time>2014-11-20T11:18:55Z</time>
      </trkpt>
      <trkpt lat="44.42016" lon="5.78915">
        <ele>741.7944336</ele>
        <time>2014-11-20T11:18:57Z</time>
      </trkpt>
      <trkpt lat="44.42026" lon="5.78855">
        <ele>743.717041</ele>
        <time>2014-11-20T11:19:11Z</time>
      </trkpt>
      <trkpt lat="44.4204" lon="5.78775">
        <ele>743.717041</ele>
        <time>2014-11-20T11:19:26Z</time>
      </trkpt>
      <trkpt lat="44.42043" lon="5.78699">
        <ele>745.1589355</ele>
        <time>2014-11-20T11:19:39Z</time>
      </trkpt>
      <trkpt lat="44.42046" lon="5.78638">
        <ele>747.081543</ele>
        <time>2014-11-20T11:19:52Z</time>
      </trkpt>
      <trkpt lat="44.42045" lon="5.78619">
        <ele>745.6396484</ele>
        <time>2014-11-20T11:19:55Z</time>
      </trkpt>
      <trkpt lat="44.42044" lon="5.78594">
        <ele>744.1977539</ele>
        <time>2014-11-20T11:19:58Z</time>
      </trkpt>
      <trkpt lat="44.42041" lon="5.7853">
        <ele>740.3525391</ele>
        <time>2014-11-20T11:20:04Z</time>
      </trkpt>
      <trkpt lat="44.4204" lon="5.78518">
        <ele>740.3525391</ele>
        <time>2014-11-20T11:20:05Z</time>
      </trkpt>
      <trkpt lat="44.42034" lon="5.78464">
        <ele>737.4685059</ele>
        <time>2014-11-20T11:20:09Z</time>
      </trkpt>
      <trkpt lat="44.4203" lon="5.78425">
        <ele>735.0654297</ele>
        <time>2014-11-20T11:20:12Z</time>
      </trkpt>
      <trkpt lat="44.42027" lon="5.784">
        <ele>733.623291</ele>
        <time>2014-11-20T11:20:14Z</time>
      </trkpt>
      <trkpt lat="44.42024" lon="5.78374">
        <ele>731.7004395</ele>
        <time>2014-11-20T11:20:16Z</time>
      </trkpt>
      <trkpt lat="44.42021" lon="5.78347">
        <ele>729.777832</ele>
        <time>2014-11-20T11:20:18Z</time>
      </trkpt>
      <trkpt lat="44.42017" lon="5.78311">
        <ele>727.3747559</ele>
        <time>2014-11-20T11:20:21Z</time>
      </trkpt>
      <trkpt lat="44.42009" lon="5.78233">
        <ele>724.0100098</ele>
        <time>2014-11-20T11:20:27Z</time>
      </trkpt>
      <trkpt lat="44.42014" lon="5.78091">
        <ele>722.0874023</ele>
        <time>2014-11-20T11:20:40Z</time>
      </trkpt>
      <trkpt lat="44.42016" lon="5.77922">
        <ele>718.2421875</ele>
        <time>2014-11-20T11:20:57Z</time>
      </trkpt>
      <trkpt lat="44.42004" lon="5.77843">
        <ele>714.8774414</ele>
        <time>2014-11-20T11:21:04Z</time>
      </trkpt>
      <trkpt lat="44.42003" lon="5.77832">
        <ele>714.8774414</ele>
        <time>2014-11-20T11:21:05Z</time>
      </trkpt>
      <trkpt lat="44.41978" lon="5.77694">
        <ele>711.9936523</ele>
        <time>2014-11-20T11:21:17Z</time>
      </trkpt>
      <trkpt lat="44.41938" lon="5.77557">
        <ele>712.4741211</ele>
        <time>2014-11-20T11:21:32Z</time>
      </trkpt>
      <trkpt lat="44.41917" lon="5.77491">
        <ele>713.9160156</ele>
        <time>2014-11-20T11:21:42Z</time>
      </trkpt>
      <trkpt lat="44.41897" lon="5.77445">
        <ele>714.8774414</ele>
        <time>2014-11-20T11:21:50Z</time>
      </trkpt>
      <trkpt lat="44.41886" lon="5.77408">
        <ele>714.3967285</ele>
        <time>2014-11-20T11:21:55Z</time>
      </trkpt>
      <trkpt lat="44.41884" lon="5.77334">
        <ele>713.9160156</ele>
        <time>2014-11-20T11:22:04Z</time>
      </trkpt>
      <trkpt lat="44.41882" lon="5.7723">
        <ele>714.3967285</ele>
        <time>2014-11-20T11:22:19Z</time>
      </trkpt>
      <trkpt lat="44.41875" lon="5.77193">
        <ele>716.800293</ele>
        <time>2014-11-20T11:22:25Z</time>
      </trkpt>
      <trkpt lat="44.41868" lon="5.77162">
        <ele>716.800293</ele>
        <time>2014-11-20T11:22:30Z</time>
      </trkpt>
      <trkpt lat="44.41863" lon="5.77144">
        <ele>715.8388672</ele>
        <time>2014-11-20T11:22:33Z</time>
      </trkpt>
      <trkpt lat="44.41848" lon="5.77078">
        <ele>716.800293</ele>
        <time>2014-11-20T11:22:44Z</time>
      </trkpt>
      <trkpt lat="44.41827" lon="5.77013">
        <ele>717.2810059</ele>
        <time>2014-11-20T11:22:55Z</time>
      </trkpt>
      <trkpt lat="44.41792" lon="5.76967">
        <ele>716.800293</ele>
        <time>2014-11-20T11:23:05Z</time>
      </trkpt>
      <trkpt lat="44.41747" lon="5.76858">
        <ele>714.8774414</ele>
        <time>2014-11-20T11:23:21Z</time>
      </trkpt>
      <trkpt lat="44.41693" lon="5.76773">
        <ele>711.9936523</ele>
        <time>2014-11-20T11:23:32Z</time>
      </trkpt>
      <trkpt lat="44.4165" lon="5.76719">
        <ele>713.9160156</ele>
        <time>2014-11-20T11:23:43Z</time>
      </trkpt>
      <trkpt lat="44.41612" lon="5.76638">
        <ele>715.8388672</ele>
        <time>2014-11-20T11:24:00Z</time>
      </trkpt>
      <trkpt lat="44.41584" lon="5.76579">
        <ele>716.3195801</ele>
        <time>2014-11-20T11:24:13Z</time>
      </trkpt>
      <trkpt lat="44.41572" lon="5.7655">
        <ele>716.3195801</ele>
        <time>2014-11-20T11:24:19Z</time>
      </trkpt>
      <trkpt lat="44.41544" lon="5.76478">
        <ele>713.9160156</ele>
        <time>2014-11-20T11:24:31Z</time>
      </trkpt>
      <trkpt lat="44.41542" lon="5.76444">
        <ele>712.954834</ele>
        <time>2014-11-20T11:24:35Z</time>
      </trkpt>
      <trkpt lat="44.41538" lon="5.76384">
        <ele>709.590332</ele>
        <time>2014-11-20T11:24:41Z</time>
      </trkpt>
      <trkpt lat="44.41538" lon="5.76373">
        <ele>709.590332</ele>
        <time>2014-11-20T11:24:42Z</time>
      </trkpt>
      <trkpt lat="44.41536" lon="5.76338">
        <ele>707.6677246</ele>
        <time>2014-11-20T11:24:45Z</time>
      </trkpt>
      <trkpt lat="44.41533" lon="5.76277">
        <ele>704.7836914</ele>
        <time>2014-11-20T11:24:50Z</time>
      </trkpt>
      <trkpt lat="44.41528" lon="5.76253">
        <ele>704.3032227</ele>
        <time>2014-11-20T11:24:52Z</time>
      </trkpt>
      <trkpt lat="44.41517" lon="5.76233">
        <ele>702.861084</ele>
        <time>2014-11-20T11:24:54Z</time>
      </trkpt>
      <trkpt lat="44.41503" lon="5.76216">
        <ele>701.8999023</ele>
        <time>2014-11-20T11:24:56Z</time>
      </trkpt>
      <trkpt lat="44.4148" lon="5.76194">
        <ele>700.4580078</ele>
        <time>2014-11-20T11:24:59Z</time>
      </trkpt>
      <trkpt lat="44.41441" lon="5.76157">
        <ele>698.5349121</ele>
        <time>2014-11-20T11:25:04Z</time>
      </trkpt>
      <trkpt lat="44.41429" lon="5.76141">
        <ele>697.5737305</ele>
        <time>2014-11-20T11:25:06Z</time>
      </trkpt>
      <trkpt lat="44.41397" lon="5.76066">
        <ele>695.1704102</ele>
        <time>2014-11-20T11:25:14Z</time>
      </trkpt>
      <trkpt lat="44.4135" lon="5.76056">
        <ele>694.2092285</ele>
        <time>2014-11-20T11:25:21Z</time>
      </trkpt>
      <trkpt lat="44.4133" lon="5.76063">
        <ele>693.7285156</ele>
        <time>2014-11-20T11:25:24Z</time>
      </trkpt>
      <trkpt lat="44.41282" lon="5.76042">
        <ele>692.767334</ele>
        <time>2014-11-20T11:25:32Z</time>
      </trkpt>
      <trkpt lat="44.41272" lon="5.76029">
        <ele>692.2866211</ele>
        <time>2014-11-20T11:25:34Z</time>
      </trkpt>
      <trkpt lat="44.4125" lon="5.76008">
        <ele>692.2866211</ele>
        <time>2014-11-20T11:25:38Z</time>
      </trkpt>
      <trkpt lat="44.41189" lon="5.75985">
        <ele>691.3251953</ele>
        <time>2014-11-20T11:25:48Z</time>
      </trkpt>
      <trkpt lat="44.41112" lon="5.75906">
        <ele>688.9221191</ele>
        <time>2014-11-20T11:26:03Z</time>
      </trkpt>
      <trkpt lat="44.41044" lon="5.75819">
        <ele>687.9606934</ele>
        <time>2014-11-20T11:26:18Z</time>
      </trkpt>
      <trkpt lat="44.40969" lon="5.75691">
        <ele>683.6345215</ele>
        <time>2014-11-20T11:26:35Z</time>
      </trkpt>
      <trkpt lat="44.40905" lon="5.75616">
        <ele>680.2700195</ele>
        <time>2014-11-20T11:26:46Z</time>
      </trkpt>
      <trkpt lat="44.40859" lon="5.75541">
        <ele>676.9055176</ele>
        <time>2014-11-20T11:26:55Z</time>
      </trkpt>
      <trkpt lat="44.40851" lon="5.7552">
        <ele>676.4248047</ele>
        <time>2014-11-20T11:26:57Z</time>
      </trkpt>
      <trkpt lat="44.40785" lon="5.75418">
        <ele>673.5410156</ele>
        <time>2014-11-20T11:27:10Z</time>
      </trkpt>
      <trkpt lat="44.40723" lon="5.75355">
        <ele>674.5021973</ele>
        <time>2014-11-20T11:27:24Z</time>
      </trkpt>
      <trkpt lat="44.40679" lon="5.75307">
        <ele>675.9440918</ele>
        <time>2014-11-20T11:27:36Z</time>
      </trkpt>
      <trkpt lat="44.40634" lon="5.75214">
        <ele>675.9440918</ele>
        <time>2014-11-20T11:27:52Z</time>
      </trkpt>
      <trkpt lat="44.40585" lon="5.75084">
        <ele>675.9440918</ele>
        <time>2014-11-20T11:28:13Z</time>
      </trkpt>
      <trkpt lat="44.40564" lon="5.7503">
        <ele>675.4633789</ele>
        <time>2014-11-20T11:28:22Z</time>
      </trkpt>
      <trkpt lat="44.40546" lon="5.74928">
        <ele>677.8666992</ele>
        <time>2014-11-20T11:28:39Z</time>
      </trkpt>
      <trkpt lat="44.40542" lon="5.74881">
        <ele>678.828125</ele>
        <time>2014-11-20T11:28:47Z</time>
      </trkpt>
      <trkpt lat="44.40531" lon="5.74736">
        <ele>677.8666992</ele>
        <time>2014-11-20T11:29:08Z</time>
      </trkpt>
      <trkpt lat="44.40528" lon="5.74624">
        <ele>677.3862305</ele>
        <time>2014-11-20T11:29:22Z</time>
      </trkpt>
      <trkpt lat="44.40526" lon="5.74542">
        <ele>680.2700195</ele>
        <time>2014-11-20T11:29:37Z</time>
      </trkpt>
      <trkpt lat="44.40521" lon="5.74478">
        <ele>682.192627</ele>
        <time>2014-11-20T11:29:49Z</time>
      </trkpt>
      <trkpt lat="44.40521" lon="5.74451">
        <ele>682.6733398</ele>
        <time>2014-11-20T11:29:54Z</time>
      </trkpt>
      <trkpt lat="44.40538" lon="5.74397">
        <ele>683.6345215</ele>
        <time>2014-11-20T11:30:07Z</time>
      </trkpt>
      <trkpt lat="44.40545" lon="5.74358">
        <ele>682.6733398</ele>
        <time>2014-11-20T11:30:14Z</time>
      </trkpt>
      <trkpt lat="44.40555" lon="5.74318">
        <ele>681.7119141</ele>
        <time>2014-11-20T11:30:20Z</time>
      </trkpt>
      <trkpt lat="44.4056" lon="5.74296">
        <ele>679.7893066</ele>
        <time>2014-11-20T11:30:23Z</time>
      </trkpt>
      <trkpt lat="44.40562" lon="5.7428">
        <ele>679.7893066</ele>
        <time>2014-11-20T11:30:25Z</time>
      </trkpt>
      <trkpt lat="44.40548" lon="5.74115">
        <ele>676.9055176</ele>
        <time>2014-11-20T11:30:42Z</time>
      </trkpt>
      <trkpt lat="44.40535" lon="5.73962">
        <ele>674.9829102</ele>
        <time>2014-11-20T11:30:58Z</time>
      </trkpt>
      <trkpt lat="44.40534" lon="5.73829">
        <ele>674.0214844</ele>
        <time>2014-11-20T11:31:14Z</time>
      </trkpt>
      <trkpt lat="44.40543" lon="5.73694">
        <ele>673.0603027</ele>
        <time>2014-11-20T11:31:32Z</time>
      </trkpt>
      <trkpt lat="44.40552" lon="5.73646">
        <ele>672.5795898</ele>
        <time>2014-11-20T11:31:39Z</time>
      </trkpt>
      <trkpt lat="44.4056" lon="5.73611">
        <ele>672.098877</ele>
        <time>2014-11-20T11:31:44Z</time>
      </trkpt>
      <trkpt lat="44.40571" lon="5.7355">
        <ele>671.6181641</ele>
        <time>2014-11-20T11:31:52Z</time>
      </trkpt>
      <trkpt lat="44.40554" lon="5.73447">
        <ele>669.2150879</ele>
        <time>2014-11-20T11:32:04Z</time>
      </trkpt>
      <trkpt lat="44.40503" lon="5.73253">
        <ele>666.8115234</ele>
        <time>2014-11-20T11:32:26Z</time>
      </trkpt>
      <trkpt lat="44.40486" lon="5.73189">
        <ele>664.888916</ele>
        <time>2014-11-20T11:32:34Z</time>
      </trkpt>
      <trkpt lat="44.40464" lon="5.73103">
        <ele>664.4082031</ele>
        <time>2014-11-20T11:32:48Z</time>
      </trkpt>
      <trkpt lat="44.40458" lon="5.73084">
        <ele>664.4082031</ele>
        <time>2014-11-20T11:33:00Z</time>
      </trkpt>
      <trkpt lat="44.40453" lon="5.73077">
        <ele>664.888916</ele>
        <time>2014-11-20T11:33:30Z</time>
      </trkpt>
      <trkpt lat="44.40438" lon="5.73088">
        <ele>665.3696289</ele>
        <time>2014-11-20T11:33:36Z</time>
      </trkpt>
      <trkpt lat="44.40431" lon="5.73092">
        <ele>665.3696289</ele>
        <time>2014-11-20T11:33:38Z</time>
      </trkpt>
      <trkpt lat="44.40416" lon="5.73106">
        <ele>663.9274902</ele>
        <time>2014-11-20T11:33:42Z</time>
      </trkpt>
      <trkpt lat="44.40392" lon="5.73124">
        <ele>663.4470215</ele>
        <time>2014-11-20T11:33:48Z</time>
      </trkpt>
      <trkpt lat="44.40334" lon="5.73165">
        <ele>663.9274902</ele>
        <time>2014-11-20T11:34:01Z</time>
      </trkpt>
      <trkpt lat="44.40263" lon="5.73216">
        <ele>662.4855957</ele>
        <time>2014-11-20T11:34:15Z</time>
      </trkpt>
      <trkpt lat="44.40201" lon="5.73264">
        <ele>661.5244141</ele>
        <time>2014-11-20T11:34:28Z</time>
      </trkpt>
      <trkpt lat="44.40111" lon="5.7333">
        <ele>660.5629883</ele>
        <time>2014-11-20T11:34:46Z</time>
      </trkpt>
      <trkpt lat="44.4004" lon="5.7338">
        <ele>661.0437012</ele>
        <time>2014-11-20T11:35:00Z</time>
      </trkpt>
      <trkpt lat="44.40026" lon="5.73391">
        <ele>659.6018066</ele>
        <time>2014-11-20T11:35:03Z</time>
      </trkpt>
      <trkpt lat="44.40007" lon="5.73405">
        <ele>658.6403809</ele>
        <time>2014-11-20T11:35:07Z</time>
      </trkpt>
      <trkpt lat="44.39983" lon="5.73426">
        <ele>658.6403809</ele>
        <time>2014-11-20T11:35:12Z</time>
      </trkpt>
      <trkpt lat="44.39899" lon="5.73485">
        <ele>657.6791992</ele>
        <time>2014-11-20T11:35:29Z</time>
      </trkpt>
      <trkpt lat="44.39845" lon="5.73525">
        <ele>658.1599121</ele>
        <time>2014-11-20T11:35:40Z</time>
      </trkpt>
      <trkpt lat="44.39811" lon="5.73551">
        <ele>657.6791992</ele>
        <time>2014-11-20T11:35:47Z</time>
      </trkpt>
      <trkpt lat="44.39713" lon="5.73618">
        <ele>655.7565918</ele>
        <time>2014-11-20T11:36:08Z</time>
      </trkpt>
      <trkpt lat="44.39678" lon="5.73636">
        <ele>655.2758789</ele>
        <time>2014-11-20T11:36:16Z</time>
      </trkpt>
      <trkpt lat="44.39652" lon="5.73615">
        <ele>653.8339844</ele>
        <time>2014-11-20T11:36:23Z</time>
      </trkpt>
      <trkpt lat="44.39652" lon="5.73556">
        <ele>650.949707</ele>
        <time>2014-11-20T11:36:29Z</time>
      </trkpt>
      <trkpt lat="44.39671" lon="5.7348">
        <ele>648.065918</ele>
        <time>2014-11-20T11:36:36Z</time>
      </trkpt>
      <trkpt lat="44.39675" lon="5.7338">
        <ele>649.0270996</ele>
        <time>2014-11-20T11:36:46Z</time>
      </trkpt>
      <trkpt lat="44.39674" lon="5.7332">
        <ele>649.0270996</ele>
        <time>2014-11-20T11:36:53Z</time>
      </trkpt>
      <trkpt lat="44.39676" lon="5.73304">
        <ele>649.0270996</ele>
        <time>2014-11-20T11:36:55Z</time>
      </trkpt>
      <trkpt lat="44.39685" lon="5.73274">
        <ele>649.0270996</ele>
        <time>2014-11-20T11:36:59Z</time>
      </trkpt>
      <trkpt lat="44.39693" lon="5.73261">
        <ele>649.5078125</ele>
        <time>2014-11-20T11:37:01Z</time>
      </trkpt>
      <trkpt lat="44.3974" lon="5.73194">
        <ele>649.0270996</ele>
        <time>2014-11-20T11:37:13Z</time>
      </trkpt>
      <trkpt lat="44.39748" lon="5.73164">
        <ele>649.0270996</ele>
        <time>2014-11-20T11:37:18Z</time>
      </trkpt>
      <trkpt lat="44.39707" lon="5.7305">
        <ele>649.0270996</ele>
        <time>2014-11-20T11:37:37Z</time>
      </trkpt>
      <trkpt lat="44.39672" lon="5.72951">
        <ele>645.6625977</ele>
        <time>2014-11-20T11:37:49Z</time>
      </trkpt>
      <trkpt lat="44.39669" lon="5.72943">
        <ele>645.6625977</ele>
        <time>2014-11-20T11:37:50Z</time>
      </trkpt>
      <trkpt lat="44.39651" lon="5.72898">
        <ele>645.6625977</ele>
        <time>2014-11-20T11:37:56Z</time>
      </trkpt>
      <trkpt lat="44.39617" lon="5.72895">
        <ele>645.6625977</ele>
        <time>2014-11-20T11:38:03Z</time>
      </trkpt>
      <trkpt lat="44.39536" lon="5.72965">
        <ele>642.7788086</ele>
        <time>2014-11-20T11:38:17Z</time>
      </trkpt>
      <trkpt lat="44.39476" lon="5.7299">
        <ele>639.8947754</ele>
        <time>2014-11-20T11:38:25Z</time>
      </trkpt>
      <trkpt lat="44.39461" lon="5.72998">
        <ele>638.9335938</ele>
        <time>2014-11-20T11:38:27Z</time>
      </trkpt>
      <trkpt lat="44.3937" lon="5.7305">
        <ele>635.5686035</ele>
        <time>2014-11-20T11:38:39Z</time>
      </trkpt>
      <trkpt lat="44.39263" lon="5.73091">
        <ele>636.0495605</ele>
        <time>2014-11-20T11:38:54Z</time>
      </trkpt>
      <trkpt lat="44.39231" lon="5.73093">
        <ele>636.0495605</ele>
        <time>2014-11-20T11:38:59Z</time>
      </trkpt>
      <trkpt lat="44.39161" lon="5.73053">
        <ele>634.6074219</ele>
        <time>2014-11-20T11:39:11Z</time>
      </trkpt>
      <trkpt lat="44.39101" lon="5.73003">
        <ele>635.0881348</ele>
        <time>2014-11-20T11:39:23Z</time>
      </trkpt>
      <trkpt lat="44.3909" lon="5.72998">
        <ele>636.0495605</ele>
        <time>2014-11-20T11:39:25Z</time>
      </trkpt>
      <trkpt lat="44.39046" lon="5.72995">
        <ele>634.6074219</ele>
        <time>2014-11-20T11:39:33Z</time>
      </trkpt>
      <trkpt lat="44.38967" lon="5.73049">
        <ele>632.2041016</ele>
        <time>2014-11-20T11:39:45Z</time>
      </trkpt>
      <trkpt lat="44.38889" lon="5.7312">
        <ele>630.2814941</ele>
        <time>2014-11-20T11:39:57Z</time>
      </trkpt>
      <trkpt lat="44.38798" lon="5.73176">
        <ele>629.3200684</ele>
        <time>2014-11-20T11:40:12Z</time>
      </trkpt>
      <trkpt lat="44.38734" lon="5.73224">
        <ele>628.3588867</ele>
        <time>2014-11-20T11:40:23Z</time>
      </trkpt>
      <trkpt lat="44.38629" lon="5.73305">
        <ele>627.3977051</ele>
        <time>2014-11-20T11:40:41Z</time>
      </trkpt>
      <trkpt lat="44.38604" lon="5.73321">
        <ele>627.3977051</ele>
        <time>2014-11-20T11:40:46Z</time>
      </trkpt>
      <trkpt lat="44.38555" lon="5.73352">
        <ele>630.2814941</ele>
        <time>2014-11-20T11:40:59Z</time>
      </trkpt>
      <trkpt lat="44.38514" lon="5.7335">
        <ele>633.1652832</ele>
        <time>2014-11-20T11:41:14Z</time>
      </trkpt>
      <trkpt lat="44.38501" lon="5.7335">
        <ele>634.126709</ele>
        <time>2014-11-20T11:41:19Z</time>
      </trkpt>
      <trkpt lat="44.38467" lon="5.73363">
        <ele>636.5302734</ele>
        <time>2014-11-20T11:41:34Z</time>
      </trkpt>
      <trkpt lat="44.38444" lon="5.73398">
        <ele>638.4528809</ele>
        <time>2014-11-20T11:41:48Z</time>
      </trkpt>
      <trkpt lat="44.38428" lon="5.73423">
        <ele>639.4140625</ele>
        <time>2014-11-20T11:41:57Z</time>
      </trkpt>
      <trkpt lat="44.38403" lon="5.73425">
        <ele>638.9335938</ele>
        <time>2014-11-20T11:42:05Z</time>
      </trkpt>
      <trkpt lat="44.3837" lon="5.73417">
        <ele>638.4528809</ele>
        <time>2014-11-20T11:42:13Z</time>
      </trkpt>
      <trkpt lat="44.38309" lon="5.73408">
        <ele>637.0107422</ele>
        <time>2014-11-20T11:42:24Z</time>
      </trkpt>
      <trkpt lat="44.38228" lon="5.73397">
        <ele>633.6459961</ele>
        <time>2014-11-20T11:42:36Z</time>
      </trkpt>
      <trkpt lat="44.38135" lon="5.73379">
        <ele>634.126709</ele>
        <time>2014-11-20T11:42:51Z</time>
      </trkpt>
      <trkpt lat="44.38071" lon="5.73372">
        <ele>635.0881348</ele>
        <time>2014-11-20T11:43:05Z</time>
      </trkpt>
      <trkpt lat="44.38" lon="5.73355">
        <ele>636.0495605</ele>
        <time>2014-11-20T11:43:22Z</time>
      </trkpt>
      <trkpt lat="44.37962" lon="5.73344">
        <ele>635.5686035</ele>
        <time>2014-11-20T11:43:33Z</time>
      </trkpt>
      <trkpt lat="44.37961" lon="5.73344">
        <ele>635.0881348</ele>
        <time>2014-11-20T11:43:47Z</time>
      </trkpt>
      <trkpt lat="44.37935" lon="5.73377">
        <ele>633.6459961</ele>
        <time>2014-11-20T11:43:59Z</time>
      </trkpt>
      <trkpt lat="44.37888" lon="5.73431">
        <ele>632.2041016</ele>
        <time>2014-11-20T11:44:10Z</time>
      </trkpt>
      <trkpt lat="44.37831" lon="5.73497">
        <ele>632.2041016</ele>
        <time>2014-11-20T11:44:24Z</time>
      </trkpt>
      <trkpt lat="44.37774" lon="5.73562">
        <ele>631.7233887</ele>
        <time>2014-11-20T11:44:38Z</time>
      </trkpt>
      <trkpt lat="44.37743" lon="5.73596">
        <ele>631.2429199</ele>
        <time>2014-11-20T11:44:45Z</time>
      </trkpt>
      <trkpt lat="44.37673" lon="5.73638">
        <ele>631.7233887</ele>
        <time>2014-11-20T11:44:59Z</time>
      </trkpt>
      <trkpt lat="44.37595" lon="5.73683">
        <ele>630.2814941</ele>
        <time>2014-11-20T11:45:14Z</time>
      </trkpt>
      <trkpt lat="44.37573" lon="5.73692">
        <ele>630.2814941</ele>
        <time>2014-11-20T11:45:18Z</time>
      </trkpt>
      <trkpt lat="44.37549" lon="5.73721">
        <ele>630.2814941</ele>
        <time>2014-11-20T11:45:24Z</time>
      </trkpt>
      <trkpt lat="44.37541" lon="5.73739">
        <ele>630.2814941</ele>
        <time>2014-11-20T11:45:27Z</time>
      </trkpt>
      <trkpt lat="44.3752" lon="5.73753">
        <ele>629.3200684</ele>
        <time>2014-11-20T11:45:31Z</time>
      </trkpt>
      <trkpt lat="44.37507" lon="5.73755">
        <ele>628.8395996</ele>
        <time>2014-11-20T11:45:33Z</time>
      </trkpt>
      <trkpt lat="44.37477" lon="5.73786">
        <ele>629.3200684</ele>
        <time>2014-11-20T11:45:40Z</time>
      </trkpt>
      <trkpt lat="44.37417" lon="5.73815">
        <ele>628.8395996</ele>
        <time>2014-11-20T11:45:52Z</time>
      </trkpt>
      <trkpt lat="44.37356" lon="5.73853">
        <ele>629.3200684</ele>
        <time>2014-11-20T11:46:04Z</time>
      </trkpt>
      <trkpt lat="44.3734" lon="5.73859">
        <ele>628.8395996</ele>
        <time>2014-11-20T11:46:07Z</time>
      </trkpt>
      <trkpt lat="44.37256" lon="5.73886">
        <ele>626.4362793</ele>
        <time>2014-11-20T11:46:21Z</time>
      </trkpt>
      <trkpt lat="44.37198" lon="5.739">
        <ele>624.032959</ele>
        <time>2014-11-20T11:46:30Z</time>
      </trkpt>
      <trkpt lat="44.37171" lon="5.73927">
        <ele>623.5524902</ele>
        <time>2014-11-20T11:46:35Z</time>
      </trkpt>
      <trkpt lat="44.37145" lon="5.73975">
        <ele>623.5524902</ele>
        <time>2014-11-20T11:46:42Z</time>
      </trkpt>
      <trkpt lat="44.37105" lon="5.74057">
        <ele>624.5136719</ele>
        <time>2014-11-20T11:46:56Z</time>
      </trkpt>
      <trkpt lat="44.37096" lon="5.74072">
        <ele>624.9943848</ele>
        <time>2014-11-20T11:46:59Z</time>
      </trkpt>
      <trkpt lat="44.37087" lon="5.74092">
        <ele>624.9943848</ele>
        <time>2014-11-20T11:47:03Z</time>
      </trkpt>
      <trkpt lat="44.37075" lon="5.74112">
        <ele>625.4748535</ele>
        <time>2014-11-20T11:47:07Z</time>
      </trkpt>
      <trkpt lat="44.37021" lon="5.74207">
        <ele>624.5136719</ele>
        <time>2014-11-20T11:47:24Z</time>
      </trkpt>
      <trkpt lat="44.37009" lon="5.74223">
        <ele>624.5136719</ele>
        <time>2014-11-20T11:47:27Z</time>
      </trkpt>
      <trkpt lat="44.36995" lon="5.74237">
        <ele>624.032959</ele>
        <time>2014-11-20T11:47:30Z</time>
      </trkpt>
      <trkpt lat="44.36944" lon="5.74262">
        <ele>623.0717773</ele>
        <time>2014-11-20T11:47:39Z</time>
      </trkpt>
      <trkpt lat="44.3687" lon="5.7429">
        <ele>623.0717773</ele>
        <time>2014-11-20T11:47:52Z</time>
      </trkpt>
      <trkpt lat="44.3684" lon="5.74295">
        <ele>623.5524902</ele>
        <time>2014-11-20T11:47:58Z</time>
      </trkpt>
      <trkpt lat="44.36826" lon="5.74301">
        <ele>623.5524902</ele>
        <time>2014-11-20T11:48:01Z</time>
      </trkpt>
      <trkpt lat="44.36809" lon="5.74316">
        <ele>623.5524902</ele>
        <time>2014-11-20T11:48:05Z</time>
      </trkpt>
      <trkpt lat="44.36797" lon="5.74332">
        <ele>623.5524902</ele>
        <time>2014-11-20T11:48:08Z</time>
      </trkpt>
      <trkpt lat="44.36758" lon="5.744">
        <ele>622.5910645</ele>
        <time>2014-11-20T11:48:19Z</time>
      </trkpt>
      <trkpt lat="44.36686" lon="5.74443">
        <ele>622.1103516</ele>
        <time>2014-11-20T11:48:33Z</time>
      </trkpt>
      <trkpt lat="44.36676" lon="5.74448">
        <ele>622.1103516</ele>
        <time>2014-11-20T11:48:35Z</time>
      </trkpt>
      <trkpt lat="44.36612" lon="5.74507">
        <ele>621.6296387</ele>
        <time>2014-11-20T11:48:49Z</time>
      </trkpt>
      <trkpt lat="44.3659" lon="5.7453">
        <ele>621.6296387</ele>
        <time>2014-11-20T11:48:54Z</time>
      </trkpt>
      <trkpt lat="44.36535" lon="5.74589">
        <ele>621.1491699</ele>
        <time>2014-11-20T11:49:07Z</time>
      </trkpt>
      <trkpt lat="44.36465" lon="5.74646">
        <ele>620.1877441</ele>
        <time>2014-11-20T11:49:21Z</time>
      </trkpt>
      <trkpt lat="44.36377" lon="5.74707">
        <ele>619.2263184</ele>
        <time>2014-11-20T11:49:38Z</time>
      </trkpt>
      <trkpt lat="44.36309" lon="5.74766">
        <ele>619.2263184</ele>
        <time>2014-11-20T11:49:52Z</time>
      </trkpt>
      <trkpt lat="44.36253" lon="5.74829">
        <ele>618.2648926</ele>
        <time>2014-11-20T11:50:04Z</time>
      </trkpt>
      <trkpt lat="44.36218" lon="5.74861">
        <ele>617.3037109</ele>
        <time>2014-11-20T11:50:11Z</time>
      </trkpt>
      <trkpt lat="44.36203" lon="5.74878">
        <ele>617.7841797</ele>
        <time>2014-11-20T11:50:14Z</time>
      </trkpt>
      <trkpt lat="44.36132" lon="5.7494">
        <ele>617.7841797</ele>
        <time>2014-11-20T11:50:28Z</time>
      </trkpt>
      <trkpt lat="44.36031" lon="5.75014">
        <ele>616.822998</ele>
        <time>2014-11-20T11:50:48Z</time>
      </trkpt>
      <trkpt lat="44.35939" lon="5.75081">
        <ele>615.8618164</ele>
        <time>2014-11-20T11:51:05Z</time>
      </trkpt>
      <trkpt lat="44.35866" lon="5.75145">
        <ele>615.3811035</ele>
        <time>2014-11-20T11:51:19Z</time>
      </trkpt>
      <trkpt lat="44.35797" lon="5.75181">
        <ele>615.3811035</ele>
        <time>2014-11-20T11:51:31Z</time>
      </trkpt>
      <trkpt lat="44.35768" lon="5.75187">
        <ele>614.9003906</ele>
        <time>2014-11-20T11:51:36Z</time>
      </trkpt>
      <trkpt lat="44.35742" lon="5.75199">
        <ele>613.9389648</ele>
        <time>2014-11-20T11:51:40Z</time>
      </trkpt>
      <trkpt lat="44.35688" lon="5.75252">
        <ele>615.3811035</ele>
        <time>2014-11-20T11:51:52Z</time>
      </trkpt>
      <trkpt lat="44.35613" lon="5.75328">
        <ele>612.9777832</ele>
        <time>2014-11-20T11:52:07Z</time>
      </trkpt>
      <trkpt lat="44.35602" lon="5.75337">
        <ele>612.4970703</ele>
        <time>2014-11-20T11:52:09Z</time>
      </trkpt>
      <trkpt lat="44.3559" lon="5.75343">
        <ele>611.0551758</ele>
        <time>2014-11-20T11:52:11Z</time>
      </trkpt>
      <trkpt lat="44.35553" lon="5.75363">
        <ele>610.5744629</ele>
        <time>2014-11-20T11:52:17Z</time>
      </trkpt>
      <trkpt lat="44.35513" lon="5.75392">
        <ele>608.6518555</ele>
        <time>2014-11-20T11:52:23Z</time>
      </trkpt>
      <trkpt lat="44.35474" lon="5.75423">
        <ele>605.7680664</ele>
        <time>2014-11-20T11:52:28Z</time>
      </trkpt>
      <trkpt lat="44.35441" lon="5.75457">
        <ele>604.8066406</ele>
        <time>2014-11-20T11:52:33Z</time>
      </trkpt>
      <trkpt lat="44.35362" lon="5.75516">
        <ele>604.3261719</ele>
        <time>2014-11-20T11:52:45Z</time>
      </trkpt>
      <trkpt lat="44.35285" lon="5.75556">
        <ele>603.364502</ele>
        <time>2014-11-20T11:52:59Z</time>
      </trkpt>
      <trkpt lat="44.35215" lon="5.75604">
        <ele>602.4030762</ele>
        <time>2014-11-20T11:53:14Z</time>
      </trkpt>
      <trkpt lat="44.35193" lon="5.75621">
        <ele>602.4030762</ele>
        <time>2014-11-20T11:53:19Z</time>
      </trkpt>
      <trkpt lat="44.35118" lon="5.75695">
        <ele>602.4030762</ele>
        <time>2014-11-20T11:53:38Z</time>
      </trkpt>
      <trkpt lat="44.35038" lon="5.75773">
        <ele>601.4418945</ele>
        <time>2014-11-20T11:53:57Z</time>
      </trkpt>
      <trkpt lat="44.35003" lon="5.75797">
        <ele>601.4418945</ele>
        <time>2014-11-20T11:54:04Z</time>
      </trkpt>
      <trkpt lat="44.34912" lon="5.75873">
        <ele>600</ele>
        <time>2014-11-20T11:54:22Z</time>
      </trkpt>
      <trkpt lat="44.34827" lon="5.7594">
        <ele>600</ele>
        <time>2014-11-20T11:54:39Z</time>
      </trkpt>
      <trkpt lat="44.34769" lon="5.75979">
        <ele>599.5192871</ele>
        <time>2014-11-20T11:54:51Z</time>
      </trkpt>
      <trkpt lat="44.34755" lon="5.75988">
        <ele>600</ele>
        <time>2014-11-20T11:54:54Z</time>
      </trkpt>
      <trkpt lat="44.34702" lon="5.76042">
        <ele>600.4807129</ele>
        <time>2014-11-20T11:55:07Z</time>
      </trkpt>
      <trkpt lat="44.34685" lon="5.76049">
        <ele>601.4418945</ele>
        <time>2014-11-20T11:55:11Z</time>
      </trkpt>
      <trkpt lat="44.34632" lon="5.76077">
        <ele>603.8452148</ele>
        <time>2014-11-20T11:55:26Z</time>
      </trkpt>
      <trkpt lat="44.34591" lon="5.76101">
        <ele>606.2485352</ele>
        <time>2014-11-20T11:55:41Z</time>
      </trkpt>
      <trkpt lat="44.3454" lon="5.76139">
        <ele>608.1713867</ele>
        <time>2014-11-20T11:56:00Z</time>
      </trkpt>
      <trkpt lat="44.34497" lon="5.76174">
        <ele>608.6518555</ele>
        <time>2014-11-20T11:56:15Z</time>
      </trkpt>
      <trkpt lat="44.34477" lon="5.76192">
        <ele>607.6906738</ele>
        <time>2014-11-20T11:56:21Z</time>
      </trkpt>
      <trkpt lat="44.34451" lon="5.76202">
        <ele>605.7680664</ele>
        <time>2014-11-20T11:56:26Z</time>
      </trkpt>
      <trkpt lat="44.34425" lon="5.76209">
        <ele>605.7680664</ele>
        <time>2014-11-20T11:56:30Z</time>
      </trkpt>
      <trkpt lat="44.34404" lon="5.76207">
        <ele>604.3261719</ele>
        <time>2014-11-20T11:56:33Z</time>
      </trkpt>
      <trkpt lat="44.34391" lon="5.76202">
        <ele>602.8837891</ele>
        <time>2014-11-20T11:56:35Z</time>
      </trkpt>
      <trkpt lat="44.34342" lon="5.76179">
        <ele>600.9611816</ele>
        <time>2014-11-20T11:56:42Z</time>
      </trkpt>
      <trkpt lat="44.34309" lon="5.76162">
        <ele>600.4807129</ele>
        <time>2014-11-20T11:56:47Z</time>
      </trkpt>
      <trkpt lat="44.34292" lon="5.76152">
        <ele>600.4807129</ele>
        <time>2014-11-20T11:56:50Z</time>
      </trkpt>
      <trkpt lat="44.34237" lon="5.76147">
        <ele>602.8837891</ele>
        <time>2014-11-20T11:57:03Z</time>
      </trkpt>
      <trkpt lat="44.34227" lon="5.76153">
        <ele>602.8837891</ele>
        <time>2014-11-20T11:57:06Z</time>
      </trkpt>
      <trkpt lat="44.34199" lon="5.76177">
        <ele>602.4030762</ele>
        <time>2014-11-20T11:57:14Z</time>
      </trkpt>
      <trkpt lat="44.34186" lon="5.76194">
        <ele>602.4030762</ele>
        <time>2014-11-20T11:57:18Z</time>
      </trkpt>
      <trkpt lat="44.34169" lon="5.76245">
        <ele>599.0385742</ele>
        <time>2014-11-20T11:57:25Z</time>
      </trkpt>
      <trkpt lat="44.34167" lon="5.76255">
        <ele>599.0385742</ele>
        <time>2014-11-20T11:57:26Z</time>
      </trkpt>
      <trkpt lat="44.34161" lon="5.76273">
        <ele>597.5966797</ele>
        <time>2014-11-20T11:57:28Z</time>
      </trkpt>
      <trkpt lat="44.34145" lon="5.76332">
        <ele>598.5578613</ele>
        <time>2014-11-20T11:57:35Z</time>
      </trkpt>
      <trkpt lat="44.34129" lon="5.76351">
        <ele>598.5578613</ele>
        <time>2014-11-20T11:57:40Z</time>
      </trkpt>
      <trkpt lat="44.34123" lon="5.76356">
        <ele>598.5578613</ele>
        <time>2014-11-20T11:57:42Z</time>
      </trkpt>
      <trkpt lat="44.34131" lon="5.76383">
        <ele>598.0773926</ele>
        <time>2014-11-20T11:57:49Z</time>
      </trkpt>
      <trkpt lat="44.34163" lon="5.76439">
        <ele>596.1547852</ele>
        <time>2014-11-20T11:57:59Z</time>
      </trkpt>
      <trkpt lat="44.3423" lon="5.76577">
        <ele>594.2321777</ele>
        <time>2014-11-20T11:58:19Z</time>
      </trkpt>
      <trkpt lat="44.34237" lon="5.76589">
        <ele>594.7126465</ele>
        <time>2014-11-20T11:58:21Z</time>
      </trkpt>
      <trkpt lat="44.34288" lon="5.76697">
        <ele>593.270752</ele>
        <time>2014-11-20T11:58:39Z</time>
      </trkpt>
      <trkpt lat="44.34308" lon="5.76737">
        <ele>593.270752</ele>
        <time>2014-11-20T11:58:46Z</time>
      </trkpt>
      <trkpt lat="44.34332" lon="5.76783">
        <ele>592.7902832</ele>
        <time>2014-11-20T11:58:54Z</time>
      </trkpt>
      <trkpt lat="44.34344" lon="5.76805">
        <ele>592.7902832</ele>
        <time>2014-11-20T11:58:58Z</time>
      </trkpt>
      <trkpt lat="44.34381" lon="5.76883">
        <ele>591.8288574</ele>
        <time>2014-11-20T11:59:11Z</time>
      </trkpt>
      <trkpt lat="44.34411" lon="5.76937">
        <ele>591.8288574</ele>
        <time>2014-11-20T11:59:21Z</time>
      </trkpt>
      <trkpt lat="44.34432" lon="5.76969">
        <ele>591.8288574</ele>
        <time>2014-11-20T11:59:28Z</time>
      </trkpt>
      <trkpt lat="44.34457" lon="5.76991">
        <ele>591.8288574</ele>
        <time>2014-11-20T11:59:34Z</time>
      </trkpt>
      <trkpt lat="44.34498" lon="5.77031">
        <ele>591.3481445</ele>
        <time>2014-11-20T11:59:44Z</time>
      </trkpt>
      <trkpt lat="44.34536" lon="5.77075">
        <ele>592.7902832</ele>
        <time>2014-11-20T11:59:57Z</time>
      </trkpt>
      <trkpt lat="44.34567" lon="5.77113">
        <ele>595.1933594</ele>
        <time>2014-11-20T12:00:13Z</time>
      </trkpt>
      <trkpt lat="44.3457" lon="5.77123">
        <ele>595.1933594</ele>
        <time>2014-11-20T12:00:17Z</time>
      </trkpt>
      <trkpt lat="44.34553" lon="5.77154">
        <ele>595.1933594</ele>
        <time>2014-11-20T12:00:27Z</time>
      </trkpt>
      <trkpt lat="44.34547" lon="5.77167">
        <ele>595.1933594</ele>
        <time>2014-11-20T12:00:30Z</time>
      </trkpt>
      <trkpt lat="44.3453" lon="5.77213">
        <ele>595.1933594</ele>
        <time>2014-11-20T12:00:38Z</time>
      </trkpt>
      <trkpt lat="44.34523" lon="5.7723">
        <ele>595.1933594</ele>
        <time>2014-11-20T12:00:41Z</time>
      </trkpt>
      <trkpt lat="44.345" lon="5.7729">
        <ele>594.2321777</ele>
        <time>2014-11-20T12:00:51Z</time>
      </trkpt>
      <trkpt lat="44.34492" lon="5.77305">
        <ele>594.2321777</ele>
        <time>2014-11-20T12:00:54Z</time>
      </trkpt>
      <trkpt lat="44.34429" lon="5.77399">
        <ele>593.7514648</ele>
        <time>2014-11-20T12:01:13Z</time>
      </trkpt>
      <trkpt lat="44.34412" lon="5.77421">
        <ele>594.2321777</ele>
        <time>2014-11-20T12:01:18Z</time>
      </trkpt>
      <trkpt lat="44.34395" lon="5.77448">
        <ele>594.7126465</ele>
        <time>2014-11-20T12:01:24Z</time>
      </trkpt>
      <trkpt lat="44.34372" lon="5.77477">
        <ele>594.7126465</ele>
        <time>2014-11-20T12:01:31Z</time>
      </trkpt>
      <trkpt lat="44.34353" lon="5.77493">
        <ele>595.1933594</ele>
        <time>2014-11-20T12:01:36Z</time>
      </trkpt>
      <trkpt lat="44.34342" lon="5.77504">
        <ele>595.6740723</ele>
        <time>2014-11-20T12:01:39Z</time>
      </trkpt>
      <trkpt lat="44.34265" lon="5.77554">
        <ele>595.6740723</ele>
        <time>2014-11-20T12:01:56Z</time>
      </trkpt>
      <trkpt lat="44.34222" lon="5.77587">
        <ele>595.6740723</ele>
        <time>2014-11-20T12:02:06Z</time>
      </trkpt>
      <trkpt lat="44.34205" lon="5.776">
        <ele>595.6740723</ele>
        <time>2014-11-20T12:02:10Z</time>
      </trkpt>
      <trkpt lat="44.34145" lon="5.77679">
        <ele>596.1547852</ele>
        <time>2014-11-20T12:02:27Z</time>
      </trkpt>
      <trkpt lat="44.3409" lon="5.77758">
        <ele>597.5966797</ele>
        <time>2014-11-20T12:02:44Z</time>
      </trkpt>
      <trkpt lat="44.34066" lon="5.77798">
        <ele>597.1159668</ele>
        <time>2014-11-20T12:02:52Z</time>
      </trkpt>
      <trkpt lat="44.34057" lon="5.77804">
        <ele>597.5966797</ele>
        <time>2014-11-20T12:02:54Z</time>
      </trkpt>
      <trkpt lat="44.34046" lon="5.7782">
        <ele>597.5966797</ele>
        <time>2014-11-20T12:02:57Z</time>
      </trkpt>
      <trkpt lat="44.33999" lon="5.77872">
        <ele>597.1159668</ele>
        <time>2014-11-20T12:03:09Z</time>
      </trkpt>
      <trkpt lat="44.33912" lon="5.77916">
        <ele>596.635498</ele>
        <time>2014-11-20T12:03:25Z</time>
      </trkpt>
      <trkpt lat="44.33903" lon="5.7792">
        <ele>596.1547852</ele>
        <time>2014-11-20T12:03:27Z</time>
      </trkpt>
      <trkpt lat="44.33892" lon="5.77922">
        <ele>596.1547852</ele>
        <time>2014-11-20T12:03:29Z</time>
      </trkpt>
      <trkpt lat="44.33833" lon="5.77947">
        <ele>596.635498</ele>
        <time>2014-11-20T12:03:41Z</time>
      </trkpt>
      <trkpt lat="44.33819" lon="5.77959">
        <ele>596.1547852</ele>
        <time>2014-11-20T12:03:44Z</time>
      </trkpt>
      <trkpt lat="44.33795" lon="5.77966">
        <ele>596.1547852</ele>
        <time>2014-11-20T12:03:48Z</time>
      </trkpt>
      <trkpt lat="44.33776" lon="5.77983">
        <ele>596.1547852</ele>
        <time>2014-11-20T12:03:52Z</time>
      </trkpt>
      <trkpt lat="44.33716" lon="5.78069">
        <ele>595.1933594</ele>
        <time>2014-11-20T12:04:07Z</time>
      </trkpt>
      <trkpt lat="44.33698" lon="5.78101">
        <ele>595.6740723</ele>
        <time>2014-11-20T12:04:12Z</time>
      </trkpt>
      <trkpt lat="44.33611" lon="5.7823">
        <ele>593.7514648</ele>
        <time>2014-11-20T12:04:33Z</time>
      </trkpt>
      <trkpt lat="44.3355" lon="5.78326">
        <ele>590.8674316</ele>
        <time>2014-11-20T12:04:47Z</time>
      </trkpt>
      <trkpt lat="44.33462" lon="5.7846">
        <ele>588.4643555</ele>
        <time>2014-11-20T12:05:05Z</time>
      </trkpt>
      <trkpt lat="44.33408" lon="5.78542">
        <ele>587.5026855</ele>
        <time>2014-11-20T12:05:18Z</time>
      </trkpt>
      <trkpt lat="44.33371" lon="5.78593">
        <ele>587.9833984</ele>
        <time>2014-11-20T12:05:27Z</time>
      </trkpt>
      <trkpt lat="44.33346" lon="5.78627">
        <ele>588.9450684</ele>
        <time>2014-11-20T12:05:34Z</time>
      </trkpt>
      <trkpt lat="44.33319" lon="5.78669">
        <ele>589.4255371</ele>
        <time>2014-11-20T12:05:43Z</time>
      </trkpt>
      <trkpt lat="44.33309" lon="5.78684">
        <ele>589.4255371</ele>
        <time>2014-11-20T12:05:46Z</time>
      </trkpt>
      <trkpt lat="44.33275" lon="5.78734">
        <ele>592.3095703</ele>
        <time>2014-11-20T12:05:58Z</time>
      </trkpt>
      <trkpt lat="44.33256" lon="5.78788">
        <ele>591.8288574</ele>
        <time>2014-11-20T12:06:09Z</time>
      </trkpt>
      <trkpt lat="44.33238" lon="5.78819">
        <ele>591.8288574</ele>
        <time>2014-11-20T12:06:15Z</time>
      </trkpt>
      <trkpt lat="44.33215" lon="5.78836">
        <ele>590.3869629</ele>
        <time>2014-11-20T12:06:20Z</time>
      </trkpt>
      <trkpt lat="44.33158" lon="5.78859">
        <ele>590.3869629</ele>
        <time>2014-11-20T12:06:31Z</time>
      </trkpt>
      <trkpt lat="44.33115" lon="5.78892">
        <ele>589.4255371</ele>
        <time>2014-11-20T12:06:40Z</time>
      </trkpt>
      <trkpt lat="44.33101" lon="5.78899">
        <ele>589.4255371</ele>
        <time>2014-11-20T12:06:43Z</time>
      </trkpt>
      <trkpt lat="44.33078" lon="5.78918">
        <ele>589.4255371</ele>
        <time>2014-11-20T12:06:49Z</time>
      </trkpt>
      <trkpt lat="44.33038" lon="5.78951">
        <ele>590.8674316</ele>
        <time>2014-11-20T12:07:00Z</time>
      </trkpt>
      <trkpt lat="44.32983" lon="5.7899">
        <ele>591.3481445</ele>
        <time>2014-11-20T12:07:14Z</time>
      </trkpt>
      <trkpt lat="44.32965" lon="5.79005">
        <ele>590.8674316</ele>
        <time>2014-11-20T12:07:18Z</time>
      </trkpt>
      <trkpt lat="44.32903" lon="5.79054">
        <ele>590.8674316</ele>
        <time>2014-11-20T12:07:32Z</time>
      </trkpt>
      <trkpt lat="44.32853" lon="5.79089">
        <ele>591.8288574</ele>
        <time>2014-11-20T12:07:44Z</time>
      </trkpt>
      <trkpt lat="44.32807" lon="5.79122">
        <ele>593.7514648</ele>
        <time>2014-11-20T12:07:57Z</time>
      </trkpt>
      <trkpt lat="44.32763" lon="5.79159">
        <ele>595.1933594</ele>
        <time>2014-11-20T12:08:10Z</time>
      </trkpt>
      <trkpt lat="44.32736" lon="5.79175">
        <ele>594.7126465</ele>
        <time>2014-11-20T12:08:17Z</time>
      </trkpt>
      <trkpt lat="44.32701" lon="5.79199">
        <ele>594.7126465</ele>
        <time>2014-11-20T12:08:25Z</time>
      </trkpt>
      <trkpt lat="44.3266" lon="5.7923">
        <ele>593.7514648</ele>
        <time>2014-11-20T12:08:35Z</time>
      </trkpt>
      <trkpt lat="44.32622" lon="5.79258">
        <ele>593.270752</ele>
        <time>2014-11-20T12:08:43Z</time>
      </trkpt>
      <trkpt lat="44.32608" lon="5.79271">
        <ele>592.7902832</ele>
        <time>2014-11-20T12:08:46Z</time>
      </trkpt>
      <trkpt lat="44.32583" lon="5.79292">
        <ele>592.7902832</ele>
        <time>2014-11-20T12:08:51Z</time>
      </trkpt>
      <trkpt lat="44.32573" lon="5.79302">
        <ele>591.3481445</ele>
        <time>2014-11-20T12:08:53Z</time>
      </trkpt>
      <trkpt lat="44.32557" lon="5.79317">
        <ele>590.8674316</ele>
        <time>2014-11-20T12:08:56Z</time>
      </trkpt>
      <trkpt lat="44.32543" lon="5.79338">
        <ele>589.90625</ele>
        <time>2014-11-20T12:08:59Z</time>
      </trkpt>
      <trkpt lat="44.32519" lon="5.7939">
        <ele>587.5026855</ele>
        <time>2014-11-20T12:09:05Z</time>
      </trkpt>
      <trkpt lat="44.3248" lon="5.79491">
        <ele>584.6188965</ele>
        <time>2014-11-20T12:09:15Z</time>
      </trkpt>
      <trkpt lat="44.32429" lon="5.79621">
        <ele>583.6574707</ele>
        <time>2014-11-20T12:09:29Z</time>
      </trkpt>
      <trkpt lat="44.32423" lon="5.79637">
        <ele>583.6574707</ele>
        <time>2014-11-20T12:09:31Z</time>
      </trkpt>
      <trkpt lat="44.32368" lon="5.79781">
        <ele>581.7348633</ele>
        <time>2014-11-20T12:09:49Z</time>
      </trkpt>
      <trkpt lat="44.32304" lon="5.79933">
        <ele>578.8510742</ele>
        <time>2014-11-20T12:10:08Z</time>
      </trkpt>
      <trkpt lat="44.32279" lon="5.79999">
        <ele>575.967041</ele>
        <time>2014-11-20T12:10:15Z</time>
      </trkpt>
      <trkpt lat="44.32226" lon="5.80127">
        <ele>575.0058594</ele>
        <time>2014-11-20T12:10:29Z</time>
      </trkpt>
      <trkpt lat="44.32184" lon="5.8023">
        <ele>575.0058594</ele>
        <time>2014-11-20T12:10:43Z</time>
      </trkpt>
      <trkpt lat="44.32175" lon="5.80251">
        <ele>575.4863281</ele>
        <time>2014-11-20T12:10:46Z</time>
      </trkpt>
      <trkpt lat="44.32171" lon="5.80265">
        <ele>575.0058594</ele>
        <time>2014-11-20T12:10:48Z</time>
      </trkpt>
      <trkpt lat="44.32122" lon="5.80389">
        <ele>573.5639648</ele>
        <time>2014-11-20T12:11:05Z</time>
      </trkpt>
      <trkpt lat="44.32074" lon="5.805">
        <ele>572.6025391</ele>
        <time>2014-11-20T12:11:20Z</time>
      </trkpt>
      <trkpt lat="44.32033" lon="5.80597">
        <ele>573.5639648</ele>
        <time>2014-11-20T12:11:35Z</time>
      </trkpt>
      <trkpt lat="44.3203" lon="5.80603">
        <ele>573.5639648</ele>
        <time>2014-11-20T12:11:36Z</time>
      </trkpt>
      <trkpt lat="44.32012" lon="5.80649">
        <ele>573.083252</ele>
        <time>2014-11-20T12:11:43Z</time>
      </trkpt>
      <trkpt lat="44.31968" lon="5.80753">
        <ele>573.083252</ele>
        <time>2014-11-20T12:11:59Z</time>
      </trkpt>
      <trkpt lat="44.31916" lon="5.80886">
        <ele>570.6796875</ele>
        <time>2014-11-20T12:12:17Z</time>
      </trkpt>
      <trkpt lat="44.31894" lon="5.8094">
        <ele>570.1989746</ele>
        <time>2014-11-20T12:12:24Z</time>
      </trkpt>
      <trkpt lat="44.31851" lon="5.81046">
        <ele>570.6796875</ele>
        <time>2014-11-20T12:12:39Z</time>
      </trkpt>
      <trkpt lat="44.31833" lon="5.81085">
        <ele>570.6796875</ele>
        <time>2014-11-20T12:12:46Z</time>
      </trkpt>
      <trkpt lat="44.31813" lon="5.81139">
        <ele>572.6025391</ele>
        <time>2014-11-20T12:12:56Z</time>
      </trkpt>
      <trkpt lat="44.31795" lon="5.81204">
        <ele>574.0444336</ele>
        <time>2014-11-20T12:13:09Z</time>
      </trkpt>
      <trkpt lat="44.31769" lon="5.81306">
        <ele>576.4477539</ele>
        <time>2014-11-20T12:13:31Z</time>
      </trkpt>
      <trkpt lat="44.31738" lon="5.8135">
        <ele>576.9284668</ele>
        <time>2014-11-20T12:13:44Z</time>
      </trkpt>
      <trkpt lat="44.31698" lon="5.81388">
        <ele>577.4091797</ele>
        <time>2014-11-20T12:13:56Z</time>
      </trkpt>
      <trkpt lat="44.31678" lon="5.81421">
        <ele>576.9284668</ele>
        <time>2014-11-20T12:14:05Z</time>
      </trkpt>
      <trkpt lat="44.31666" lon="5.81477">
        <ele>575.4863281</ele>
        <time>2014-11-20T12:14:14Z</time>
      </trkpt>
      <trkpt lat="44.3165" lon="5.81548">
        <ele>575.0058594</ele>
        <time>2014-11-20T12:14:24Z</time>
      </trkpt>
      <trkpt lat="44.31615" lon="5.81644">
        <ele>573.5639648</ele>
        <time>2014-11-20T12:14:40Z</time>
      </trkpt>
      <trkpt lat="44.31578" lon="5.81739">
        <ele>570.6796875</ele>
        <time>2014-11-20T12:14:53Z</time>
      </trkpt>
      <trkpt lat="44.31554" lon="5.818">
        <ele>569.7185059</ele>
        <time>2014-11-20T12:15:00Z</time>
      </trkpt>
      <trkpt lat="44.31521" lon="5.81873">
        <ele>568.2763672</ele>
        <time>2014-11-20T12:15:11Z</time>
      </trkpt>
      <trkpt lat="44.31519" lon="5.81881">
        <ele>568.2763672</ele>
        <time>2014-11-20T12:15:12Z</time>
      </trkpt>
      <trkpt lat="44.31514" lon="5.81899">
        <ele>567.7956543</ele>
        <time>2014-11-20T12:15:15Z</time>
      </trkpt>
      <trkpt lat="44.31506" lon="5.81907">
        <ele>568.2763672</ele>
        <time>2014-11-20T12:15:17Z</time>
      </trkpt>
      <trkpt lat="44.31491" lon="5.81947">
        <ele>568.2763672</ele>
        <time>2014-11-20T12:15:23Z</time>
      </trkpt>
      <trkpt lat="44.31478" lon="5.81994">
        <ele>568.2763672</ele>
        <time>2014-11-20T12:15:31Z</time>
      </trkpt>
      <trkpt lat="44.31444" lon="5.82075">
        <ele>567.7956543</ele>
        <time>2014-11-20T12:15:45Z</time>
      </trkpt>
      <trkpt lat="44.31441" lon="5.82081">
        <ele>567.3151855</ele>
        <time>2014-11-20T12:15:46Z</time>
      </trkpt>
      <trkpt lat="44.31436" lon="5.82101">
        <ele>566.8344727</ele>
        <time>2014-11-20T12:15:49Z</time>
      </trkpt>
      <trkpt lat="44.3142" lon="5.82166">
        <ele>567.3151855</ele>
        <time>2014-11-20T12:16:00Z</time>
      </trkpt>
      <trkpt lat="44.31401" lon="5.82191">
        <ele>566.8344727</ele>
        <time>2014-11-20T12:16:05Z</time>
      </trkpt>
      <trkpt lat="44.31411" lon="5.82236">
        <ele>567.7956543</ele>
        <time>2014-11-20T12:16:13Z</time>
      </trkpt>
      <trkpt lat="44.31419" lon="5.82265">
        <ele>567.7956543</ele>
        <time>2014-11-20T12:16:18Z</time>
      </trkpt>
      <trkpt lat="44.31426" lon="5.82295">
        <ele>567.7956543</ele>
        <time>2014-11-20T12:16:25Z</time>
      </trkpt>
      <trkpt lat="44.31443" lon="5.82334">
        <ele>567.7956543</ele>
        <time>2014-11-20T12:16:35Z</time>
      </trkpt>
      <trkpt lat="44.31445" lon="5.82337">
        <ele>567.3151855</ele>
        <time>2014-11-20T12:16:36Z</time>
      </trkpt>
      <trkpt lat="44.31479" lon="5.82391">
        <ele>565.3925781</ele>
        <time>2014-11-20T12:16:48Z</time>
      </trkpt>
      <trkpt lat="44.31549" lon="5.82465">
        <ele>562.9892578</ele>
        <time>2014-11-20T12:17:02Z</time>
      </trkpt>
      <trkpt lat="44.3156" lon="5.82474">
        <ele>562.9892578</ele>
        <time>2014-11-20T12:17:04Z</time>
      </trkpt>
      <trkpt lat="44.31613" lon="5.82531">
        <ele>563.4699707</ele>
        <time>2014-11-20T12:17:16Z</time>
      </trkpt>
      <trkpt lat="44.31627" lon="5.82548">
        <ele>563.9504395</ele>
        <time>2014-11-20T12:17:20Z</time>
      </trkpt>
      <trkpt lat="44.31674" lon="5.82598">
        <ele>564.4311523</ele>
        <time>2014-11-20T12:17:34Z</time>
      </trkpt>
      <trkpt lat="44.31674" lon="5.82602">
        <ele>564.4311523</ele>
        <time>2014-11-20T12:17:45Z</time>
      </trkpt>
      <trkpt lat="44.31675" lon="5.82602">
        <ele>565.3925781</ele>
        <time>2014-11-20T12:18:59Z</time>
      </trkpt>
      <trkpt lat="44.31679" lon="5.82605">
        <ele>564.9118652</ele>
        <time>2014-11-20T12:19:03Z</time>
      </trkpt>
      <trkpt lat="44.31706" lon="5.82641">
        <ele>565.3925781</ele>
        <time>2014-11-20T12:19:16Z</time>
      </trkpt>
      <trkpt lat="44.31737" lon="5.82679">
        <ele>565.873291</ele>
        <time>2014-11-20T12:19:27Z</time>
      </trkpt>
      <trkpt lat="44.31768" lon="5.8271">
        <ele>567.3151855</ele>
        <time>2014-11-20T12:19:36Z</time>
      </trkpt>
      <trkpt lat="44.31795" lon="5.82733">
        <ele>565.873291</ele>
        <time>2014-11-20T12:19:43Z</time>
      </trkpt>
      <trkpt lat="44.31819" lon="5.82757">
        <ele>568.2763672</ele>
        <time>2014-11-20T12:19:50Z</time>
      </trkpt>
      <trkpt lat="44.31855" lon="5.82776">
        <ele>568.2763672</ele>
        <time>2014-11-20T12:19:59Z</time>
      </trkpt>
      <trkpt lat="44.31893" lon="5.82782">
        <ele>569.7185059</ele>
        <time>2014-11-20T12:20:08Z</time>
      </trkpt>
      <trkpt lat="44.31924" lon="5.82783">
        <ele>570.6796875</ele>
        <time>2014-11-20T12:20:15Z</time>
      </trkpt>
      <trkpt lat="44.31954" lon="5.82792">
        <ele>570.1989746</ele>
        <time>2014-11-20T12:20:23Z</time>
      </trkpt>
      <trkpt lat="44.32006" lon="5.82815">
        <ele>573.083252</ele>
        <time>2014-11-20T12:20:38Z</time>
      </trkpt>
      <trkpt lat="44.32051" lon="5.82846">
        <ele>575.4863281</ele>
        <time>2014-11-20T12:20:55Z</time>
      </trkpt>
      <trkpt lat="44.32078" lon="5.82866">
        <ele>577.4091797</ele>
        <time>2014-11-20T12:21:07Z</time>
      </trkpt>
      <trkpt lat="44.32116" lon="5.82865">
        <ele>577.8896484</ele>
        <time>2014-11-20T12:21:17Z</time>
      </trkpt>
      <trkpt lat="44.32153" lon="5.82879">
        <ele>578.3703613</ele>
        <time>2014-11-20T12:21:28Z</time>
      </trkpt>
      <trkpt lat="44.32212" lon="5.82909">
        <ele>578.8510742</ele>
        <time>2014-11-20T12:21:45Z</time>
      </trkpt>
      <trkpt lat="44.32288" lon="5.82945">
        <ele>580.7736816</ele>
        <time>2014-11-20T12:22:06Z</time>
      </trkpt>
      <trkpt lat="44.32349" lon="5.82981">
        <ele>582.6962891</ele>
        <time>2014-11-20T12:22:24Z</time>
      </trkpt>
      <trkpt lat="44.32379" lon="5.83051">
        <ele>582.6962891</ele>
        <time>2014-11-20T12:22:39Z</time>
      </trkpt>
      <trkpt lat="44.32385" lon="5.8307">
        <ele>581.7348633</ele>
        <time>2014-11-20T12:22:42Z</time>
      </trkpt>
      <trkpt lat="44.32444" lon="5.83148">
        <ele>581.2543945</ele>
        <time>2014-11-20T12:22:57Z</time>
      </trkpt>
      <trkpt lat="44.32527" lon="5.83202">
        <ele>580.7736816</ele>
        <time>2014-11-20T12:23:15Z</time>
      </trkpt>
      <trkpt lat="44.32599" lon="5.83234">
        <ele>581.2543945</ele>
        <time>2014-11-20T12:23:30Z</time>
      </trkpt>
      <trkpt lat="44.32662" lon="5.83283">
        <ele>581.2543945</ele>
        <time>2014-11-20T12:23:47Z</time>
      </trkpt>
      <trkpt lat="44.32666" lon="5.83285">
        <ele>581.7348633</ele>
        <time>2014-11-20T12:23:58Z</time>
      </trkpt>
      <trkpt lat="44.32666" lon="5.83284">
        <ele>580.7736816</ele>
        <time>2014-11-20T12:24:16Z</time>
      </trkpt>
      <trkpt lat="44.32666" lon="5.83284">
        <ele>582.6962891</ele>
        <time>2014-11-20T12:24:19Z</time>
      </trkpt>
      <trkpt lat="44.32665" lon="5.83284">
        <ele>581.7348633</ele>
        <time>2014-11-20T12:25:32Z</time>
      </trkpt>
      <trkpt lat="44.32665" lon="5.83284">
        <ele>583.6574707</ele>
        <time>2014-11-20T12:25:37Z</time>
      </trkpt>
      <trkpt lat="44.32665" lon="5.83284">
        <ele>583.6574707</ele>
        <time>2014-11-20T12:25:49Z</time>
      </trkpt>
      <trkpt lat="44.32665" lon="5.83284">
        <ele>582.2155762</ele>
        <time>2014-11-20T12:25:51Z</time>
      </trkpt>
      <trkpt lat="44.32665" lon="5.83284">
        <ele>583.6574707</ele>
        <time>2014-11-20T12:25:56Z</time>
      </trkpt>
      <trkpt lat="44.32665" lon="5.83284">
        <ele>583.6574707</ele>
        <time>2014-11-20T12:26:14Z</time>
      </trkpt>
      <trkpt lat="44.32665" lon="5.83284">
        <ele>580.7736816</ele>
        <time>2014-11-20T12:26:24Z</time>
      </trkpt>
      <trkpt lat="44.32665" lon="5.83285">
        <ele>582.6962891</ele>
        <time>2014-11-20T12:26:26Z</time>
      </trkpt>
      <trkpt lat="44.32665" lon="5.83284">
        <ele>582.6962891</ele>
        <time>2014-11-20T12:26:42Z</time>
      </trkpt>
      <trkpt lat="44.32671" lon="5.83286">
        <ele>582.2155762</ele>
        <time>2014-11-20T12:26:46Z</time>
      </trkpt>
      <trkpt lat="44.32703" lon="5.83311">
        <ele>582.6962891</ele>
        <time>2014-11-20T12:26:56Z</time>
      </trkpt>
      <trkpt lat="44.32708" lon="5.83314">
        <ele>582.2155762</ele>
        <time>2014-11-20T12:26:57Z</time>
      </trkpt>
      <trkpt lat="44.32754" lon="5.83347">
        <ele>584.6188965</ele>
        <time>2014-11-20T12:27:08Z</time>
      </trkpt>
      <trkpt lat="44.32778" lon="5.8337">
        <ele>582.6962891</ele>
        <time>2014-11-20T12:27:15Z</time>
      </trkpt>
      <trkpt lat="44.32787" lon="5.83375">
        <ele>582.6962891</ele>
        <time>2014-11-20T12:27:17Z</time>
      </trkpt>
      <trkpt lat="44.32851" lon="5.83396">
        <ele>585.5800781</ele>
        <time>2014-11-20T12:27:32Z</time>
      </trkpt>
      <trkpt lat="44.3289" lon="5.83397">
        <ele>587.9833984</ele>
        <time>2014-11-20T12:27:42Z</time>
      </trkpt>
      <trkpt lat="44.32914" lon="5.83399">
        <ele>587.9833984</ele>
        <time>2014-11-20T12:27:49Z</time>
      </trkpt>
      <trkpt lat="44.32968" lon="5.83403">
        <ele>589.90625</ele>
        <time>2014-11-20T12:28:04Z</time>
      </trkpt>
      <trkpt lat="44.32985" lon="5.83404">
        <ele>590.3869629</ele>
        <time>2014-11-20T12:28:08Z</time>
      </trkpt>
      <trkpt lat="44.33002" lon="5.83404">
        <ele>592.7902832</ele>
        <time>2014-11-20T12:28:12Z</time>
      </trkpt>
      <trkpt lat="44.33045" lon="5.83406">
        <ele>588.9450684</ele>
        <time>2014-11-20T12:28:21Z</time>
      </trkpt>
      <trkpt lat="44.3305" lon="5.83406">
        <ele>588.9450684</ele>
        <time>2014-11-20T12:28:22Z</time>
      </trkpt>
      <trkpt lat="44.33161" lon="5.83399">
        <ele>589.4255371</ele>
        <time>2014-11-20T12:28:43Z</time>
      </trkpt>
      <trkpt lat="44.33183" lon="5.83396">
        <ele>589.90625</ele>
        <time>2014-11-20T12:28:48Z</time>
      </trkpt>
      <trkpt lat="44.33262" lon="5.83382">
        <ele>591.3481445</ele>
        <time>2014-11-20T12:29:07Z</time>
      </trkpt>
      <trkpt lat="44.33342" lon="5.83371">
        <ele>592.7902832</ele>
        <time>2014-11-20T12:29:27Z</time>
      </trkpt>
      <trkpt lat="44.33372" lon="5.83365">
        <ele>593.270752</ele>
        <time>2014-11-20T12:29:34Z</time>
      </trkpt>
      <trkpt lat="44.33459" lon="5.83352">
        <ele>594.7126465</ele>
        <time>2014-11-20T12:29:54Z</time>
      </trkpt>
      <trkpt lat="44.33497" lon="5.83354">
        <ele>595.6740723</ele>
        <time>2014-11-20T12:30:03Z</time>
      </trkpt>
      <trkpt lat="44.33557" lon="5.8336">
        <ele>598.0773926</ele>
        <time>2014-11-20T12:30:19Z</time>
      </trkpt>
      <trkpt lat="44.3361" lon="5.83367">
        <ele>600</ele>
        <time>2014-11-20T12:30:34Z</time>
      </trkpt>
      <trkpt lat="44.3365" lon="5.83371">
        <ele>601.4418945</ele>
        <time>2014-11-20T12:30:45Z</time>
      </trkpt>
      <trkpt lat="44.33735" lon="5.83379">
        <ele>602.8837891</ele>
        <time>2014-11-20T12:31:08Z</time>
      </trkpt>
      <trkpt lat="44.33841" lon="5.83398">
        <ele>605.2873535</ele>
        <time>2014-11-20T12:31:35Z</time>
      </trkpt>
      <trkpt lat="44.33927" lon="5.83417">
        <ele>607.6906738</ele>
        <time>2014-11-20T12:31:58Z</time>
      </trkpt>
      <trkpt lat="44.33974" lon="5.83445">
        <ele>608.6518555</ele>
        <time>2014-11-20T12:32:12Z</time>
      </trkpt>
      <trkpt lat="44.34034" lon="5.83502">
        <ele>611.0551758</ele>
        <time>2014-11-20T12:32:32Z</time>
      </trkpt>
      <trkpt lat="44.34084" lon="5.83555">
        <ele>612.9777832</ele>
        <time>2014-11-20T12:32:50Z</time>
      </trkpt>
      <trkpt lat="44.34149" lon="5.83616">
        <ele>612.4970703</ele>
        <time>2014-11-20T12:33:08Z</time>
      </trkpt>
      <trkpt lat="44.34231" lon="5.83708">
        <ele>612.9777832</ele>
        <time>2014-11-20T12:33:28Z</time>
      </trkpt>
      <trkpt lat="44.34248" lon="5.83733">
        <ele>613.4584961</ele>
        <time>2014-11-20T12:33:33Z</time>
      </trkpt>
      <trkpt lat="44.34293" lon="5.8379">
        <ele>614.9003906</ele>
        <time>2014-11-20T12:33:46Z</time>
      </trkpt>
      <trkpt lat="44.34338" lon="5.83851">
        <ele>616.822998</ele>
        <time>2014-11-20T12:34:00Z</time>
      </trkpt>
      <trkpt lat="44.3438" lon="5.83902">
        <ele>617.3037109</ele>
        <time>2014-11-20T12:34:14Z</time>
      </trkpt>
      <trkpt lat="44.34404" lon="5.83929">
        <ele>617.7841797</ele>
        <time>2014-11-20T12:34:21Z</time>
      </trkpt>
      <trkpt lat="44.34474" lon="5.8402">
        <ele>617.7841797</ele>
        <time>2014-11-20T12:34:43Z</time>
      </trkpt>
      <trkpt lat="44.34543" lon="5.8411">
        <ele>617.7841797</ele>
        <time>2014-11-20T12:35:03Z</time>
      </trkpt>
      <trkpt lat="44.34569" lon="5.84141">
        <ele>617.7841797</ele>
        <time>2014-11-20T12:35:10Z</time>
      </trkpt>
      <trkpt lat="44.34594" lon="5.84179">
        <ele>618.7456055</ele>
        <time>2014-11-20T12:35:18Z</time>
      </trkpt>
      <trkpt lat="44.34618" lon="5.84244">
        <ele>619.2263184</ele>
        <time>2014-11-20T12:35:30Z</time>
      </trkpt>
      <trkpt lat="44.34625" lon="5.84284">
        <ele>620.1877441</ele>
        <time>2014-11-20T12:35:37Z</time>
      </trkpt>
      <trkpt lat="44.34631" lon="5.8431">
        <ele>620.668457</ele>
        <time>2014-11-20T12:35:42Z</time>
      </trkpt>
      <trkpt lat="44.34648" lon="5.84368">
        <ele>622.5910645</ele>
        <time>2014-11-20T12:35:53Z</time>
      </trkpt>
      <trkpt lat="44.34667" lon="5.84412">
        <ele>623.0717773</ele>
        <time>2014-11-20T12:36:02Z</time>
      </trkpt>
      <trkpt lat="44.34715" lon="5.84474">
        <ele>624.9943848</ele>
        <time>2014-11-20T12:36:19Z</time>
      </trkpt>
      <trkpt lat="44.3477" lon="5.8454">
        <ele>625.9555664</ele>
        <time>2014-11-20T12:36:37Z</time>
      </trkpt>
      <trkpt lat="44.3484" lon="5.84631">
        <ele>627.3977051</ele>
        <time>2014-11-20T12:36:59Z</time>
      </trkpt>
      <trkpt lat="44.34887" lon="5.84711">
        <ele>628.8395996</ele>
        <time>2014-11-20T12:37:16Z</time>
      </trkpt>
      <trkpt lat="44.34921" lon="5.84753">
        <ele>629.3200684</ele>
        <time>2014-11-20T12:37:27Z</time>
      </trkpt>
      <trkpt lat="44.34971" lon="5.84798">
        <ele>630.2814941</ele>
        <time>2014-11-20T12:37:41Z</time>
      </trkpt>
      <trkpt lat="44.34981" lon="5.84806">
        <ele>630.762207</ele>
        <time>2014-11-20T12:37:44Z</time>
      </trkpt>
      <trkpt lat="44.35034" lon="5.84861">
        <ele>632.2041016</ele>
        <time>2014-11-20T12:38:00Z</time>
      </trkpt>
      <trkpt lat="44.35037" lon="5.84865">
        <ele>632.2041016</ele>
        <time>2014-11-20T12:38:01Z</time>
      </trkpt>
      <trkpt lat="44.35051" lon="5.84884">
        <ele>632.6848145</ele>
        <time>2014-11-20T12:38:06Z</time>
      </trkpt>
      <trkpt lat="44.35072" lon="5.84916">
        <ele>633.6459961</ele>
        <time>2014-11-20T12:38:14Z</time>
      </trkpt>
      <trkpt lat="44.35095" lon="5.84959">
        <ele>636.0495605</ele>
        <time>2014-11-20T12:38:23Z</time>
      </trkpt>
      <trkpt lat="44.35103" lon="5.84978">
        <ele>636.5302734</ele>
        <time>2014-11-20T12:38:27Z</time>
      </trkpt>
      <trkpt lat="44.35161" lon="5.85085">
        <ele>638.4528809</ele>
        <time>2014-11-20T12:38:50Z</time>
      </trkpt>
      <trkpt lat="44.35181" lon="5.85107">
        <ele>637.4914551</ele>
        <time>2014-11-20T12:38:56Z</time>
      </trkpt>
      <trkpt lat="44.35204" lon="5.85134">
        <ele>638.4528809</ele>
        <time>2014-11-20T12:39:03Z</time>
      </trkpt>
      <trkpt lat="44.3522" lon="5.85162">
        <ele>638.4528809</ele>
        <time>2014-11-20T12:39:09Z</time>
      </trkpt>
      <trkpt lat="44.3524" lon="5.85225">
        <ele>640.855957</ele>
        <time>2014-11-20T12:39:21Z</time>
      </trkpt>
      <trkpt lat="44.3527" lon="5.85316">
        <ele>643.2592773</ele>
        <time>2014-11-20T12:39:39Z</time>
      </trkpt>
      <trkpt lat="44.35284" lon="5.85344">
        <ele>642.2980957</ele>
        <time>2014-11-20T12:39:45Z</time>
      </trkpt>
      <trkpt lat="44.35286" lon="5.85354">
        <ele>643.2592773</ele>
        <time>2014-11-20T12:39:47Z</time>
      </trkpt>
      <trkpt lat="44.35303" lon="5.85408">
        <ele>645.6625977</ele>
        <time>2014-11-20T12:39:59Z</time>
      </trkpt>
      <trkpt lat="44.35307" lon="5.85417">
        <ele>644.2207031</ele>
        <time>2014-11-20T12:40:01Z</time>
      </trkpt>
      <trkpt lat="44.35338" lon="5.8547">
        <ele>644.7011719</ele>
        <time>2014-11-20T12:40:14Z</time>
      </trkpt>
      <trkpt lat="44.3536" lon="5.85495">
        <ele>645.6625977</ele>
        <time>2014-11-20T12:40:28Z</time>
      </trkpt>
      <trkpt lat="44.3536" lon="5.85495">
        <ele>645.6625977</ele>
        <time>2014-11-20T12:40:47Z</time>
      </trkpt>
      <trkpt lat="44.35374" lon="5.8551">
        <ele>646.1433105</ele>
        <time>2014-11-20T12:41:04Z</time>
      </trkpt>
      <trkpt lat="44.35404" lon="5.85548">
        <ele>647.1044922</ele>
        <time>2014-11-20T12:41:17Z</time>
      </trkpt>
      <trkpt lat="44.35412" lon="5.85556">
        <ele>648.5463867</ele>
        <time>2014-11-20T12:41:20Z</time>
      </trkpt>
      <trkpt lat="44.35456" lon="5.85601">
        <ele>650.949707</ele>
        <time>2014-11-20T12:41:36Z</time>
      </trkpt>
      <trkpt lat="44.35478" lon="5.85626">
        <ele>649.0270996</ele>
        <time>2014-11-20T12:41:45Z</time>
      </trkpt>
      <trkpt lat="44.35491" lon="5.85641">
        <ele>649.9885254</ele>
        <time>2014-11-20T12:41:50Z</time>
      </trkpt>
      <trkpt lat="44.35513" lon="5.85666">
        <ele>651.9111328</ele>
        <time>2014-11-20T12:41:59Z</time>
      </trkpt>
      <trkpt lat="44.35545" lon="5.85703">
        <ele>655.2758789</ele>
        <time>2014-11-20T12:42:12Z</time>
      </trkpt>
      <trkpt lat="44.35553" lon="5.85712">
        <ele>653.8339844</ele>
        <time>2014-11-20T12:42:15Z</time>
      </trkpt>
      <trkpt lat="44.35593" lon="5.85756">
        <ele>655.7565918</ele>
        <time>2014-11-20T12:42:31Z</time>
      </trkpt>
      <trkpt lat="44.35643" lon="5.85822">
        <ele>656.7177734</ele>
        <time>2014-11-20T12:42:52Z</time>
      </trkpt>
      <trkpt lat="44.35667" lon="5.85864">
        <ele>658.1599121</ele>
        <time>2014-11-20T12:43:03Z</time>
      </trkpt>
      <trkpt lat="44.35712" lon="5.85935">
        <ele>659.6018066</ele>
        <time>2014-11-20T12:43:22Z</time>
      </trkpt>
      <trkpt lat="44.35766" lon="5.86018">
        <ele>661.5244141</ele>
        <time>2014-11-20T12:43:45Z</time>
      </trkpt>
      <trkpt lat="44.35774" lon="5.86033">
        <ele>661.5244141</ele>
        <time>2014-11-20T12:43:48Z</time>
      </trkpt>
      <trkpt lat="44.358" lon="5.86144">
        <ele>662.4855957</ele>
        <time>2014-11-20T12:44:08Z</time>
      </trkpt>
      <trkpt lat="44.35834" lon="5.86263">
        <ele>663.9274902</ele>
        <time>2014-11-20T12:44:30Z</time>
      </trkpt>
      <trkpt lat="44.35875" lon="5.86362">
        <ele>664.4082031</ele>
        <time>2014-11-20T12:44:50Z</time>
      </trkpt>
      <trkpt lat="44.35886" lon="5.86407">
        <ele>664.4082031</ele>
        <time>2014-11-20T12:44:58Z</time>
      </trkpt>
      <trkpt lat="44.35915" lon="5.86543">
        <ele>662.4855957</ele>
        <time>2014-11-20T12:45:17Z</time>
      </trkpt>
      <trkpt lat="44.35952" lon="5.86704">
        <ele>661.0437012</ele>
        <time>2014-11-20T12:45:37Z</time>
      </trkpt>
      <trkpt lat="44.36007" lon="5.86826">
        <ele>656.7177734</ele>
        <time>2014-11-20T12:45:52Z</time>
      </trkpt>
      <trkpt lat="44.36012" lon="5.86835">
        <ele>656.7177734</ele>
        <time>2014-11-20T12:45:53Z</time>
      </trkpt>
      <trkpt lat="44.36068" lon="5.86951">
        <ele>653.3532715</ele>
        <time>2014-11-20T12:46:05Z</time>
      </trkpt>
      <trkpt lat="44.36079" lon="5.86973">
        <ele>651.9111328</ele>
        <time>2014-11-20T12:46:07Z</time>
      </trkpt>
      <trkpt lat="44.36099" lon="5.87021">
        <ele>649.9885254</ele>
        <time>2014-11-20T12:46:11Z</time>
      </trkpt>
      <trkpt lat="44.36107" lon="5.87049">
        <ele>646.6240234</ele>
        <time>2014-11-20T12:46:13Z</time>
      </trkpt>
      <trkpt lat="44.36111" lon="5.87064">
        <ele>646.6240234</ele>
        <time>2014-11-20T12:46:14Z</time>
      </trkpt>
      <trkpt lat="44.36123" lon="5.87138">
        <ele>643.7399902</ele>
        <time>2014-11-20T12:46:19Z</time>
      </trkpt>
      <trkpt lat="44.36127" lon="5.87167">
        <ele>642.2980957</ele>
        <time>2014-11-20T12:46:21Z</time>
      </trkpt>
      <trkpt lat="44.36137" lon="5.8724">
        <ele>638.9335938</ele>
        <time>2014-11-20T12:46:26Z</time>
      </trkpt>
      <trkpt lat="44.36139" lon="5.87253">
        <ele>637.4914551</ele>
        <time>2014-11-20T12:46:27Z</time>
      </trkpt>
      <trkpt lat="44.36159" lon="5.87305">
        <ele>635.0881348</ele>
        <time>2014-11-20T12:46:32Z</time>
      </trkpt>
      <trkpt lat="44.36197" lon="5.87349">
        <ele>631.7233887</ele>
        <time>2014-11-20T12:46:37Z</time>
      </trkpt>
      <trkpt lat="44.3621" lon="5.87391">
        <ele>628.8395996</ele>
        <time>2014-11-20T12:46:41Z</time>
      </trkpt>
      <trkpt lat="44.36203" lon="5.87424">
        <ele>627.8781738</ele>
        <time>2014-11-20T12:46:44Z</time>
      </trkpt>
      <trkpt lat="44.36189" lon="5.8749">
        <ele>625.9555664</ele>
        <time>2014-11-20T12:46:50Z</time>
      </trkpt>
      <trkpt lat="44.36191" lon="5.87527">
        <ele>624.5136719</ele>
        <time>2014-11-20T12:46:53Z</time>
      </trkpt>
      <trkpt lat="44.36198" lon="5.87575">
        <ele>623.0717773</ele>
        <time>2014-11-20T12:46:57Z</time>
      </trkpt>
      <trkpt lat="44.3621" lon="5.87624">
        <ele>621.1491699</ele>
        <time>2014-11-20T12:47:01Z</time>
      </trkpt>
      <trkpt lat="44.36216" lon="5.87678">
        <ele>619.2263184</ele>
        <time>2014-11-20T12:47:05Z</time>
      </trkpt>
      <trkpt lat="44.36215" lon="5.87719">
        <ele>617.7841797</ele>
        <time>2014-11-20T12:47:08Z</time>
      </trkpt>
      <trkpt lat="44.36218" lon="5.87757">
        <ele>616.822998</ele>
        <time>2014-11-20T12:47:11Z</time>
      </trkpt>
      <trkpt lat="44.3624" lon="5.8784">
        <ele>614.4196777</ele>
        <time>2014-11-20T12:47:18Z</time>
      </trkpt>
      <trkpt lat="44.36245" lon="5.87908">
        <ele>613.4584961</ele>
        <time>2014-11-20T12:47:24Z</time>
      </trkpt>
      <trkpt lat="44.36243" lon="5.87959">
        <ele>612.4970703</ele>
        <time>2014-11-20T12:47:29Z</time>
      </trkpt>
      <trkpt lat="44.36251" lon="5.88003">
        <ele>611.0551758</ele>
        <time>2014-11-20T12:47:33Z</time>
      </trkpt>
      <trkpt lat="44.36266" lon="5.88049">
        <ele>609.6132813</ele>
        <time>2014-11-20T12:47:37Z</time>
      </trkpt>
      <trkpt lat="44.36277" lon="5.88084">
        <ele>609.1325684</ele>
        <time>2014-11-20T12:47:40Z</time>
      </trkpt>
      <trkpt lat="44.36285" lon="5.88115">
        <ele>608.6518555</ele>
        <time>2014-11-20T12:47:43Z</time>
      </trkpt>
      <trkpt lat="44.36313" lon="5.88235">
        <ele>608.6518555</ele>
        <time>2014-11-20T12:47:57Z</time>
      </trkpt>
      <trkpt lat="44.36324" lon="5.88301">
        <ele>607.2099609</ele>
        <time>2014-11-20T12:48:04Z</time>
      </trkpt>
      <trkpt lat="44.3634" lon="5.88351">
        <ele>603.8452148</ele>
        <time>2014-11-20T12:48:09Z</time>
      </trkpt>
      <trkpt lat="44.36356" lon="5.8839">
        <ele>603.364502</ele>
        <time>2014-11-20T12:48:13Z</time>
      </trkpt>
      <trkpt lat="44.36362" lon="5.88407">
        <ele>603.8452148</ele>
        <time>2014-11-20T12:48:15Z</time>
      </trkpt>
      <trkpt lat="44.36366" lon="5.88433">
        <ele>604.8066406</ele>
        <time>2014-11-20T12:48:18Z</time>
      </trkpt>
      <trkpt lat="44.36368" lon="5.88449">
        <ele>604.8066406</ele>
        <time>2014-11-20T12:48:20Z</time>
      </trkpt>
      <trkpt lat="44.36372" lon="5.88527">
        <ele>607.6906738</ele>
        <time>2014-11-20T12:48:34Z</time>
      </trkpt>
      <trkpt lat="44.3637" lon="5.88554">
        <ele>607.2099609</ele>
        <time>2014-11-20T12:48:39Z</time>
      </trkpt>
      <trkpt lat="44.36371" lon="5.88597">
        <ele>606.729248</ele>
        <time>2014-11-20T12:48:46Z</time>
      </trkpt>
      <trkpt lat="44.36369" lon="5.88629">
        <ele>607.2099609</ele>
        <time>2014-11-20T12:48:51Z</time>
      </trkpt>
      <trkpt lat="44.36346" lon="5.88701">
        <ele>608.1713867</ele>
        <time>2014-11-20T12:49:03Z</time>
      </trkpt>
      <trkpt lat="44.36338" lon="5.88733">
        <ele>608.1713867</ele>
        <time>2014-11-20T12:49:09Z</time>
      </trkpt>
      <trkpt lat="44.36336" lon="5.88745">
        <ele>608.6518555</ele>
        <time>2014-11-20T12:49:11Z</time>
      </trkpt>
      <trkpt lat="44.36342" lon="5.88787">
        <ele>607.6906738</ele>
        <time>2014-11-20T12:49:17Z</time>
      </trkpt>
      <trkpt lat="44.36384" lon="5.88907">
        <ele>604.3261719</ele>
        <time>2014-11-20T12:49:31Z</time>
      </trkpt>
      <trkpt lat="44.36422" lon="5.89005">
        <ele>603.364502</ele>
        <time>2014-11-20T12:49:42Z</time>
      </trkpt>
      <trkpt lat="44.36434" lon="5.89041">
        <ele>603.364502</ele>
        <time>2014-11-20T12:49:47Z</time>
      </trkpt>
      <trkpt lat="44.3648" lon="5.8916">
        <ele>600.4807129</ele>
        <time>2014-11-20T12:50:01Z</time>
      </trkpt>
      <trkpt lat="44.36524" lon="5.89272">
        <ele>597.1159668</ele>
        <time>2014-11-20T12:50:13Z</time>
      </trkpt>
      <trkpt lat="44.36538" lon="5.89317">
        <ele>594.7126465</ele>
        <time>2014-11-20T12:50:17Z</time>
      </trkpt>
      <trkpt lat="44.36551" lon="5.89407">
        <ele>593.7514648</ele>
        <time>2014-11-20T12:50:25Z</time>
      </trkpt>
      <trkpt lat="44.36596" lon="5.895">
        <ele>593.7514648</ele>
        <time>2014-11-20T12:50:38Z</time>
      </trkpt>
      <trkpt lat="44.36664" lon="5.89605">
        <ele>592.3095703</ele>
        <time>2014-11-20T12:50:54Z</time>
      </trkpt>
      <trkpt lat="44.36668" lon="5.8961">
        <ele>592.7902832</ele>
        <time>2014-11-20T12:50:55Z</time>
      </trkpt>
      <trkpt lat="44.36723" lon="5.89695">
        <ele>594.7126465</ele>
        <time>2014-11-20T12:51:14Z</time>
      </trkpt>
      <trkpt lat="44.36775" lon="5.89786">
        <ele>595.1933594</ele>
        <time>2014-11-20T12:51:34Z</time>
      </trkpt>
      <trkpt lat="44.36795" lon="5.89836">
        <ele>594.7126465</ele>
        <time>2014-11-20T12:51:42Z</time>
      </trkpt>
      <trkpt lat="44.36805" lon="5.89857">
        <ele>592.7902832</ele>
        <time>2014-11-20T12:51:45Z</time>
      </trkpt>
      <trkpt lat="44.36827" lon="5.89886">
        <ele>591.3481445</ele>
        <time>2014-11-20T12:51:49Z</time>
      </trkpt>
      <trkpt lat="44.36844" lon="5.89905">
        <ele>590.8674316</ele>
        <time>2014-11-20T12:51:52Z</time>
      </trkpt>
      <trkpt lat="44.36859" lon="5.8992">
        <ele>590.8674316</ele>
        <time>2014-11-20T12:51:55Z</time>
      </trkpt>
      <trkpt lat="44.36905" lon="5.89948">
        <ele>594.2321777</ele>
        <time>2014-11-20T12:52:07Z</time>
      </trkpt>
      <trkpt lat="44.36943" lon="5.89973">
        <ele>596.1547852</ele>
        <time>2014-11-20T12:52:20Z</time>
      </trkpt>
      <trkpt lat="44.36981" lon="5.89997">
        <ele>598.5578613</ele>
        <time>2014-11-20T12:52:34Z</time>
      </trkpt>
      <trkpt lat="44.37022" lon="5.9001">
        <ele>599.5192871</ele>
        <time>2014-11-20T12:52:47Z</time>
      </trkpt>
      <trkpt lat="44.37061" lon="5.9001">
        <ele>598.5578613</ele>
        <time>2014-11-20T12:52:57Z</time>
      </trkpt>
      <trkpt lat="44.37091" lon="5.89992">
        <ele>596.1547852</ele>
        <time>2014-11-20T12:53:02Z</time>
      </trkpt>
      <trkpt lat="44.37121" lon="5.89959">
        <ele>594.2321777</ele>
        <time>2014-11-20T12:53:07Z</time>
      </trkpt>
      <trkpt lat="44.37179" lon="5.89964">
        <ele>593.7514648</ele>
        <time>2014-11-20T12:53:15Z</time>
      </trkpt>
      <trkpt lat="44.37193" lon="5.89977">
        <ele>593.7514648</ele>
        <time>2014-11-20T12:53:18Z</time>
      </trkpt>
      <trkpt lat="44.37214" lon="5.90008">
        <ele>593.7514648</ele>
        <time>2014-11-20T12:53:24Z</time>
      </trkpt>
      <trkpt lat="44.37259" lon="5.90071">
        <ele>596.1547852</ele>
        <time>2014-11-20T12:53:40Z</time>
      </trkpt>
      <trkpt lat="44.37295" lon="5.90125">
        <ele>598.5578613</ele>
        <time>2014-11-20T12:53:57Z</time>
      </trkpt>
      <trkpt lat="44.37314" lon="5.90146">
        <ele>599.0385742</ele>
        <time>2014-11-20T12:54:05Z</time>
      </trkpt>
      <trkpt lat="44.37328" lon="5.90165">
        <ele>599.5192871</ele>
        <time>2014-11-20T12:54:12Z</time>
      </trkpt>
      <trkpt lat="44.37353" lon="5.90201">
        <ele>600.9611816</ele>
        <time>2014-11-20T12:54:25Z</time>
      </trkpt>
      <trkpt lat="44.3739" lon="5.90247">
        <ele>602.8837891</ele>
        <time>2014-11-20T12:54:42Z</time>
      </trkpt>
      <trkpt lat="44.37419" lon="5.90279">
        <ele>603.364502</ele>
        <time>2014-11-20T12:54:55Z</time>
      </trkpt>
      <trkpt lat="44.37409" lon="5.90292">
        <ele>604.8066406</ele>
        <time>2014-11-20T12:55:01Z</time>
      </trkpt>
      <trkpt lat="44.37371" lon="5.90245">
        <ele>606.2485352</ele>
        <time>2014-11-20T12:55:20Z</time>
      </trkpt>
      <trkpt lat="44.37342" lon="5.9023">
        <ele>607.6906738</ele>
        <time>2014-11-20T12:55:32Z</time>
      </trkpt>
      <trkpt lat="44.37333" lon="5.90239">
        <ele>608.6518555</ele>
        <time>2014-11-20T12:55:37Z</time>
      </trkpt>
      <trkpt lat="44.37315" lon="5.90278">
        <ele>610.09375</ele>
        <time>2014-11-20T12:55:50Z</time>
      </trkpt>
      <trkpt lat="44.37305" lon="5.90303">
        <ele>611.0551758</ele>
        <time>2014-11-20T12:55:59Z</time>
      </trkpt>
      <trkpt lat="44.37283" lon="5.90348">
        <ele>613.4584961</ele>
        <time>2014-11-20T12:56:15Z</time>
      </trkpt>
      <trkpt lat="44.37277" lon="5.90358">
        <ele>613.9389648</ele>
        <time>2014-11-20T12:56:19Z</time>
      </trkpt>
      <trkpt lat="44.37276" lon="5.90364">
        <ele>614.4196777</ele>
        <time>2014-11-20T12:56:21Z</time>
      </trkpt>
      <trkpt lat="44.37268" lon="5.90373">
        <ele>614.9003906</ele>
        <time>2014-11-20T12:56:26Z</time>
      </trkpt>
      <trkpt lat="44.37258" lon="5.90409">
        <ele>617.7841797</ele>
        <time>2014-11-20T12:56:39Z</time>
      </trkpt>
      <trkpt lat="44.37261" lon="5.90463">
        <ele>619.2263184</ele>
        <time>2014-11-20T12:56:55Z</time>
      </trkpt>
      <trkpt lat="44.37263" lon="5.90476">
        <ele>619.7070313</ele>
        <time>2014-11-20T12:56:59Z</time>
      </trkpt>
      <trkpt lat="44.37261" lon="5.90489">
        <ele>620.1877441</ele>
        <time>2014-11-20T12:57:04Z</time>
      </trkpt>
      <trkpt lat="44.37261" lon="5.90517">
        <ele>622.1103516</ele>
        <time>2014-11-20T12:57:14Z</time>
      </trkpt>
      <trkpt lat="44.37258" lon="5.90531">
        <ele>622.5910645</ele>
        <time>2014-11-20T12:57:20Z</time>
      </trkpt>
      <trkpt lat="44.37258" lon="5.9054">
        <ele>623.5524902</ele>
        <time>2014-11-20T12:57:23Z</time>
      </trkpt>
      <trkpt lat="44.37254" lon="5.9059">
        <ele>625.4748535</ele>
        <time>2014-11-20T12:57:39Z</time>
      </trkpt>
      <trkpt lat="44.3725" lon="5.90612">
        <ele>625.4748535</ele>
        <time>2014-11-20T12:57:46Z</time>
      </trkpt>
      <trkpt lat="44.37219" lon="5.90647">
        <ele>625.4748535</ele>
        <time>2014-11-20T12:57:59Z</time>
      </trkpt>
      <trkpt lat="44.37196" lon="5.9069">
        <ele>624.5136719</ele>
        <time>2014-11-20T12:58:09Z</time>
      </trkpt>
      <trkpt lat="44.37192" lon="5.90707">
        <ele>624.5136719</ele>
        <time>2014-11-20T12:58:12Z</time>
      </trkpt>
      <trkpt lat="44.37187" lon="5.90724">
        <ele>624.032959</ele>
        <time>2014-11-20T12:58:15Z</time>
      </trkpt>
      <trkpt lat="44.37184" lon="5.90736">
        <ele>624.032959</ele>
        <time>2014-11-20T12:58:17Z</time>
      </trkpt>
      <trkpt lat="44.37199" lon="5.9077">
        <ele>622.5910645</ele>
        <time>2014-11-20T12:58:24Z</time>
      </trkpt>
      <trkpt lat="44.3722" lon="5.90777">
        <ele>622.5910645</ele>
        <time>2014-11-20T12:58:28Z</time>
      </trkpt>
      <trkpt lat="44.37242" lon="5.9079">
        <ele>621.1491699</ele>
        <time>2014-11-20T12:58:32Z</time>
      </trkpt>
      <trkpt lat="44.37257" lon="5.90813">
        <ele>619.2263184</ele>
        <time>2014-11-20T12:58:35Z</time>
      </trkpt>
      <trkpt lat="44.37261" lon="5.90824">
        <ele>618.2648926</ele>
        <time>2014-11-20T12:58:36Z</time>
      </trkpt>
      <trkpt lat="44.37272" lon="5.90854">
        <ele>618.7456055</ele>
        <time>2014-11-20T12:58:39Z</time>
      </trkpt>
      <trkpt lat="44.37277" lon="5.90875">
        <ele>617.3037109</ele>
        <time>2014-11-20T12:58:41Z</time>
      </trkpt>
      <trkpt lat="44.37275" lon="5.9091">
        <ele>615.8618164</ele>
        <time>2014-11-20T12:58:44Z</time>
      </trkpt>
      <trkpt lat="44.37271" lon="5.90935">
        <ele>615.3811035</ele>
        <time>2014-11-20T12:58:46Z</time>
      </trkpt>
      <trkpt lat="44.37267" lon="5.9096">
        <ele>615.3811035</ele>
        <time>2014-11-20T12:58:48Z</time>
      </trkpt>
      <trkpt lat="44.37276" lon="5.91029">
        <ele>612.9777832</ele>
        <time>2014-11-20T12:58:53Z</time>
      </trkpt>
      <trkpt lat="44.37285" lon="5.91052">
        <ele>611.0551758</ele>
        <time>2014-11-20T12:58:55Z</time>
      </trkpt>
      <trkpt lat="44.37292" lon="5.91073">
        <ele>609.6132813</ele>
        <time>2014-11-20T12:58:57Z</time>
      </trkpt>
      <trkpt lat="44.37299" lon="5.91095">
        <ele>609.6132813</ele>
        <time>2014-11-20T12:58:59Z</time>
      </trkpt>
      <trkpt lat="44.37301" lon="5.91126">
        <ele>607.6906738</ele>
        <time>2014-11-20T12:59:02Z</time>
      </trkpt>
      <trkpt lat="44.37299" lon="5.91135">
        <ele>607.2099609</ele>
        <time>2014-11-20T12:59:03Z</time>
      </trkpt>
      <trkpt lat="44.37295" lon="5.91156">
        <ele>606.2485352</ele>
        <time>2014-11-20T12:59:05Z</time>
      </trkpt>
      <trkpt lat="44.37293" lon="5.91167">
        <ele>605.7680664</ele>
        <time>2014-11-20T12:59:06Z</time>
      </trkpt>
      <trkpt lat="44.37286" lon="5.91201">
        <ele>605.2873535</ele>
        <time>2014-11-20T12:59:09Z</time>
      </trkpt>
      <trkpt lat="44.37277" lon="5.91234">
        <ele>603.364502</ele>
        <time>2014-11-20T12:59:12Z</time>
      </trkpt>
      <trkpt lat="44.37246" lon="5.91277">
        <ele>603.8452148</ele>
        <time>2014-11-20T12:59:17Z</time>
      </trkpt>
      <trkpt lat="44.3723" lon="5.9129">
        <ele>601.9226074</ele>
        <time>2014-11-20T12:59:19Z</time>
      </trkpt>
      <trkpt lat="44.37213" lon="5.91302">
        <ele>600.4807129</ele>
        <time>2014-11-20T12:59:21Z</time>
      </trkpt>
      <trkpt lat="44.37198" lon="5.91317">
        <ele>599.0385742</ele>
        <time>2014-11-20T12:59:23Z</time>
      </trkpt>
      <trkpt lat="44.3718" lon="5.91336">
        <ele>597.1159668</ele>
        <time>2014-11-20T12:59:26Z</time>
      </trkpt>
      <trkpt lat="44.37168" lon="5.914">
        <ele>595.6740723</ele>
        <time>2014-11-20T12:59:32Z</time>
      </trkpt>
      <trkpt lat="44.37169" lon="5.91422">
        <ele>594.2321777</ele>
        <time>2014-11-20T12:59:34Z</time>
      </trkpt>
      <trkpt lat="44.37156" lon="5.91478">
        <ele>591.8288574</ele>
        <time>2014-11-20T12:59:39Z</time>
      </trkpt>
      <trkpt lat="44.37154" lon="5.91489">
        <ele>590.8674316</ele>
        <time>2014-11-20T12:59:40Z</time>
      </trkpt>
      <trkpt lat="44.37113" lon="5.91576">
        <ele>587.9833984</ele>
        <time>2014-11-20T12:59:48Z</time>
      </trkpt>
      <trkpt lat="44.37095" lon="5.91601">
        <ele>586.060791</ele>
        <time>2014-11-20T12:59:51Z</time>
      </trkpt>
      <trkpt lat="44.37081" lon="5.91611">
        <ele>586.060791</ele>
        <time>2014-11-20T12:59:53Z</time>
      </trkpt>
      <trkpt lat="44.37016" lon="5.91641">
        <ele>582.6962891</ele>
        <time>2014-11-20T13:00:02Z</time>
      </trkpt>
      <trkpt lat="44.3698" lon="5.91658">
        <ele>581.2543945</ele>
        <time>2014-11-20T13:00:07Z</time>
      </trkpt>
      <trkpt lat="44.3697" lon="5.91668">
        <ele>578.8510742</ele>
        <time>2014-11-20T13:00:09Z</time>
      </trkpt>
      <trkpt lat="44.36959" lon="5.91694">
        <ele>577.4091797</ele>
        <time>2014-11-20T13:00:12Z</time>
      </trkpt>
      <trkpt lat="44.36957" lon="5.91703">
        <ele>575.4863281</ele>
        <time>2014-11-20T13:00:13Z</time>
      </trkpt>
      <trkpt lat="44.36932" lon="5.91827">
        <ele>573.083252</ele>
        <time>2014-11-20T13:00:25Z</time>
      </trkpt>
      <trkpt lat="44.36927" lon="5.91914">
        <ele>570.6796875</ele>
        <time>2014-11-20T13:00:33Z</time>
      </trkpt>
      <trkpt lat="44.36922" lon="5.92034">
        <ele>569.237793</ele>
        <time>2014-11-20T13:00:44Z</time>
      </trkpt>
      <trkpt lat="44.36879" lon="5.92125">
        <ele>569.7185059</ele>
        <time>2014-11-20T13:00:56Z</time>
      </trkpt>
      <trkpt lat="44.36865" lon="5.92147">
        <ele>570.1989746</ele>
        <time>2014-11-20T13:01:00Z</time>
      </trkpt>
      <trkpt lat="44.3685" lon="5.92175">
        <ele>569.7185059</ele>
        <time>2014-11-20T13:01:05Z</time>
      </trkpt>
      <trkpt lat="44.36805" lon="5.92255">
        <ele>571.1604004</ele>
        <time>2014-11-20T13:01:22Z</time>
      </trkpt>
      <trkpt lat="44.36789" lon="5.9228">
        <ele>571.1604004</ele>
        <time>2014-11-20T13:01:28Z</time>
      </trkpt>
      <trkpt lat="44.36751" lon="5.92274">
        <ele>570.1989746</ele>
        <time>2014-11-20T13:01:37Z</time>
      </trkpt>
      <trkpt lat="44.36725" lon="5.92282">
        <ele>570.1989746</ele>
        <time>2014-11-20T13:01:43Z</time>
      </trkpt>
      <trkpt lat="44.36715" lon="5.92298">
        <ele>569.7185059</ele>
        <time>2014-11-20T13:01:46Z</time>
      </trkpt>
      <trkpt lat="44.36693" lon="5.92348">
        <ele>568.2763672</ele>
        <time>2014-11-20T13:01:54Z</time>
      </trkpt>
      <trkpt lat="44.36678" lon="5.92382">
        <ele>569.237793</ele>
        <time>2014-11-20T13:02:00Z</time>
      </trkpt>
      <trkpt lat="44.36641" lon="5.92407">
        <ele>567.3151855</ele>
        <time>2014-11-20T13:02:08Z</time>
      </trkpt>
      <trkpt lat="44.36629" lon="5.92403">
        <ele>564.9118652</ele>
        <time>2014-11-20T13:02:10Z</time>
      </trkpt>
      <trkpt lat="44.36589" lon="5.92377">
        <ele>565.873291</ele>
        <time>2014-11-20T13:02:17Z</time>
      </trkpt>
      <trkpt lat="44.36579" lon="5.9237">
        <ele>565.3925781</ele>
        <time>2014-11-20T13:02:19Z</time>
      </trkpt>
      <trkpt lat="44.3656" lon="5.92348">
        <ele>563.4699707</ele>
        <time>2014-11-20T13:02:24Z</time>
      </trkpt>
      <trkpt lat="44.36552" lon="5.9234">
        <ele>563.4699707</ele>
        <time>2014-11-20T13:02:27Z</time>
      </trkpt>
      <trkpt lat="44.36553" lon="5.92363">
        <ele>562.0280762</ele>
        <time>2014-11-20T13:02:34Z</time>
      </trkpt>
      <trkpt lat="44.36617" lon="5.92428">
        <ele>562.0280762</ele>
        <time>2014-11-20T13:02:50Z</time>
      </trkpt>
      <trkpt lat="44.36643" lon="5.92433">
        <ele>562.5085449</ele>
        <time>2014-11-20T13:02:56Z</time>
      </trkpt>
      <trkpt lat="44.36695" lon="5.92401">
        <ele>562.9892578</ele>
        <time>2014-11-20T13:03:09Z</time>
      </trkpt>
      <trkpt lat="44.3673" lon="5.92392">
        <ele>563.9504395</ele>
        <time>2014-11-20T13:03:21Z</time>
      </trkpt>
      <trkpt lat="44.36731" lon="5.92393">
        <ele>563.4699707</ele>
        <time>2014-11-20T13:03:35Z</time>
      </trkpt>
      <trkpt lat="44.36731" lon="5.92393">
        <ele>563.9504395</ele>
        <time>2014-11-20T13:03:50Z</time>
      </trkpt>
    </trkseg>
  </trk>
</gpx>